<?xml version="1.0" encoding="UTF-8" standalone="no" ?>
<gpx xmlns="http://www.topografix.com/GPX/1/1" xmlns:xsi="http://www.w3.org/2001/XMLSchema-instance" xsi:schemaLocation="http://www.topografix.com/GPX/1/1 http://www.topografix.com/GPX/1/1/gpx.xsd" version="1.1" creator="VisuGPX - https://www.visugpx.com">
  <metadata>
    <name>La boucle de Brenon</name>
    <desc><![CDATA[Du hameau du Plan d\'Anelle, après avoir garé la voiture sur une aire de pique-nique, j\'ai pris un des des chemins balisés parmi les Sentiers de l\'Artuby pour atteindre un point culminant à 1269 m, qui m\'a permis d\'admirer les préalpes de Catellane et le petit village de Brenon. Au retour je suis descendu j\'ai suivi le Jabron pour revenir au point de départ]]></desc>
  </metadata>
  <trk>
    <name><![CDATA[08-MAI-12 16:14:18]]></name>
    <trkseg>
      <trkpt lat="43.76133" lon="6.56068">
        <ele>940.31</ele>
        <time>2012-05-08T08:15:38Z</time>
      </trkpt>
      <trkpt lat="43.76135" lon="6.56068">
        <ele>942.71</ele>
        <time>2012-05-08T08:16:06Z</time>
      </trkpt>
      <trkpt lat="43.76134" lon="6.56069">
        <ele>941.75</ele>
        <time>2012-05-08T08:16:33Z</time>
      </trkpt>
      <trkpt lat="43.76134" lon="6.56069">
        <ele>941.27</ele>
        <time>2012-05-08T08:16:57Z</time>
      </trkpt>
      <trkpt lat="43.7613" lon="6.56066">
        <ele>939.83</ele>
        <time>2012-05-08T08:17:26Z</time>
      </trkpt>
      <trkpt lat="43.76126" lon="6.56058">
        <ele>939.35</ele>
        <time>2012-05-08T08:17:41Z</time>
      </trkpt>
      <trkpt lat="43.76132" lon="6.56051">
        <ele>940.31</ele>
        <time>2012-05-08T08:18:00Z</time>
      </trkpt>
      <trkpt lat="43.7613" lon="6.56052">
        <ele>940.31</ele>
        <time>2012-05-08T08:18:08Z</time>
      </trkpt>
      <trkpt lat="43.76121" lon="6.56059">
        <ele>940.31</ele>
        <time>2012-05-08T08:18:17Z</time>
      </trkpt>
      <trkpt lat="43.76115" lon="6.56062">
        <ele>942.23</ele>
        <time>2012-05-08T08:18:32Z</time>
      </trkpt>
      <trkpt lat="43.76118" lon="6.56066">
        <ele>942.23</ele>
        <time>2012-05-08T08:18:36Z</time>
      </trkpt>
      <trkpt lat="43.76132" lon="6.5607">
        <ele>941.75</ele>
        <time>2012-05-08T08:18:53Z</time>
      </trkpt>
      <trkpt lat="43.76135" lon="6.5607">
        <ele>941.75</ele>
        <time>2012-05-08T08:19:09Z</time>
      </trkpt>
      <trkpt lat="43.76136" lon="6.56071">
        <ele>941.75</ele>
        <time>2012-05-08T08:19:33Z</time>
      </trkpt>
      <trkpt lat="43.76135" lon="6.56072">
        <ele>941.75</ele>
        <time>2012-05-08T08:19:49Z</time>
      </trkpt>
      <trkpt lat="43.76133" lon="6.5607">
        <ele>941.75</ele>
        <time>2012-05-08T08:20:05Z</time>
      </trkpt>
      <trkpt lat="43.76134" lon="6.56071">
        <ele>942.23</ele>
        <time>2012-05-08T08:20:14Z</time>
      </trkpt>
      <trkpt lat="43.76135" lon="6.5607">
        <ele>942.23</ele>
        <time>2012-05-08T08:20:32Z</time>
      </trkpt>
      <trkpt lat="43.76137" lon="6.56071">
        <ele>943.19</ele>
        <time>2012-05-08T08:21:00Z</time>
      </trkpt>
      <trkpt lat="43.76136" lon="6.56073">
        <ele>943.19</ele>
        <time>2012-05-08T08:21:29Z</time>
      </trkpt>
      <trkpt lat="43.76132" lon="6.56076">
        <ele>942.71</ele>
        <time>2012-05-08T08:22:00Z</time>
      </trkpt>
      <trkpt lat="43.76134" lon="6.56077">
        <ele>942.71</ele>
        <time>2012-05-08T08:22:16Z</time>
      </trkpt>
      <trkpt lat="43.76142" lon="6.56084">
        <ele>942.71</ele>
        <time>2012-05-08T08:22:26Z</time>
      </trkpt>
      <trkpt lat="43.76143" lon="6.56086">
        <ele>942.71</ele>
        <time>2012-05-08T08:22:28Z</time>
      </trkpt>
      <trkpt lat="43.76151" lon="6.56099">
        <ele>941.75</ele>
        <time>2012-05-08T08:22:45Z</time>
      </trkpt>
      <trkpt lat="43.76154" lon="6.56106">
        <ele>941.75</ele>
        <time>2012-05-08T08:23:02Z</time>
      </trkpt>
      <trkpt lat="43.76154" lon="6.561">
        <ele>940.79</ele>
        <time>2012-05-08T08:23:07Z</time>
      </trkpt>
      <trkpt lat="43.76152" lon="6.56094">
        <ele>941.27</ele>
        <time>2012-05-08T08:23:12Z</time>
      </trkpt>
      <trkpt lat="43.76146" lon="6.56096">
        <ele>940.79</ele>
        <time>2012-05-08T08:23:35Z</time>
      </trkpt>
      <trkpt lat="43.76146" lon="6.56096">
        <ele>941.27</ele>
        <time>2012-05-08T08:24:06Z</time>
      </trkpt>
      <trkpt lat="43.76146" lon="6.56094">
        <ele>941.75</ele>
        <time>2012-05-08T08:24:27Z</time>
      </trkpt>
      <trkpt lat="43.76135" lon="6.56094">
        <ele>941.75</ele>
        <time>2012-05-08T08:24:44Z</time>
      </trkpt>
      <trkpt lat="43.76132" lon="6.56098">
        <ele>942.23</ele>
        <time>2012-05-08T08:25:05Z</time>
      </trkpt>
      <trkpt lat="43.76129" lon="6.561">
        <ele>944.15</ele>
        <time>2012-05-08T08:25:14Z</time>
      </trkpt>
      <trkpt lat="43.76126" lon="6.56101">
        <ele>945.11</ele>
        <time>2012-05-08T08:25:18Z</time>
      </trkpt>
      <trkpt lat="43.76106" lon="6.56107">
        <ele>950.4</ele>
        <time>2012-05-08T08:25:38Z</time>
      </trkpt>
      <trkpt lat="43.76091" lon="6.56113">
        <ele>948.96</ele>
        <time>2012-05-08T08:25:56Z</time>
      </trkpt>
      <trkpt lat="43.76095" lon="6.56116">
        <ele>947.52</ele>
        <time>2012-05-08T08:26:09Z</time>
      </trkpt>
      <trkpt lat="43.76097" lon="6.56116">
        <ele>947.04</ele>
        <time>2012-05-08T08:26:12Z</time>
      </trkpt>
      <trkpt lat="43.76105" lon="6.56117">
        <ele>947.52</ele>
        <time>2012-05-08T08:26:21Z</time>
      </trkpt>
      <trkpt lat="43.76123" lon="6.56108">
        <ele>947.52</ele>
        <time>2012-05-08T08:26:46Z</time>
      </trkpt>
      <trkpt lat="43.76127" lon="6.56104">
        <ele>947.04</ele>
        <time>2012-05-08T08:26:50Z</time>
      </trkpt>
      <trkpt lat="43.76132" lon="6.56105">
        <ele>948.48</ele>
        <time>2012-05-08T08:26:55Z</time>
      </trkpt>
      <trkpt lat="43.76139" lon="6.56098">
        <ele>948.48</ele>
        <time>2012-05-08T08:27:02Z</time>
      </trkpt>
      <trkpt lat="43.76139" lon="6.56093">
        <ele>948</ele>
        <time>2012-05-08T08:27:05Z</time>
      </trkpt>
      <trkpt lat="43.76139" lon="6.5609">
        <ele>948</ele>
        <time>2012-05-08T08:27:07Z</time>
      </trkpt>
      <trkpt lat="43.76132" lon="6.56081">
        <ele>947.04</ele>
        <time>2012-05-08T08:27:20Z</time>
      </trkpt>
      <trkpt lat="43.76122" lon="6.56072">
        <ele>947.52</ele>
        <time>2012-05-08T08:27:31Z</time>
      </trkpt>
      <trkpt lat="43.76116" lon="6.56062">
        <ele>948</ele>
        <time>2012-05-08T08:27:42Z</time>
      </trkpt>
      <trkpt lat="43.76115" lon="6.56057">
        <ele>948</ele>
        <time>2012-05-08T08:27:48Z</time>
      </trkpt>
      <trkpt lat="43.76114" lon="6.56033">
        <ele>949.92</ele>
        <time>2012-05-08T08:28:07Z</time>
      </trkpt>
      <trkpt lat="43.76111" lon="6.56017">
        <ele>953.77</ele>
        <time>2012-05-08T08:28:22Z</time>
      </trkpt>
      <trkpt lat="43.76111" lon="6.56005">
        <ele>954.73</ele>
        <time>2012-05-08T08:28:33Z</time>
      </trkpt>
      <trkpt lat="43.76115" lon="6.55993">
        <ele>955.69</ele>
        <time>2012-05-08T08:28:45Z</time>
      </trkpt>
      <trkpt lat="43.76117" lon="6.55968">
        <ele>957.13</ele>
        <time>2012-05-08T08:29:04Z</time>
      </trkpt>
      <trkpt lat="43.76117" lon="6.55944">
        <ele>959.05</ele>
        <time>2012-05-08T08:29:23Z</time>
      </trkpt>
      <trkpt lat="43.76119" lon="6.55929">
        <ele>957.61</ele>
        <time>2012-05-08T08:29:43Z</time>
      </trkpt>
      <trkpt lat="43.7612" lon="6.55911">
        <ele>956.17</ele>
        <time>2012-05-08T08:30:00Z</time>
      </trkpt>
      <trkpt lat="43.7613" lon="6.55893">
        <ele>955.21</ele>
        <time>2012-05-08T08:30:16Z</time>
      </trkpt>
      <trkpt lat="43.76127" lon="6.5589">
        <ele>955.21</ele>
        <time>2012-05-08T08:30:22Z</time>
      </trkpt>
      <trkpt lat="43.76135" lon="6.55893">
        <ele>955.21</ele>
        <time>2012-05-08T08:30:35Z</time>
      </trkpt>
      <trkpt lat="43.76143" lon="6.55887">
        <ele>954.25</ele>
        <time>2012-05-08T08:30:43Z</time>
      </trkpt>
      <trkpt lat="43.76153" lon="6.55883">
        <ele>952.8</ele>
        <time>2012-05-08T08:30:59Z</time>
      </trkpt>
      <trkpt lat="43.7615" lon="6.55882">
        <ele>952.8</ele>
        <time>2012-05-08T08:31:03Z</time>
      </trkpt>
      <trkpt lat="43.76128" lon="6.5589">
        <ele>952.8</ele>
        <time>2012-05-08T08:31:25Z</time>
      </trkpt>
      <trkpt lat="43.76111" lon="6.55873">
        <ele>954.73</ele>
        <time>2012-05-08T08:31:44Z</time>
      </trkpt>
      <trkpt lat="43.76109" lon="6.5587">
        <ele>955.69</ele>
        <time>2012-05-08T08:32:03Z</time>
      </trkpt>
      <trkpt lat="43.76103" lon="6.55865">
        <ele>958.09</ele>
        <time>2012-05-08T08:32:24Z</time>
      </trkpt>
      <trkpt lat="43.76091" lon="6.55851">
        <ele>959.05</ele>
        <time>2012-05-08T08:32:40Z</time>
      </trkpt>
      <trkpt lat="43.76085" lon="6.55838">
        <ele>957.61</ele>
        <time>2012-05-08T08:32:53Z</time>
      </trkpt>
      <trkpt lat="43.76078" lon="6.55821">
        <ele>958.57</ele>
        <time>2012-05-08T08:33:08Z</time>
      </trkpt>
      <trkpt lat="43.76077" lon="6.5582">
        <ele>958.09</ele>
        <time>2012-05-08T08:33:10Z</time>
      </trkpt>
      <trkpt lat="43.76077" lon="6.55813">
        <ele>957.13</ele>
        <time>2012-05-08T08:33:23Z</time>
      </trkpt>
      <trkpt lat="43.76076" lon="6.55809">
        <ele>956.65</ele>
        <time>2012-05-08T08:33:26Z</time>
      </trkpt>
      <trkpt lat="43.76069" lon="6.55794">
        <ele>956.65</ele>
        <time>2012-05-08T08:33:36Z</time>
      </trkpt>
      <trkpt lat="43.76067" lon="6.55791">
        <ele>957.13</ele>
        <time>2012-05-08T08:33:39Z</time>
      </trkpt>
      <trkpt lat="43.7606" lon="6.55782">
        <ele>959.05</ele>
        <time>2012-05-08T08:33:49Z</time>
      </trkpt>
      <trkpt lat="43.76052" lon="6.5578">
        <ele>959.05</ele>
        <time>2012-05-08T08:33:56Z</time>
      </trkpt>
      <trkpt lat="43.76048" lon="6.55781">
        <ele>959.53</ele>
        <time>2012-05-08T08:34:00Z</time>
      </trkpt>
      <trkpt lat="43.76046" lon="6.55781">
        <ele>959.53</ele>
        <time>2012-05-08T08:34:03Z</time>
      </trkpt>
      <trkpt lat="43.76037" lon="6.55775">
        <ele>956.17</ele>
        <time>2012-05-08T08:34:15Z</time>
      </trkpt>
      <trkpt lat="43.76024" lon="6.55767">
        <ele>956.17</ele>
        <time>2012-05-08T08:34:30Z</time>
      </trkpt>
      <trkpt lat="43.76017" lon="6.55767">
        <ele>956.17</ele>
        <time>2012-05-08T08:34:36Z</time>
      </trkpt>
      <trkpt lat="43.76011" lon="6.55762">
        <ele>954.73</ele>
        <time>2012-05-08T08:34:44Z</time>
      </trkpt>
      <trkpt lat="43.76" lon="6.55775">
        <ele>952.32</ele>
        <time>2012-05-08T08:35:01Z</time>
      </trkpt>
      <trkpt lat="43.76" lon="6.55776">
        <ele>951.84</ele>
        <time>2012-05-08T08:35:02Z</time>
      </trkpt>
      <trkpt lat="43.75994" lon="6.55792">
        <ele>952.32</ele>
        <time>2012-05-08T08:35:16Z</time>
      </trkpt>
      <trkpt lat="43.75993" lon="6.55796">
        <ele>952.8</ele>
        <time>2012-05-08T08:35:21Z</time>
      </trkpt>
      <trkpt lat="43.75983" lon="6.55816">
        <ele>950.88</ele>
        <time>2012-05-08T08:35:40Z</time>
      </trkpt>
      <trkpt lat="43.75974" lon="6.55828">
        <ele>953.28</ele>
        <time>2012-05-08T08:35:57Z</time>
      </trkpt>
      <trkpt lat="43.75972" lon="6.55834">
        <ele>956.17</ele>
        <time>2012-05-08T08:36:14Z</time>
      </trkpt>
      <trkpt lat="43.7597" lon="6.55828">
        <ele>955.21</ele>
        <time>2012-05-08T08:36:24Z</time>
      </trkpt>
      <trkpt lat="43.75969" lon="6.55818">
        <ele>955.69</ele>
        <time>2012-05-08T08:36:40Z</time>
      </trkpt>
      <trkpt lat="43.7597" lon="6.55814">
        <ele>956.17</ele>
        <time>2012-05-08T08:36:42Z</time>
      </trkpt>
      <trkpt lat="43.75961" lon="6.55798">
        <ele>956.65</ele>
        <time>2012-05-08T08:36:59Z</time>
      </trkpt>
      <trkpt lat="43.7596" lon="6.55795">
        <ele>957.13</ele>
        <time>2012-05-08T08:37:01Z</time>
      </trkpt>
      <trkpt lat="43.75955" lon="6.5578">
        <ele>958.57</ele>
        <time>2012-05-08T08:37:18Z</time>
      </trkpt>
      <trkpt lat="43.75953" lon="6.5578">
        <ele>959.05</ele>
        <time>2012-05-08T08:37:20Z</time>
      </trkpt>
      <trkpt lat="43.75949" lon="6.55776">
        <ele>959.53</ele>
        <time>2012-05-08T08:37:27Z</time>
      </trkpt>
      <trkpt lat="43.75948" lon="6.55771">
        <ele>959.53</ele>
        <time>2012-05-08T08:37:30Z</time>
      </trkpt>
      <trkpt lat="43.75946" lon="6.5576">
        <ele>960.98</ele>
        <time>2012-05-08T08:37:41Z</time>
      </trkpt>
      <trkpt lat="43.75945" lon="6.55755">
        <ele>961.46</ele>
        <time>2012-05-08T08:37:46Z</time>
      </trkpt>
      <trkpt lat="43.75943" lon="6.55756">
        <ele>961.46</ele>
        <time>2012-05-08T08:37:48Z</time>
      </trkpt>
      <trkpt lat="43.7594" lon="6.5575">
        <ele>962.42</ele>
        <time>2012-05-08T08:37:53Z</time>
      </trkpt>
      <trkpt lat="43.75937" lon="6.55732">
        <ele>966.74</ele>
        <time>2012-05-08T08:38:13Z</time>
      </trkpt>
      <trkpt lat="43.75941" lon="6.55724">
        <ele>972.03</ele>
        <time>2012-05-08T08:38:26Z</time>
      </trkpt>
      <trkpt lat="43.75941" lon="6.55712">
        <ele>974.91</ele>
        <time>2012-05-08T08:38:39Z</time>
      </trkpt>
      <trkpt lat="43.75942" lon="6.55696">
        <ele>976.84</ele>
        <time>2012-05-08T08:38:59Z</time>
      </trkpt>
      <trkpt lat="43.75941" lon="6.55684">
        <ele>979.24</ele>
        <time>2012-05-08T08:39:11Z</time>
      </trkpt>
      <trkpt lat="43.75938" lon="6.55669">
        <ele>982.6</ele>
        <time>2012-05-08T08:39:26Z</time>
      </trkpt>
      <trkpt lat="43.75937" lon="6.55665">
        <ele>983.09</ele>
        <time>2012-05-08T08:39:30Z</time>
      </trkpt>
      <trkpt lat="43.75935" lon="6.55658">
        <ele>984.05</ele>
        <time>2012-05-08T08:39:47Z</time>
      </trkpt>
      <trkpt lat="43.75932" lon="6.55652">
        <ele>984.05</ele>
        <time>2012-05-08T08:39:52Z</time>
      </trkpt>
      <trkpt lat="43.75933" lon="6.55648">
        <ele>984.05</ele>
        <time>2012-05-08T08:39:55Z</time>
      </trkpt>
      <trkpt lat="43.75928" lon="6.55642">
        <ele>983.09</ele>
        <time>2012-05-08T08:40:02Z</time>
      </trkpt>
      <trkpt lat="43.75927" lon="6.5564">
        <ele>984.05</ele>
        <time>2012-05-08T08:40:04Z</time>
      </trkpt>
      <trkpt lat="43.75926" lon="6.55631">
        <ele>985.49</ele>
        <time>2012-05-08T08:40:13Z</time>
      </trkpt>
      <trkpt lat="43.75924" lon="6.55617">
        <ele>988.85</ele>
        <time>2012-05-08T08:40:27Z</time>
      </trkpt>
      <trkpt lat="43.75921" lon="6.55603">
        <ele>990.3</ele>
        <time>2012-05-08T08:40:42Z</time>
      </trkpt>
      <trkpt lat="43.75917" lon="6.55591">
        <ele>991.74</ele>
        <time>2012-05-08T08:40:57Z</time>
      </trkpt>
      <trkpt lat="43.75912" lon="6.55577">
        <ele>994.14</ele>
        <time>2012-05-08T08:41:12Z</time>
      </trkpt>
      <trkpt lat="43.75907" lon="6.55565">
        <ele>996.54</ele>
        <time>2012-05-08T08:41:28Z</time>
      </trkpt>
      <trkpt lat="43.75903" lon="6.55554">
        <ele>996.06</ele>
        <time>2012-05-08T08:41:42Z</time>
      </trkpt>
      <trkpt lat="43.75898" lon="6.55542">
        <ele>998.95</ele>
        <time>2012-05-08T08:41:57Z</time>
      </trkpt>
      <trkpt lat="43.75897" lon="6.5554">
        <ele>999.91</ele>
        <time>2012-05-08T08:42:00Z</time>
      </trkpt>
      <trkpt lat="43.75894" lon="6.55526">
        <ele>1006.64</ele>
        <time>2012-05-08T08:42:18Z</time>
      </trkpt>
      <trkpt lat="43.7589" lon="6.55513">
        <ele>1005.68</ele>
        <time>2012-05-08T08:42:34Z</time>
      </trkpt>
      <trkpt lat="43.7589" lon="6.55511">
        <ele>1005.68</ele>
        <time>2012-05-08T08:42:37Z</time>
      </trkpt>
      <trkpt lat="43.75885" lon="6.55499">
        <ele>1007.6</ele>
        <time>2012-05-08T08:42:52Z</time>
      </trkpt>
      <trkpt lat="43.75885" lon="6.55492">
        <ele>1010.48</ele>
        <time>2012-05-08T08:43:09Z</time>
      </trkpt>
      <trkpt lat="43.7589" lon="6.55479">
        <ele>1011.93</ele>
        <time>2012-05-08T08:43:23Z</time>
      </trkpt>
      <trkpt lat="43.75893" lon="6.55474">
        <ele>1012.89</ele>
        <time>2012-05-08T08:43:30Z</time>
      </trkpt>
      <trkpt lat="43.75892" lon="6.55465">
        <ele>1011.93</ele>
        <time>2012-05-08T08:43:42Z</time>
      </trkpt>
      <trkpt lat="43.75891" lon="6.55463">
        <ele>1012.89</ele>
        <time>2012-05-08T08:43:44Z</time>
      </trkpt>
      <trkpt lat="43.75887" lon="6.55457">
        <ele>1015.29</ele>
        <time>2012-05-08T08:43:50Z</time>
      </trkpt>
      <trkpt lat="43.75886" lon="6.5544">
        <ele>1018.17</ele>
        <time>2012-05-08T08:44:08Z</time>
      </trkpt>
      <trkpt lat="43.75891" lon="6.55426">
        <ele>1017.21</ele>
        <time>2012-05-08T08:44:24Z</time>
      </trkpt>
      <trkpt lat="43.7589" lon="6.55418">
        <ele>1016.73</ele>
        <time>2012-05-08T08:44:46Z</time>
      </trkpt>
      <trkpt lat="43.75894" lon="6.554">
        <ele>1018.17</ele>
        <time>2012-05-08T08:45:02Z</time>
      </trkpt>
      <trkpt lat="43.75894" lon="6.55399">
        <ele>1018.17</ele>
        <time>2012-05-08T08:45:03Z</time>
      </trkpt>
      <trkpt lat="43.75895" lon="6.55386">
        <ele>1021.06</ele>
        <time>2012-05-08T08:45:21Z</time>
      </trkpt>
      <trkpt lat="43.75894" lon="6.55385">
        <ele>1020.1</ele>
        <time>2012-05-08T08:45:42Z</time>
      </trkpt>
      <trkpt lat="43.75896" lon="6.55379">
        <ele>1019.62</ele>
        <time>2012-05-08T08:46:00Z</time>
      </trkpt>
      <trkpt lat="43.75896" lon="6.55377">
        <ele>1019.13</ele>
        <time>2012-05-08T08:46:02Z</time>
      </trkpt>
      <trkpt lat="43.75898" lon="6.55362">
        <ele>1019.13</ele>
        <time>2012-05-08T08:46:18Z</time>
      </trkpt>
      <trkpt lat="43.75898" lon="6.55347">
        <ele>1021.06</ele>
        <time>2012-05-08T08:46:33Z</time>
      </trkpt>
      <trkpt lat="43.75899" lon="6.55345">
        <ele>1021.06</ele>
        <time>2012-05-08T08:46:35Z</time>
      </trkpt>
      <trkpt lat="43.75898" lon="6.55337">
        <ele>1020.1</ele>
        <time>2012-05-08T08:46:48Z</time>
      </trkpt>
      <trkpt lat="43.75898" lon="6.5533">
        <ele>1020.58</ele>
        <time>2012-05-08T08:46:54Z</time>
      </trkpt>
      <trkpt lat="43.75903" lon="6.55315">
        <ele>1022.5</ele>
        <time>2012-05-08T08:47:10Z</time>
      </trkpt>
      <trkpt lat="43.75903" lon="6.55311">
        <ele>1022.02</ele>
        <time>2012-05-08T08:47:14Z</time>
      </trkpt>
      <trkpt lat="43.75905" lon="6.55296">
        <ele>1021.54</ele>
        <time>2012-05-08T08:47:30Z</time>
      </trkpt>
      <trkpt lat="43.75909" lon="6.55285">
        <ele>1022.98</ele>
        <time>2012-05-08T08:47:44Z</time>
      </trkpt>
      <trkpt lat="43.75906" lon="6.55267">
        <ele>1022.98</ele>
        <time>2012-05-08T08:47:59Z</time>
      </trkpt>
      <trkpt lat="43.75909" lon="6.55248">
        <ele>1023.94</ele>
        <time>2012-05-08T08:48:18Z</time>
      </trkpt>
      <trkpt lat="43.75908" lon="6.55234">
        <ele>1023.46</ele>
        <time>2012-05-08T08:48:35Z</time>
      </trkpt>
      <trkpt lat="43.75909" lon="6.55219">
        <ele>1022.5</ele>
        <time>2012-05-08T08:48:52Z</time>
      </trkpt>
      <trkpt lat="43.75905" lon="6.55205">
        <ele>1025.86</ele>
        <time>2012-05-08T08:49:09Z</time>
      </trkpt>
      <trkpt lat="43.75904" lon="6.552">
        <ele>1027.79</ele>
        <time>2012-05-08T08:49:16Z</time>
      </trkpt>
      <trkpt lat="43.75903" lon="6.55184">
        <ele>1029.71</ele>
        <time>2012-05-08T08:49:33Z</time>
      </trkpt>
      <trkpt lat="43.75904" lon="6.55178">
        <ele>1029.71</ele>
        <time>2012-05-08T08:49:38Z</time>
      </trkpt>
      <trkpt lat="43.75907" lon="6.55161">
        <ele>1032.11</ele>
        <time>2012-05-08T08:49:55Z</time>
      </trkpt>
      <trkpt lat="43.7591" lon="6.55144">
        <ele>1035</ele>
        <time>2012-05-08T08:50:14Z</time>
      </trkpt>
      <trkpt lat="43.75907" lon="6.55131">
        <ele>1038.36</ele>
        <time>2012-05-08T08:50:33Z</time>
      </trkpt>
      <trkpt lat="43.759" lon="6.55117">
        <ele>1040.28</ele>
        <time>2012-05-08T08:50:51Z</time>
      </trkpt>
      <trkpt lat="43.75894" lon="6.55107">
        <ele>1039.32</ele>
        <time>2012-05-08T08:51:09Z</time>
      </trkpt>
      <trkpt lat="43.75891" lon="6.55099">
        <ele>1041.73</ele>
        <time>2012-05-08T08:51:32Z</time>
      </trkpt>
      <trkpt lat="43.75889" lon="6.55083">
        <ele>1045.09</ele>
        <time>2012-05-08T08:51:48Z</time>
      </trkpt>
      <trkpt lat="43.75889" lon="6.55069">
        <ele>1046.05</ele>
        <time>2012-05-08T08:52:03Z</time>
      </trkpt>
      <trkpt lat="43.75888" lon="6.55061">
        <ele>1046.05</ele>
        <time>2012-05-08T08:52:10Z</time>
      </trkpt>
      <trkpt lat="43.75876" lon="6.55059">
        <ele>1046.05</ele>
        <time>2012-05-08T08:52:27Z</time>
      </trkpt>
      <trkpt lat="43.75863" lon="6.55051">
        <ele>1048.94</ele>
        <time>2012-05-08T08:52:43Z</time>
      </trkpt>
      <trkpt lat="43.75854" lon="6.5504">
        <ele>1050.86</ele>
        <time>2012-05-08T08:52:59Z</time>
      </trkpt>
      <trkpt lat="43.75847" lon="6.55032">
        <ele>1047.97</ele>
        <time>2012-05-08T08:53:15Z</time>
      </trkpt>
      <trkpt lat="43.75844" lon="6.55029">
        <ele>1048.94</ele>
        <time>2012-05-08T08:53:21Z</time>
      </trkpt>
      <trkpt lat="43.75842" lon="6.5503">
        <ele>1048.94</ele>
        <time>2012-05-08T08:53:23Z</time>
      </trkpt>
      <trkpt lat="43.75832" lon="6.55025">
        <ele>1050.38</ele>
        <time>2012-05-08T08:53:37Z</time>
      </trkpt>
      <trkpt lat="43.75825" lon="6.55015">
        <ele>1052.3</ele>
        <time>2012-05-08T08:53:54Z</time>
      </trkpt>
      <trkpt lat="43.75824" lon="6.55014">
        <ele>1052.78</ele>
        <time>2012-05-08T08:53:56Z</time>
      </trkpt>
      <trkpt lat="43.75822" lon="6.55003">
        <ele>1055.67</ele>
        <time>2012-05-08T08:54:11Z</time>
      </trkpt>
      <trkpt lat="43.7582" lon="6.54996">
        <ele>1057.11</ele>
        <time>2012-05-08T08:54:27Z</time>
      </trkpt>
      <trkpt lat="43.75817" lon="6.5499">
        <ele>1057.11</ele>
        <time>2012-05-08T08:54:37Z</time>
      </trkpt>
      <trkpt lat="43.75812" lon="6.5498">
        <ele>1059.03</ele>
        <time>2012-05-08T08:54:55Z</time>
      </trkpt>
      <trkpt lat="43.75807" lon="6.54971">
        <ele>1060.95</ele>
        <time>2012-05-08T08:55:15Z</time>
      </trkpt>
      <trkpt lat="43.75805" lon="6.54966">
        <ele>1061.43</ele>
        <time>2012-05-08T08:55:21Z</time>
      </trkpt>
      <trkpt lat="43.75802" lon="6.54961">
        <ele>1061.91</ele>
        <time>2012-05-08T08:55:27Z</time>
      </trkpt>
      <trkpt lat="43.75801" lon="6.54959">
        <ele>1061.91</ele>
        <time>2012-05-08T08:55:29Z</time>
      </trkpt>
      <trkpt lat="43.758" lon="6.54957">
        <ele>1062.39</ele>
        <time>2012-05-08T08:55:33Z</time>
      </trkpt>
      <trkpt lat="43.75797" lon="6.54953">
        <ele>1062.39</ele>
        <time>2012-05-08T08:55:47Z</time>
      </trkpt>
      <trkpt lat="43.75793" lon="6.54939">
        <ele>1062.39</ele>
        <time>2012-05-08T08:56:01Z</time>
      </trkpt>
      <trkpt lat="43.75792" lon="6.54935">
        <ele>1062.39</ele>
        <time>2012-05-08T08:56:04Z</time>
      </trkpt>
      <trkpt lat="43.75787" lon="6.54922">
        <ele>1064.8</ele>
        <time>2012-05-08T08:56:20Z</time>
      </trkpt>
      <trkpt lat="43.75787" lon="6.54912">
        <ele>1066.72</ele>
        <time>2012-05-08T08:56:36Z</time>
      </trkpt>
      <trkpt lat="43.75781" lon="6.54907">
        <ele>1065.76</ele>
        <time>2012-05-08T08:56:48Z</time>
      </trkpt>
      <trkpt lat="43.75778" lon="6.54895">
        <ele>1061.91</ele>
        <time>2012-05-08T08:57:03Z</time>
      </trkpt>
      <trkpt lat="43.75777" lon="6.54883">
        <ele>1064.32</ele>
        <time>2012-05-08T08:57:19Z</time>
      </trkpt>
      <trkpt lat="43.75775" lon="6.54865">
        <ele>1063.36</ele>
        <time>2012-05-08T08:57:36Z</time>
      </trkpt>
      <trkpt lat="43.75773" lon="6.54861">
        <ele>1063.36</ele>
        <time>2012-05-08T08:57:42Z</time>
      </trkpt>
      <trkpt lat="43.75771" lon="6.54854">
        <ele>1063.36</ele>
        <time>2012-05-08T08:57:46Z</time>
      </trkpt>
      <trkpt lat="43.7577" lon="6.54847">
        <ele>1064.8</ele>
        <time>2012-05-08T08:57:52Z</time>
      </trkpt>
      <trkpt lat="43.75762" lon="6.54835">
        <ele>1067.68</ele>
        <time>2012-05-08T08:58:06Z</time>
      </trkpt>
      <trkpt lat="43.75755" lon="6.5482">
        <ele>1067.2</ele>
        <time>2012-05-08T08:58:23Z</time>
      </trkpt>
      <trkpt lat="43.75754" lon="6.54816">
        <ele>1066.72</ele>
        <time>2012-05-08T08:58:27Z</time>
      </trkpt>
      <trkpt lat="43.75753" lon="6.54804">
        <ele>1068.16</ele>
        <time>2012-05-08T08:58:44Z</time>
      </trkpt>
      <trkpt lat="43.75751" lon="6.54785">
        <ele>1069.6</ele>
        <time>2012-05-08T08:58:59Z</time>
      </trkpt>
      <trkpt lat="43.75749" lon="6.54768">
        <ele>1071.53</ele>
        <time>2012-05-08T08:59:14Z</time>
      </trkpt>
      <trkpt lat="43.75749" lon="6.54753">
        <ele>1072.97</ele>
        <time>2012-05-08T08:59:30Z</time>
      </trkpt>
      <trkpt lat="43.75744" lon="6.54737">
        <ele>1073.45</ele>
        <time>2012-05-08T08:59:46Z</time>
      </trkpt>
      <trkpt lat="43.75742" lon="6.54721">
        <ele>1074.41</ele>
        <time>2012-05-08T09:00:00Z</time>
      </trkpt>
      <trkpt lat="43.75741" lon="6.54717">
        <ele>1075.37</ele>
        <time>2012-05-08T09:00:03Z</time>
      </trkpt>
      <trkpt lat="43.75736" lon="6.54702">
        <ele>1075.37</ele>
        <time>2012-05-08T09:00:16Z</time>
      </trkpt>
      <trkpt lat="43.75733" lon="6.54698">
        <ele>1075.37</ele>
        <time>2012-05-08T09:00:26Z</time>
      </trkpt>
      <trkpt lat="43.7573" lon="6.54695">
        <ele>1075.37</ele>
        <time>2012-05-08T09:00:29Z</time>
      </trkpt>
      <trkpt lat="43.75726" lon="6.54692">
        <ele>1074.89</ele>
        <time>2012-05-08T09:00:33Z</time>
      </trkpt>
      <trkpt lat="43.75725" lon="6.54688">
        <ele>1073.93</ele>
        <time>2012-05-08T09:00:38Z</time>
      </trkpt>
      <trkpt lat="43.75718" lon="6.54684">
        <ele>1075.37</ele>
        <time>2012-05-08T09:00:47Z</time>
      </trkpt>
      <trkpt lat="43.75716" lon="6.54683">
        <ele>1074.89</ele>
        <time>2012-05-08T09:00:49Z</time>
      </trkpt>
      <trkpt lat="43.75709" lon="6.54677">
        <ele>1075.37</ele>
        <time>2012-05-08T09:01:03Z</time>
      </trkpt>
      <trkpt lat="43.75704" lon="6.54676">
        <ele>1073.93</ele>
        <time>2012-05-08T09:01:09Z</time>
      </trkpt>
      <trkpt lat="43.75703" lon="6.54675">
        <ele>1073.45</ele>
        <time>2012-05-08T09:01:11Z</time>
      </trkpt>
      <trkpt lat="43.75695" lon="6.5467">
        <ele>1072.49</ele>
        <time>2012-05-08T09:01:19Z</time>
      </trkpt>
      <trkpt lat="43.7569" lon="6.54665">
        <ele>1072.97</ele>
        <time>2012-05-08T09:01:26Z</time>
      </trkpt>
      <trkpt lat="43.75686" lon="6.54662">
        <ele>1072.97</ele>
        <time>2012-05-08T09:01:30Z</time>
      </trkpt>
      <trkpt lat="43.75674" lon="6.54652">
        <ele>1072.97</ele>
        <time>2012-05-08T09:01:47Z</time>
      </trkpt>
      <trkpt lat="43.75671" lon="6.54648">
        <ele>1073.45</ele>
        <time>2012-05-08T09:01:51Z</time>
      </trkpt>
      <trkpt lat="43.75662" lon="6.54639">
        <ele>1075.37</ele>
        <time>2012-05-08T09:02:01Z</time>
      </trkpt>
      <trkpt lat="43.7566" lon="6.54639">
        <ele>1075.37</ele>
        <time>2012-05-08T09:02:03Z</time>
      </trkpt>
      <trkpt lat="43.75659" lon="6.54637">
        <ele>1075.37</ele>
        <time>2012-05-08T09:02:05Z</time>
      </trkpt>
      <trkpt lat="43.7565" lon="6.54627">
        <ele>1075.85</ele>
        <time>2012-05-08T09:02:20Z</time>
      </trkpt>
      <trkpt lat="43.75643" lon="6.54616">
        <ele>1075.37</ele>
        <time>2012-05-08T09:02:31Z</time>
      </trkpt>
      <trkpt lat="43.75633" lon="6.546">
        <ele>1074.89</ele>
        <time>2012-05-08T09:02:47Z</time>
      </trkpt>
      <trkpt lat="43.7563" lon="6.54597">
        <ele>1075.37</ele>
        <time>2012-05-08T09:02:51Z</time>
      </trkpt>
      <trkpt lat="43.75621" lon="6.54584">
        <ele>1073.93</ele>
        <time>2012-05-08T09:03:06Z</time>
      </trkpt>
      <trkpt lat="43.75616" lon="6.54575">
        <ele>1072.01</ele>
        <time>2012-05-08T09:03:13Z</time>
      </trkpt>
      <trkpt lat="43.75614" lon="6.54572">
        <ele>1072.49</ele>
        <time>2012-05-08T09:03:16Z</time>
      </trkpt>
      <trkpt lat="43.75606" lon="6.54562">
        <ele>1074.89</ele>
        <time>2012-05-08T09:03:28Z</time>
      </trkpt>
      <trkpt lat="43.75602" lon="6.54559">
        <ele>1075.37</ele>
        <time>2012-05-08T09:03:32Z</time>
      </trkpt>
      <trkpt lat="43.75595" lon="6.54551">
        <ele>1075.85</ele>
        <time>2012-05-08T09:03:42Z</time>
      </trkpt>
      <trkpt lat="43.75593" lon="6.5455">
        <ele>1075.85</ele>
        <time>2012-05-08T09:03:44Z</time>
      </trkpt>
      <trkpt lat="43.75579" lon="6.54539">
        <ele>1071.05</ele>
        <time>2012-05-08T09:04:02Z</time>
      </trkpt>
      <trkpt lat="43.75569" lon="6.54528">
        <ele>1068.64</ele>
        <time>2012-05-08T09:04:16Z</time>
      </trkpt>
      <trkpt lat="43.75566" lon="6.54527">
        <ele>1067.68</ele>
        <time>2012-05-08T09:04:19Z</time>
      </trkpt>
      <trkpt lat="43.7556" lon="6.5452">
        <ele>1066.72</ele>
        <time>2012-05-08T09:04:26Z</time>
      </trkpt>
      <trkpt lat="43.75556" lon="6.54514">
        <ele>1068.64</ele>
        <time>2012-05-08T09:04:32Z</time>
      </trkpt>
      <trkpt lat="43.75555" lon="6.54512">
        <ele>1070.57</ele>
        <time>2012-05-08T09:04:49Z</time>
      </trkpt>
      <trkpt lat="43.75551" lon="6.54508">
        <ele>1070.57</ele>
        <time>2012-05-08T09:04:53Z</time>
      </trkpt>
      <trkpt lat="43.75542" lon="6.54493">
        <ele>1072.49</ele>
        <time>2012-05-08T09:05:05Z</time>
      </trkpt>
      <trkpt lat="43.75536" lon="6.54482">
        <ele>1073.93</ele>
        <time>2012-05-08T09:05:15Z</time>
      </trkpt>
      <trkpt lat="43.75534" lon="6.54481">
        <ele>1073.93</ele>
        <time>2012-05-08T09:05:17Z</time>
      </trkpt>
      <trkpt lat="43.75531" lon="6.54476">
        <ele>1073.93</ele>
        <time>2012-05-08T09:05:21Z</time>
      </trkpt>
      <trkpt lat="43.75529" lon="6.54473">
        <ele>1074.41</ele>
        <time>2012-05-08T09:05:24Z</time>
      </trkpt>
      <trkpt lat="43.75522" lon="6.54462">
        <ele>1074.89</ele>
        <time>2012-05-08T09:05:35Z</time>
      </trkpt>
      <trkpt lat="43.75517" lon="6.54458">
        <ele>1074.41</ele>
        <time>2012-05-08T09:05:41Z</time>
      </trkpt>
      <trkpt lat="43.75515" lon="6.54457">
        <ele>1073.93</ele>
        <time>2012-05-08T09:05:43Z</time>
      </trkpt>
      <trkpt lat="43.75513" lon="6.54454">
        <ele>1072.97</ele>
        <time>2012-05-08T09:05:46Z</time>
      </trkpt>
      <trkpt lat="43.75512" lon="6.5445">
        <ele>1072.01</ele>
        <time>2012-05-08T09:05:49Z</time>
      </trkpt>
      <trkpt lat="43.75503" lon="6.54442">
        <ele>1069.12</ele>
        <time>2012-05-08T09:06:06Z</time>
      </trkpt>
      <trkpt lat="43.75497" lon="6.54436">
        <ele>1067.2</ele>
        <time>2012-05-08T09:06:13Z</time>
      </trkpt>
      <trkpt lat="43.75489" lon="6.54433">
        <ele>1065.76</ele>
        <time>2012-05-08T09:06:22Z</time>
      </trkpt>
      <trkpt lat="43.75477" lon="6.5442">
        <ele>1064.8</ele>
        <time>2012-05-08T09:06:39Z</time>
      </trkpt>
      <trkpt lat="43.75473" lon="6.54413">
        <ele>1064.8</ele>
        <time>2012-05-08T09:06:44Z</time>
      </trkpt>
      <trkpt lat="43.7547" lon="6.54412">
        <ele>1065.28</ele>
        <time>2012-05-08T09:06:47Z</time>
      </trkpt>
      <trkpt lat="43.75468" lon="6.54412">
        <ele>1065.28</ele>
        <time>2012-05-08T09:06:49Z</time>
      </trkpt>
      <trkpt lat="43.75467" lon="6.5441">
        <ele>1065.28</ele>
        <time>2012-05-08T09:06:51Z</time>
      </trkpt>
      <trkpt lat="43.75453" lon="6.54403">
        <ele>1066.72</ele>
        <time>2012-05-08T09:07:09Z</time>
      </trkpt>
      <trkpt lat="43.75452" lon="6.54397">
        <ele>1066.72</ele>
        <time>2012-05-08T09:07:15Z</time>
      </trkpt>
      <trkpt lat="43.75459" lon="6.54375">
        <ele>1071.05</ele>
        <time>2012-05-08T09:07:32Z</time>
      </trkpt>
      <trkpt lat="43.7546" lon="6.54372">
        <ele>1072.01</ele>
        <time>2012-05-08T09:07:34Z</time>
      </trkpt>
      <trkpt lat="43.75462" lon="6.54369">
        <ele>1075.85</ele>
        <time>2012-05-08T09:07:52Z</time>
      </trkpt>
      <trkpt lat="43.75462" lon="6.54368">
        <ele>1075.85</ele>
        <time>2012-05-08T09:08:00Z</time>
      </trkpt>
      <trkpt lat="43.75461" lon="6.54352">
        <ele>1076.33</ele>
        <time>2012-05-08T09:08:16Z</time>
      </trkpt>
      <trkpt lat="43.7546" lon="6.54347">
        <ele>1075.85</ele>
        <time>2012-05-08T09:08:22Z</time>
      </trkpt>
      <trkpt lat="43.75459" lon="6.54344">
        <ele>1076.33</ele>
        <time>2012-05-08T09:08:40Z</time>
      </trkpt>
      <trkpt lat="43.75455" lon="6.54331">
        <ele>1078.26</ele>
        <time>2012-05-08T09:08:56Z</time>
      </trkpt>
      <trkpt lat="43.7545" lon="6.54321">
        <ele>1079.7</ele>
        <time>2012-05-08T09:09:14Z</time>
      </trkpt>
      <trkpt lat="43.75446" lon="6.54311">
        <ele>1080.66</ele>
        <time>2012-05-08T09:09:32Z</time>
      </trkpt>
      <trkpt lat="43.75443" lon="6.54296">
        <ele>1084.99</ele>
        <time>2012-05-08T09:09:52Z</time>
      </trkpt>
      <trkpt lat="43.75439" lon="6.54283">
        <ele>1086.91</ele>
        <time>2012-05-08T09:10:11Z</time>
      </trkpt>
      <trkpt lat="43.75436" lon="6.54276">
        <ele>1088.35</ele>
        <time>2012-05-08T09:10:26Z</time>
      </trkpt>
      <trkpt lat="43.75435" lon="6.54262">
        <ele>1091.23</ele>
        <time>2012-05-08T09:10:46Z</time>
      </trkpt>
      <trkpt lat="43.7543" lon="6.54252">
        <ele>1093.64</ele>
        <time>2012-05-08T09:11:04Z</time>
      </trkpt>
      <trkpt lat="43.75433" lon="6.54241">
        <ele>1097.96</ele>
        <time>2012-05-08T09:11:22Z</time>
      </trkpt>
      <trkpt lat="43.75437" lon="6.54244">
        <ele>1100.37</ele>
        <time>2012-05-08T09:11:37Z</time>
      </trkpt>
      <trkpt lat="43.75442" lon="6.54249">
        <ele>1103.73</ele>
        <time>2012-05-08T09:11:53Z</time>
      </trkpt>
      <trkpt lat="43.75451" lon="6.54253">
        <ele>1104.69</ele>
        <time>2012-05-08T09:12:09Z</time>
      </trkpt>
      <trkpt lat="43.75459" lon="6.5425">
        <ele>1108.06</ele>
        <time>2012-05-08T09:12:27Z</time>
      </trkpt>
      <trkpt lat="43.75454" lon="6.54239">
        <ele>1109.5</ele>
        <time>2012-05-08T09:12:43Z</time>
      </trkpt>
      <trkpt lat="43.75453" lon="6.54229">
        <ele>1109.98</ele>
        <time>2012-05-08T09:13:00Z</time>
      </trkpt>
      <trkpt lat="43.75456" lon="6.54217">
        <ele>1112.86</ele>
        <time>2012-05-08T09:13:17Z</time>
      </trkpt>
      <trkpt lat="43.75457" lon="6.54217">
        <ele>1113.34</ele>
        <time>2012-05-08T09:13:20Z</time>
      </trkpt>
      <trkpt lat="43.75461" lon="6.54203">
        <ele>1117.19</ele>
        <time>2012-05-08T09:13:40Z</time>
      </trkpt>
      <trkpt lat="43.75466" lon="6.54198">
        <ele>1121.03</ele>
        <time>2012-05-08T09:13:56Z</time>
      </trkpt>
      <trkpt lat="43.75471" lon="6.54192">
        <ele>1124.88</ele>
        <time>2012-05-08T09:14:13Z</time>
      </trkpt>
      <trkpt lat="43.75475" lon="6.54179">
        <ele>1125.84</ele>
        <time>2012-05-08T09:14:34Z</time>
      </trkpt>
      <trkpt lat="43.75478" lon="6.54164">
        <ele>1124.88</ele>
        <time>2012-05-08T09:14:55Z</time>
      </trkpt>
      <trkpt lat="43.75481" lon="6.54152">
        <ele>1124.4</ele>
        <time>2012-05-08T09:15:11Z</time>
      </trkpt>
      <trkpt lat="43.75481" lon="6.5414">
        <ele>1126.8</ele>
        <time>2012-05-08T09:15:29Z</time>
      </trkpt>
      <trkpt lat="43.75482" lon="6.54124">
        <ele>1130.65</ele>
        <time>2012-05-08T09:15:47Z</time>
      </trkpt>
      <trkpt lat="43.75485" lon="6.54113">
        <ele>1134.49</ele>
        <time>2012-05-08T09:16:02Z</time>
      </trkpt>
      <trkpt lat="43.75482" lon="6.54096">
        <ele>1140.26</ele>
        <time>2012-05-08T09:16:21Z</time>
      </trkpt>
      <trkpt lat="43.75482" lon="6.54083">
        <ele>1141.7</ele>
        <time>2012-05-08T09:16:40Z</time>
      </trkpt>
      <trkpt lat="43.75482" lon="6.54072">
        <ele>1143.14</ele>
        <time>2012-05-08T09:16:56Z</time>
      </trkpt>
      <trkpt lat="43.75481" lon="6.54056">
        <ele>1146.51</ele>
        <time>2012-05-08T09:17:16Z</time>
      </trkpt>
      <trkpt lat="43.75477" lon="6.54041">
        <ele>1147.47</ele>
        <time>2012-05-08T09:17:34Z</time>
      </trkpt>
      <trkpt lat="43.75474" lon="6.54028">
        <ele>1146.51</ele>
        <time>2012-05-08T09:17:52Z</time>
      </trkpt>
      <trkpt lat="43.75473" lon="6.54019">
        <ele>1146.99</ele>
        <time>2012-05-08T09:18:08Z</time>
      </trkpt>
      <trkpt lat="43.75471" lon="6.54012">
        <ele>1149.39</ele>
        <time>2012-05-08T09:18:26Z</time>
      </trkpt>
      <trkpt lat="43.75465" lon="6.54001">
        <ele>1152.28</ele>
        <time>2012-05-08T09:18:44Z</time>
      </trkpt>
      <trkpt lat="43.75458" lon="6.53989">
        <ele>1155.16</ele>
        <time>2012-05-08T09:19:01Z</time>
      </trkpt>
      <trkpt lat="43.75458" lon="6.53979">
        <ele>1157.56</ele>
        <time>2012-05-08T09:19:17Z</time>
      </trkpt>
      <trkpt lat="43.75459" lon="6.53968">
        <ele>1157.08</ele>
        <time>2012-05-08T09:19:33Z</time>
      </trkpt>
      <trkpt lat="43.75458" lon="6.53954">
        <ele>1159.97</ele>
        <time>2012-05-08T09:19:52Z</time>
      </trkpt>
      <trkpt lat="43.75459" lon="6.53948">
        <ele>1159.97</ele>
        <time>2012-05-08T09:20:18Z</time>
      </trkpt>
      <trkpt lat="43.7546" lon="6.53942">
        <ele>1159.01</ele>
        <time>2012-05-08T09:20:41Z</time>
      </trkpt>
      <trkpt lat="43.75463" lon="6.53924">
        <ele>1158.53</ele>
        <time>2012-05-08T09:20:55Z</time>
      </trkpt>
      <trkpt lat="43.75462" lon="6.53908">
        <ele>1157.56</ele>
        <time>2012-05-08T09:21:10Z</time>
      </trkpt>
      <trkpt lat="43.75458" lon="6.53898">
        <ele>1157.08</ele>
        <time>2012-05-08T09:21:18Z</time>
      </trkpt>
      <trkpt lat="43.75455" lon="6.53879">
        <ele>1160.45</ele>
        <time>2012-05-08T09:21:35Z</time>
      </trkpt>
      <trkpt lat="43.75455" lon="6.53877">
        <ele>1160.45</ele>
        <time>2012-05-08T09:21:36Z</time>
      </trkpt>
      <trkpt lat="43.75455" lon="6.53859">
        <ele>1162.37</ele>
        <time>2012-05-08T09:21:50Z</time>
      </trkpt>
      <trkpt lat="43.7545" lon="6.53847">
        <ele>1163.33</ele>
        <time>2012-05-08T09:22:05Z</time>
      </trkpt>
      <trkpt lat="43.75448" lon="6.53844">
        <ele>1161.89</ele>
        <time>2012-05-08T09:22:08Z</time>
      </trkpt>
      <trkpt lat="43.75443" lon="6.53832">
        <ele>1155.64</ele>
        <time>2012-05-08T09:22:24Z</time>
      </trkpt>
      <trkpt lat="43.75442" lon="6.53827">
        <ele>1145.55</ele>
        <time>2012-05-08T09:22:42Z</time>
      </trkpt>
      <trkpt lat="43.75439" lon="6.53818">
        <ele>1137.86</ele>
        <time>2012-05-08T09:22:58Z</time>
      </trkpt>
      <trkpt lat="43.7543" lon="6.53809">
        <ele>1137.38</ele>
        <time>2012-05-08T09:23:16Z</time>
      </trkpt>
      <trkpt lat="43.75425" lon="6.53807">
        <ele>1134.49</ele>
        <time>2012-05-08T09:23:38Z</time>
      </trkpt>
      <trkpt lat="43.7541" lon="6.53802">
        <ele>1138.34</ele>
        <time>2012-05-08T09:24:01Z</time>
      </trkpt>
      <trkpt lat="43.75402" lon="6.53789">
        <ele>1152.28</ele>
        <time>2012-05-08T09:24:18Z</time>
      </trkpt>
      <trkpt lat="43.75393" lon="6.53785">
        <ele>1162.85</ele>
        <time>2012-05-08T09:24:39Z</time>
      </trkpt>
      <trkpt lat="43.75386" lon="6.53789">
        <ele>1168.62</ele>
        <time>2012-05-08T09:24:58Z</time>
      </trkpt>
      <trkpt lat="43.75381" lon="6.53785">
        <ele>1171.5</ele>
        <time>2012-05-08T09:25:16Z</time>
      </trkpt>
      <trkpt lat="43.75376" lon="6.53775">
        <ele>1171.02</ele>
        <time>2012-05-08T09:25:37Z</time>
      </trkpt>
      <trkpt lat="43.75377" lon="6.53772">
        <ele>1173.91</ele>
        <time>2012-05-08T09:25:47Z</time>
      </trkpt>
      <trkpt lat="43.75384" lon="6.53774">
        <ele>1177.75</ele>
        <time>2012-05-08T09:26:05Z</time>
      </trkpt>
      <trkpt lat="43.75388" lon="6.53767">
        <ele>1179.67</ele>
        <time>2012-05-08T09:26:24Z</time>
      </trkpt>
      <trkpt lat="43.75386" lon="6.5376">
        <ele>1180.16</ele>
        <time>2012-05-08T09:26:40Z</time>
      </trkpt>
      <trkpt lat="43.75384" lon="6.53752">
        <ele>1181.6</ele>
        <time>2012-05-08T09:26:57Z</time>
      </trkpt>
      <trkpt lat="43.75375" lon="6.5374">
        <ele>1184</ele>
        <time>2012-05-08T09:27:20Z</time>
      </trkpt>
      <trkpt lat="43.75367" lon="6.53732">
        <ele>1183.04</ele>
        <time>2012-05-08T09:27:39Z</time>
      </trkpt>
      <trkpt lat="43.75361" lon="6.53726">
        <ele>1182.56</ele>
        <time>2012-05-08T09:27:59Z</time>
      </trkpt>
      <trkpt lat="43.75357" lon="6.53719">
        <ele>1182.56</ele>
        <time>2012-05-08T09:28:06Z</time>
      </trkpt>
      <trkpt lat="43.75348" lon="6.53722">
        <ele>1185.92</ele>
        <time>2012-05-08T09:28:22Z</time>
      </trkpt>
      <trkpt lat="43.75341" lon="6.5371">
        <ele>1191.21</ele>
        <time>2012-05-08T09:28:41Z</time>
      </trkpt>
      <trkpt lat="43.75342" lon="6.53704">
        <ele>1195.06</ele>
        <time>2012-05-08T09:28:59Z</time>
      </trkpt>
      <trkpt lat="43.75347" lon="6.53702">
        <ele>1197.46</ele>
        <time>2012-05-08T09:29:10Z</time>
      </trkpt>
      <trkpt lat="43.75355" lon="6.53703">
        <ele>1200.82</ele>
        <time>2012-05-08T09:29:27Z</time>
      </trkpt>
      <trkpt lat="43.75364" lon="6.53702">
        <ele>1201.79</ele>
        <time>2012-05-08T09:29:44Z</time>
      </trkpt>
      <trkpt lat="43.7537" lon="6.53701">
        <ele>1203.71</ele>
        <time>2012-05-08T09:29:59Z</time>
      </trkpt>
      <trkpt lat="43.75383" lon="6.53701">
        <ele>1207.07</ele>
        <time>2012-05-08T09:30:16Z</time>
      </trkpt>
      <trkpt lat="43.75389" lon="6.53702">
        <ele>1209</ele>
        <time>2012-05-08T09:30:32Z</time>
      </trkpt>
      <trkpt lat="43.754" lon="6.537">
        <ele>1211.88</ele>
        <time>2012-05-08T09:30:50Z</time>
      </trkpt>
      <trkpt lat="43.75408" lon="6.53692">
        <ele>1213.32</ele>
        <time>2012-05-08T09:31:07Z</time>
      </trkpt>
      <trkpt lat="43.75413" lon="6.53684">
        <ele>1214.76</ele>
        <time>2012-05-08T09:31:25Z</time>
      </trkpt>
      <trkpt lat="43.7542" lon="6.53685">
        <ele>1217.65</ele>
        <time>2012-05-08T09:31:41Z</time>
      </trkpt>
      <trkpt lat="43.75427" lon="6.53683">
        <ele>1218.61</ele>
        <time>2012-05-08T09:31:58Z</time>
      </trkpt>
      <trkpt lat="43.75438" lon="6.53684">
        <ele>1221.49</ele>
        <time>2012-05-08T09:32:18Z</time>
      </trkpt>
      <trkpt lat="43.75448" lon="6.53686">
        <ele>1223.9</ele>
        <time>2012-05-08T09:32:39Z</time>
      </trkpt>
      <trkpt lat="43.75459" lon="6.53677">
        <ele>1225.34</ele>
        <time>2012-05-08T09:32:57Z</time>
      </trkpt>
      <trkpt lat="43.75464" lon="6.53677">
        <ele>1226.3</ele>
        <time>2012-05-08T09:33:11Z</time>
      </trkpt>
      <trkpt lat="43.75474" lon="6.53671">
        <ele>1228.7</ele>
        <time>2012-05-08T09:33:27Z</time>
      </trkpt>
      <trkpt lat="43.7548" lon="6.53672">
        <ele>1231.59</ele>
        <time>2012-05-08T09:33:46Z</time>
      </trkpt>
      <trkpt lat="43.75488" lon="6.53669">
        <ele>1230.14</ele>
        <time>2012-05-08T09:34:05Z</time>
      </trkpt>
      <trkpt lat="43.75496" lon="6.53663">
        <ele>1230.14</ele>
        <time>2012-05-08T09:34:24Z</time>
      </trkpt>
      <trkpt lat="43.75505" lon="6.53658">
        <ele>1231.59</ele>
        <time>2012-05-08T09:34:42Z</time>
      </trkpt>
      <trkpt lat="43.75516" lon="6.53663">
        <ele>1235.91</ele>
        <time>2012-05-08T09:35:01Z</time>
      </trkpt>
      <trkpt lat="43.7552" lon="6.53656">
        <ele>1235.91</ele>
        <time>2012-05-08T09:35:17Z</time>
      </trkpt>
      <trkpt lat="43.75529" lon="6.53644">
        <ele>1236.39</ele>
        <time>2012-05-08T09:35:34Z</time>
      </trkpt>
      <trkpt lat="43.75534" lon="6.53633">
        <ele>1234.95</ele>
        <time>2012-05-08T09:35:51Z</time>
      </trkpt>
      <trkpt lat="43.75544" lon="6.53632">
        <ele>1237.35</ele>
        <time>2012-05-08T09:36:08Z</time>
      </trkpt>
      <trkpt lat="43.75551" lon="6.53628">
        <ele>1239.28</ele>
        <time>2012-05-08T09:36:26Z</time>
      </trkpt>
      <trkpt lat="43.75563" lon="6.53628">
        <ele>1242.16</ele>
        <time>2012-05-08T09:36:44Z</time>
      </trkpt>
      <trkpt lat="43.75571" lon="6.53623">
        <ele>1241.68</ele>
        <time>2012-05-08T09:37:00Z</time>
      </trkpt>
      <trkpt lat="43.75577" lon="6.53618">
        <ele>1242.64</ele>
        <time>2012-05-08T09:37:19Z</time>
      </trkpt>
      <trkpt lat="43.75589" lon="6.53615">
        <ele>1246.97</ele>
        <time>2012-05-08T09:37:38Z</time>
      </trkpt>
      <trkpt lat="43.75599" lon="6.53611">
        <ele>1249.37</ele>
        <time>2012-05-08T09:37:55Z</time>
      </trkpt>
      <trkpt lat="43.75607" lon="6.53611">
        <ele>1250.33</ele>
        <time>2012-05-08T09:38:11Z</time>
      </trkpt>
      <trkpt lat="43.75619" lon="6.53606">
        <ele>1253.22</ele>
        <time>2012-05-08T09:38:26Z</time>
      </trkpt>
      <trkpt lat="43.75629" lon="6.53607">
        <ele>1255.14</ele>
        <time>2012-05-08T09:38:43Z</time>
      </trkpt>
      <trkpt lat="43.7564" lon="6.53607">
        <ele>1256.58</ele>
        <time>2012-05-08T09:39:01Z</time>
      </trkpt>
      <trkpt lat="43.75655" lon="6.53611">
        <ele>1257.06</ele>
        <time>2012-05-08T09:39:20Z</time>
      </trkpt>
      <trkpt lat="43.75664" lon="6.5361">
        <ele>1258.02</ele>
        <time>2012-05-08T09:39:35Z</time>
      </trkpt>
      <trkpt lat="43.75676" lon="6.53608">
        <ele>1258.98</ele>
        <time>2012-05-08T09:39:52Z</time>
      </trkpt>
      <trkpt lat="43.75676" lon="6.53608">
        <ele>1258.98</ele>
        <time>2012-05-08T09:40:09Z</time>
      </trkpt>
      <trkpt lat="43.75678" lon="6.53607">
        <ele>1258.98</ele>
        <time>2012-05-08T09:40:11Z</time>
      </trkpt>
      <trkpt lat="43.75687" lon="6.53601">
        <ele>1258.98</ele>
        <time>2012-05-08T09:40:27Z</time>
      </trkpt>
      <trkpt lat="43.75704" lon="6.53597">
        <ele>1260.91</ele>
        <time>2012-05-08T09:40:49Z</time>
      </trkpt>
      <trkpt lat="43.75711" lon="6.53591">
        <ele>1261.39</ele>
        <time>2012-05-08T09:41:04Z</time>
      </trkpt>
      <trkpt lat="43.75719" lon="6.53583">
        <ele>1259.94</ele>
        <time>2012-05-08T09:41:21Z</time>
      </trkpt>
      <trkpt lat="43.75728" lon="6.53581">
        <ele>1260.91</ele>
        <time>2012-05-08T09:41:38Z</time>
      </trkpt>
      <trkpt lat="43.75727" lon="6.53592">
        <ele>1261.87</ele>
        <time>2012-05-08T09:41:50Z</time>
      </trkpt>
      <trkpt lat="43.75728" lon="6.53594">
        <ele>1262.35</ele>
        <time>2012-05-08T09:41:53Z</time>
      </trkpt>
      <trkpt lat="43.75734" lon="6.53604">
        <ele>1265.71</ele>
        <time>2012-05-08T09:42:08Z</time>
      </trkpt>
      <trkpt lat="43.75738" lon="6.53608">
        <ele>1265.23</ele>
        <time>2012-05-08T09:42:26Z</time>
      </trkpt>
      <trkpt lat="43.75738" lon="6.53609">
        <ele>1265.23</ele>
        <time>2012-05-08T09:42:50Z</time>
      </trkpt>
      <trkpt lat="43.75736" lon="6.53611">
        <ele>1266.19</ele>
        <time>2012-05-08T09:43:14Z</time>
      </trkpt>
      <trkpt lat="43.75734" lon="6.53612">
        <ele>1268.12</ele>
        <time>2012-05-08T09:43:35Z</time>
      </trkpt>
      <trkpt lat="43.75736" lon="6.53612">
        <ele>1269.56</ele>
        <time>2012-05-08T09:44:09Z</time>
      </trkpt>
      <trkpt lat="43.75734" lon="6.53609">
        <ele>1269.08</ele>
        <time>2012-05-08T09:44:31Z</time>
      </trkpt>
      <trkpt lat="43.75734" lon="6.53611">
        <ele>1268.12</ele>
        <time>2012-05-08T09:44:49Z</time>
      </trkpt>
      <trkpt lat="43.75734" lon="6.53612">
        <ele>1267.64</ele>
        <time>2012-05-08T09:45:21Z</time>
      </trkpt>
      <trkpt lat="43.75734" lon="6.53612">
        <ele>1266.67</ele>
        <time>2012-05-08T09:46:04Z</time>
      </trkpt>
      <trkpt lat="43.75734" lon="6.53611">
        <ele>1266.19</ele>
        <time>2012-05-08T09:46:47Z</time>
      </trkpt>
      <trkpt lat="43.75735" lon="6.53611">
        <ele>1265.23</ele>
        <time>2012-05-08T09:47:33Z</time>
      </trkpt>
      <trkpt lat="43.75734" lon="6.53611">
        <ele>1264.75</ele>
        <time>2012-05-08T09:48:30Z</time>
      </trkpt>
      <trkpt lat="43.75734" lon="6.53611">
        <ele>1264.75</ele>
        <time>2012-05-08T09:49:21Z</time>
      </trkpt>
      <trkpt lat="43.75734" lon="6.53611">
        <ele>1264.75</ele>
        <time>2012-05-08T09:50:11Z</time>
      </trkpt>
      <trkpt lat="43.75734" lon="6.53611">
        <ele>1264.75</ele>
        <time>2012-05-08T09:51:04Z</time>
      </trkpt>
      <trkpt lat="43.75734" lon="6.53611">
        <ele>1264.75</ele>
        <time>2012-05-08T09:51:54Z</time>
      </trkpt>
      <trkpt lat="43.75734" lon="6.53611">
        <ele>1265.23</ele>
        <time>2012-05-08T09:52:47Z</time>
      </trkpt>
      <trkpt lat="43.75734" lon="6.53611">
        <ele>1265.23</ele>
        <time>2012-05-08T09:53:39Z</time>
      </trkpt>
      <trkpt lat="43.75734" lon="6.53611">
        <ele>1265.23</ele>
        <time>2012-05-08T09:54:27Z</time>
      </trkpt>
      <trkpt lat="43.75734" lon="6.5361">
        <ele>1265.71</ele>
        <time>2012-05-08T09:55:18Z</time>
      </trkpt>
      <trkpt lat="43.75734" lon="6.53611">
        <ele>1266.67</ele>
        <time>2012-05-08T09:56:10Z</time>
      </trkpt>
      <trkpt lat="43.75734" lon="6.53611">
        <ele>1267.16</ele>
        <time>2012-05-08T09:57:05Z</time>
      </trkpt>
      <trkpt lat="43.75734" lon="6.53611">
        <ele>1267.64</ele>
        <time>2012-05-08T09:58:00Z</time>
      </trkpt>
      <trkpt lat="43.75734" lon="6.53611">
        <ele>1268.12</ele>
        <time>2012-05-08T09:58:56Z</time>
      </trkpt>
      <trkpt lat="43.75734" lon="6.53612">
        <ele>1268.6</ele>
        <time>2012-05-08T09:59:47Z</time>
      </trkpt>
      <trkpt lat="43.75734" lon="6.53611">
        <ele>1268.6</ele>
        <time>2012-05-08T10:00:43Z</time>
      </trkpt>
      <trkpt lat="43.75734" lon="6.53611">
        <ele>1268.6</ele>
        <time>2012-05-08T10:01:36Z</time>
      </trkpt>
      <trkpt lat="43.75734" lon="6.53611">
        <ele>1268.6</ele>
        <time>2012-05-08T10:02:28Z</time>
      </trkpt>
      <trkpt lat="43.75734" lon="6.53611">
        <ele>1268.6</ele>
        <time>2012-05-08T10:03:23Z</time>
      </trkpt>
      <trkpt lat="43.75734" lon="6.53611">
        <ele>1268.6</ele>
        <time>2012-05-08T10:04:15Z</time>
      </trkpt>
      <trkpt lat="43.75734" lon="6.53611">
        <ele>1269.08</ele>
        <time>2012-05-08T10:05:12Z</time>
      </trkpt>
      <trkpt lat="43.75734" lon="6.53612">
        <ele>1269.08</ele>
        <time>2012-05-08T10:06:08Z</time>
      </trkpt>
      <trkpt lat="43.75734" lon="6.53612">
        <ele>1269.08</ele>
        <time>2012-05-08T10:07:01Z</time>
      </trkpt>
      <trkpt lat="43.75734" lon="6.53611">
        <ele>1269.56</ele>
        <time>2012-05-08T10:07:55Z</time>
      </trkpt>
      <trkpt lat="43.75734" lon="6.53612">
        <ele>1269.56</ele>
        <time>2012-05-08T10:08:50Z</time>
      </trkpt>
      <trkpt lat="43.75733" lon="6.53612">
        <ele>1269.08</ele>
        <time>2012-05-08T10:09:51Z</time>
      </trkpt>
      <trkpt lat="43.75733" lon="6.53612">
        <ele>1269.56</ele>
        <time>2012-05-08T10:10:45Z</time>
      </trkpt>
      <trkpt lat="43.75733" lon="6.53612">
        <ele>1269.08</ele>
        <time>2012-05-08T10:11:40Z</time>
      </trkpt>
      <trkpt lat="43.75733" lon="6.53612">
        <ele>1269.08</ele>
        <time>2012-05-08T10:12:42Z</time>
      </trkpt>
      <trkpt lat="43.75734" lon="6.53612">
        <ele>1269.08</ele>
        <time>2012-05-08T10:13:41Z</time>
      </trkpt>
      <trkpt lat="43.75734" lon="6.53612">
        <ele>1268.6</ele>
        <time>2012-05-08T10:14:40Z</time>
      </trkpt>
      <trkpt lat="43.75733" lon="6.53612">
        <ele>1268.6</ele>
        <time>2012-05-08T10:15:31Z</time>
      </trkpt>
      <trkpt lat="43.75733" lon="6.53612">
        <ele>1268.6</ele>
        <time>2012-05-08T10:16:23Z</time>
      </trkpt>
      <trkpt lat="43.75733" lon="6.53613">
        <ele>1268.6</ele>
        <time>2012-05-08T10:17:15Z</time>
      </trkpt>
      <trkpt lat="43.75733" lon="6.53613">
        <ele>1268.6</ele>
        <time>2012-05-08T10:18:08Z</time>
      </trkpt>
      <trkpt lat="43.75733" lon="6.53613">
        <ele>1268.6</ele>
        <time>2012-05-08T10:18:57Z</time>
      </trkpt>
      <trkpt lat="43.75733" lon="6.53613">
        <ele>1268.6</ele>
        <time>2012-05-08T10:19:47Z</time>
      </trkpt>
      <trkpt lat="43.75733" lon="6.53613">
        <ele>1268.6</ele>
        <time>2012-05-08T10:20:37Z</time>
      </trkpt>
      <trkpt lat="43.75733" lon="6.53613">
        <ele>1268.12</ele>
        <time>2012-05-08T10:21:34Z</time>
      </trkpt>
      <trkpt lat="43.75733" lon="6.53613">
        <ele>1268.12</ele>
        <time>2012-05-08T10:22:28Z</time>
      </trkpt>
      <trkpt lat="43.75732" lon="6.53613">
        <ele>1268.12</ele>
        <time>2012-05-08T10:23:23Z</time>
      </trkpt>
      <trkpt lat="43.75732" lon="6.53613">
        <ele>1267.64</ele>
        <time>2012-05-08T10:24:18Z</time>
      </trkpt>
      <trkpt lat="43.75732" lon="6.53614">
        <ele>1267.16</ele>
        <time>2012-05-08T10:25:10Z</time>
      </trkpt>
      <trkpt lat="43.75732" lon="6.53614">
        <ele>1266.67</ele>
        <time>2012-05-08T10:26:04Z</time>
      </trkpt>
      <trkpt lat="43.75732" lon="6.53614">
        <ele>1266.67</ele>
        <time>2012-05-08T10:27:03Z</time>
      </trkpt>
      <trkpt lat="43.75732" lon="6.53614">
        <ele>1266.19</ele>
        <time>2012-05-08T10:27:57Z</time>
      </trkpt>
      <trkpt lat="43.75733" lon="6.53614">
        <ele>1266.19</ele>
        <time>2012-05-08T10:28:50Z</time>
      </trkpt>
      <trkpt lat="43.75733" lon="6.53614">
        <ele>1265.71</ele>
        <time>2012-05-08T10:29:42Z</time>
      </trkpt>
      <trkpt lat="43.75733" lon="6.53614">
        <ele>1265.71</ele>
        <time>2012-05-08T10:30:36Z</time>
      </trkpt>
      <trkpt lat="43.75733" lon="6.53614">
        <ele>1265.71</ele>
        <time>2012-05-08T10:31:28Z</time>
      </trkpt>
      <trkpt lat="43.75733" lon="6.53613">
        <ele>1265.71</ele>
        <time>2012-05-08T10:32:21Z</time>
      </trkpt>
      <trkpt lat="43.75733" lon="6.53613">
        <ele>1265.71</ele>
        <time>2012-05-08T10:33:12Z</time>
      </trkpt>
      <trkpt lat="43.75734" lon="6.53613">
        <ele>1265.71</ele>
        <time>2012-05-08T10:33:59Z</time>
      </trkpt>
      <trkpt lat="43.75734" lon="6.53612">
        <ele>1266.19</ele>
        <time>2012-05-08T10:34:50Z</time>
      </trkpt>
      <trkpt lat="43.75734" lon="6.53612">
        <ele>1268.12</ele>
        <time>2012-05-08T10:35:39Z</time>
      </trkpt>
      <trkpt lat="43.75735" lon="6.53612">
        <ele>1269.56</ele>
        <time>2012-05-08T10:36:26Z</time>
      </trkpt>
      <trkpt lat="43.75735" lon="6.53612">
        <ele>1271</ele>
        <time>2012-05-08T10:37:14Z</time>
      </trkpt>
      <trkpt lat="43.75735" lon="6.53612">
        <ele>1272.44</ele>
        <time>2012-05-08T10:38:06Z</time>
      </trkpt>
      <trkpt lat="43.75735" lon="6.53612">
        <ele>1273.4</ele>
        <time>2012-05-08T10:38:58Z</time>
      </trkpt>
      <trkpt lat="43.75735" lon="6.53613">
        <ele>1274.36</ele>
        <time>2012-05-08T10:39:51Z</time>
      </trkpt>
      <trkpt lat="43.75735" lon="6.53613">
        <ele>1275.33</ele>
        <time>2012-05-08T10:40:42Z</time>
      </trkpt>
      <trkpt lat="43.75735" lon="6.53613">
        <ele>1276.29</ele>
        <time>2012-05-08T10:41:33Z</time>
      </trkpt>
      <trkpt lat="43.75735" lon="6.53613">
        <ele>1276.29</ele>
        <time>2012-05-08T10:42:19Z</time>
      </trkpt>
      <trkpt lat="43.75734" lon="6.53613">
        <ele>1276.77</ele>
        <time>2012-05-08T10:43:11Z</time>
      </trkpt>
      <trkpt lat="43.75734" lon="6.53613">
        <ele>1277.25</ele>
        <time>2012-05-08T10:44:08Z</time>
      </trkpt>
      <trkpt lat="43.75734" lon="6.53613">
        <ele>1276.77</ele>
        <time>2012-05-08T10:44:52Z</time>
      </trkpt>
      <trkpt lat="43.75734" lon="6.53614">
        <ele>1276.77</ele>
        <time>2012-05-08T10:45:46Z</time>
      </trkpt>
      <trkpt lat="43.75734" lon="6.53614">
        <ele>1276.77</ele>
        <time>2012-05-08T10:46:32Z</time>
      </trkpt>
      <trkpt lat="43.75734" lon="6.53615">
        <ele>1276.77</ele>
        <time>2012-05-08T10:47:30Z</time>
      </trkpt>
      <trkpt lat="43.75734" lon="6.53615">
        <ele>1276.29</ele>
        <time>2012-05-08T10:48:16Z</time>
      </trkpt>
      <trkpt lat="43.75733" lon="6.53612">
        <ele>1275.81</ele>
        <time>2012-05-08T10:49:02Z</time>
      </trkpt>
      <trkpt lat="43.75732" lon="6.53607">
        <ele>1275.33</ele>
        <time>2012-05-08T10:49:18Z</time>
      </trkpt>
      <trkpt lat="43.75731" lon="6.53606">
        <ele>1274.85</ele>
        <time>2012-05-08T10:49:20Z</time>
      </trkpt>
      <trkpt lat="43.75726" lon="6.53595">
        <ele>1271.96</ele>
        <time>2012-05-08T10:49:36Z</time>
      </trkpt>
      <trkpt lat="43.75724" lon="6.53584">
        <ele>1269.56</ele>
        <time>2012-05-08T10:49:51Z</time>
      </trkpt>
      <trkpt lat="43.75725" lon="6.5358">
        <ele>1267.64</ele>
        <time>2012-05-08T10:50:05Z</time>
      </trkpt>
      <trkpt lat="43.75735" lon="6.53578">
        <ele>1264.75</ele>
        <time>2012-05-08T10:50:22Z</time>
      </trkpt>
      <trkpt lat="43.75735" lon="6.53573">
        <ele>1264.27</ele>
        <time>2012-05-08T10:50:32Z</time>
      </trkpt>
      <trkpt lat="43.75738" lon="6.5356">
        <ele>1262.35</ele>
        <time>2012-05-08T10:50:48Z</time>
      </trkpt>
      <trkpt lat="43.75739" lon="6.53546">
        <ele>1258.5</ele>
        <time>2012-05-08T10:51:05Z</time>
      </trkpt>
      <trkpt lat="43.75743" lon="6.53531">
        <ele>1254.18</ele>
        <time>2012-05-08T10:51:23Z</time>
      </trkpt>
      <trkpt lat="43.75749" lon="6.53521">
        <ele>1253.22</ele>
        <time>2012-05-08T10:51:41Z</time>
      </trkpt>
      <trkpt lat="43.75752" lon="6.53508">
        <ele>1252.74</ele>
        <time>2012-05-08T10:52:01Z</time>
      </trkpt>
      <trkpt lat="43.7575" lon="6.53492">
        <ele>1250.81</ele>
        <time>2012-05-08T10:52:17Z</time>
      </trkpt>
      <trkpt lat="43.75755" lon="6.53481">
        <ele>1247.93</ele>
        <time>2012-05-08T10:52:34Z</time>
      </trkpt>
      <trkpt lat="43.75763" lon="6.53471">
        <ele>1246.49</ele>
        <time>2012-05-08T10:52:50Z</time>
      </trkpt>
      <trkpt lat="43.75767" lon="6.53458">
        <ele>1244.56</ele>
        <time>2012-05-08T10:53:07Z</time>
      </trkpt>
      <trkpt lat="43.75769" lon="6.53447">
        <ele>1243.6</ele>
        <time>2012-05-08T10:53:24Z</time>
      </trkpt>
      <trkpt lat="43.75766" lon="6.53431">
        <ele>1242.16</ele>
        <time>2012-05-08T10:53:41Z</time>
      </trkpt>
      <trkpt lat="43.75762" lon="6.53416">
        <ele>1241.2</ele>
        <time>2012-05-08T10:53:58Z</time>
      </trkpt>
      <trkpt lat="43.75762" lon="6.53401">
        <ele>1240.72</ele>
        <time>2012-05-08T10:54:14Z</time>
      </trkpt>
      <trkpt lat="43.75764" lon="6.53386">
        <ele>1237.83</ele>
        <time>2012-05-08T10:54:32Z</time>
      </trkpt>
      <trkpt lat="43.75763" lon="6.53375">
        <ele>1235.43</ele>
        <time>2012-05-08T10:54:48Z</time>
      </trkpt>
      <trkpt lat="43.7576" lon="6.53366">
        <ele>1232.55</ele>
        <time>2012-05-08T10:55:03Z</time>
      </trkpt>
      <trkpt lat="43.75756" lon="6.53352">
        <ele>1232.55</ele>
        <time>2012-05-08T10:55:20Z</time>
      </trkpt>
      <trkpt lat="43.75756" lon="6.53341">
        <ele>1231.11</ele>
        <time>2012-05-08T10:55:36Z</time>
      </trkpt>
      <trkpt lat="43.75753" lon="6.53329">
        <ele>1229.66</ele>
        <time>2012-05-08T10:55:53Z</time>
      </trkpt>
      <trkpt lat="43.75757" lon="6.53319">
        <ele>1229.18</ele>
        <time>2012-05-08T10:56:08Z</time>
      </trkpt>
      <trkpt lat="43.75762" lon="6.53308">
        <ele>1229.18</ele>
        <time>2012-05-08T10:56:25Z</time>
      </trkpt>
      <trkpt lat="43.75766" lon="6.53303">
        <ele>1228.22</ele>
        <time>2012-05-08T10:56:35Z</time>
      </trkpt>
      <trkpt lat="43.75765" lon="6.53285">
        <ele>1225.82</ele>
        <time>2012-05-08T10:56:52Z</time>
      </trkpt>
      <trkpt lat="43.75779" lon="6.53283">
        <ele>1225.82</ele>
        <time>2012-05-08T10:57:11Z</time>
      </trkpt>
      <trkpt lat="43.75782" lon="6.53282">
        <ele>1225.34</ele>
        <time>2012-05-08T10:57:18Z</time>
      </trkpt>
      <trkpt lat="43.75791" lon="6.53273">
        <ele>1224.38</ele>
        <time>2012-05-08T10:57:34Z</time>
      </trkpt>
      <trkpt lat="43.75799" lon="6.53265">
        <ele>1221.97</ele>
        <time>2012-05-08T10:57:51Z</time>
      </trkpt>
      <trkpt lat="43.7581" lon="6.53266">
        <ele>1221.97</ele>
        <time>2012-05-08T10:58:09Z</time>
      </trkpt>
      <trkpt lat="43.75816" lon="6.53265">
        <ele>1222.45</ele>
        <time>2012-05-08T10:58:22Z</time>
      </trkpt>
      <trkpt lat="43.75823" lon="6.53256">
        <ele>1220.53</ele>
        <time>2012-05-08T10:58:41Z</time>
      </trkpt>
      <trkpt lat="43.75836" lon="6.53252">
        <ele>1216.21</ele>
        <time>2012-05-08T10:58:59Z</time>
      </trkpt>
      <trkpt lat="43.75847" lon="6.53258">
        <ele>1213.32</ele>
        <time>2012-05-08T10:59:17Z</time>
      </trkpt>
      <trkpt lat="43.75858" lon="6.53267">
        <ele>1215.24</ele>
        <time>2012-05-08T10:59:34Z</time>
      </trkpt>
      <trkpt lat="43.75869" lon="6.53267">
        <ele>1212.84</ele>
        <time>2012-05-08T10:59:54Z</time>
      </trkpt>
      <trkpt lat="43.75873" lon="6.53262">
        <ele>1210.92</ele>
        <time>2012-05-08T11:00:13Z</time>
      </trkpt>
      <trkpt lat="43.75878" lon="6.53249">
        <ele>1208.51</ele>
        <time>2012-05-08T11:00:29Z</time>
      </trkpt>
      <trkpt lat="43.75879" lon="6.53231">
        <ele>1209.48</ele>
        <time>2012-05-08T11:00:46Z</time>
      </trkpt>
      <trkpt lat="43.75893" lon="6.53222">
        <ele>1207.55</ele>
        <time>2012-05-08T11:01:03Z</time>
      </trkpt>
      <trkpt lat="43.75902" lon="6.53218">
        <ele>1203.71</ele>
        <time>2012-05-08T11:01:22Z</time>
      </trkpt>
      <trkpt lat="43.75912" lon="6.53202">
        <ele>1200.82</ele>
        <time>2012-05-08T11:01:41Z</time>
      </trkpt>
      <trkpt lat="43.75913" lon="6.53201">
        <ele>1200.82</ele>
        <time>2012-05-08T11:01:43Z</time>
      </trkpt>
      <trkpt lat="43.7592" lon="6.53194">
        <ele>1198.9</ele>
        <time>2012-05-08T11:01:52Z</time>
      </trkpt>
      <trkpt lat="43.75937" lon="6.53191">
        <ele>1196.02</ele>
        <time>2012-05-08T11:02:13Z</time>
      </trkpt>
      <trkpt lat="43.75939" lon="6.53191">
        <ele>1195.54</ele>
        <time>2012-05-08T11:02:16Z</time>
      </trkpt>
      <trkpt lat="43.75947" lon="6.53195">
        <ele>1195.06</ele>
        <time>2012-05-08T11:02:34Z</time>
      </trkpt>
      <trkpt lat="43.75954" lon="6.53195">
        <ele>1193.13</ele>
        <time>2012-05-08T11:02:50Z</time>
      </trkpt>
      <trkpt lat="43.75961" lon="6.53195">
        <ele>1189.77</ele>
        <time>2012-05-08T11:03:06Z</time>
      </trkpt>
      <trkpt lat="43.75966" lon="6.53202">
        <ele>1187.37</ele>
        <time>2012-05-08T11:03:19Z</time>
      </trkpt>
      <trkpt lat="43.75972" lon="6.53213">
        <ele>1186.4</ele>
        <time>2012-05-08T11:03:34Z</time>
      </trkpt>
      <trkpt lat="43.75972" lon="6.53213">
        <ele>1186.4</ele>
        <time>2012-05-08T11:03:35Z</time>
      </trkpt>
      <trkpt lat="43.7598" lon="6.53216">
        <ele>1185.92</ele>
        <time>2012-05-08T11:03:53Z</time>
      </trkpt>
      <trkpt lat="43.75986" lon="6.53211">
        <ele>1183.52</ele>
        <time>2012-05-08T11:04:10Z</time>
      </trkpt>
      <trkpt lat="43.75994" lon="6.53217">
        <ele>1180.64</ele>
        <time>2012-05-08T11:04:24Z</time>
      </trkpt>
      <trkpt lat="43.76002" lon="6.53226">
        <ele>1174.87</ele>
        <time>2012-05-08T11:04:40Z</time>
      </trkpt>
      <trkpt lat="43.76006" lon="6.53237">
        <ele>1170.06</ele>
        <time>2012-05-08T11:04:56Z</time>
      </trkpt>
      <trkpt lat="43.76013" lon="6.53252">
        <ele>1168.62</ele>
        <time>2012-05-08T11:05:12Z</time>
      </trkpt>
      <trkpt lat="43.76021" lon="6.53261">
        <ele>1164.77</ele>
        <time>2012-05-08T11:05:28Z</time>
      </trkpt>
      <trkpt lat="43.76024" lon="6.53267">
        <ele>1164.77</ele>
        <time>2012-05-08T11:05:35Z</time>
      </trkpt>
      <trkpt lat="43.76032" lon="6.53285">
        <ele>1164.77</ele>
        <time>2012-05-08T11:05:52Z</time>
      </trkpt>
      <trkpt lat="43.76035" lon="6.53293">
        <ele>1165.26</ele>
        <time>2012-05-08T11:06:08Z</time>
      </trkpt>
      <trkpt lat="43.7604" lon="6.53311">
        <ele>1165.26</ele>
        <time>2012-05-08T11:06:28Z</time>
      </trkpt>
      <trkpt lat="43.76048" lon="6.53327">
        <ele>1161.89</ele>
        <time>2012-05-08T11:06:44Z</time>
      </trkpt>
      <trkpt lat="43.76054" lon="6.53336">
        <ele>1157.56</ele>
        <time>2012-05-08T11:06:59Z</time>
      </trkpt>
      <trkpt lat="43.7606" lon="6.53343">
        <ele>1153.24</ele>
        <time>2012-05-08T11:07:13Z</time>
      </trkpt>
      <trkpt lat="43.76066" lon="6.53358">
        <ele>1152.28</ele>
        <time>2012-05-08T11:07:29Z</time>
      </trkpt>
      <trkpt lat="43.76068" lon="6.53368">
        <ele>1152.76</ele>
        <time>2012-05-08T11:07:37Z</time>
      </trkpt>
      <trkpt lat="43.76071" lon="6.5338">
        <ele>1155.16</ele>
        <time>2012-05-08T11:07:45Z</time>
      </trkpt>
      <trkpt lat="43.76078" lon="6.53397">
        <ele>1154.2</ele>
        <time>2012-05-08T11:08:04Z</time>
      </trkpt>
      <trkpt lat="43.76082" lon="6.53404">
        <ele>1150.84</ele>
        <time>2012-05-08T11:08:17Z</time>
      </trkpt>
      <trkpt lat="43.76086" lon="6.53416">
        <ele>1147.95</ele>
        <time>2012-05-08T11:08:30Z</time>
      </trkpt>
      <trkpt lat="43.76092" lon="6.53431">
        <ele>1146.03</ele>
        <time>2012-05-08T11:08:47Z</time>
      </trkpt>
      <trkpt lat="43.76095" lon="6.53439">
        <ele>1142.66</ele>
        <time>2012-05-08T11:09:02Z</time>
      </trkpt>
      <trkpt lat="43.761" lon="6.5345">
        <ele>1136.9</ele>
        <time>2012-05-08T11:09:23Z</time>
      </trkpt>
      <trkpt lat="43.76102" lon="6.53463">
        <ele>1132.57</ele>
        <time>2012-05-08T11:09:38Z</time>
      </trkpt>
      <trkpt lat="43.76101" lon="6.53464">
        <ele>1137.86</ele>
        <time>2012-05-08T11:09:52Z</time>
      </trkpt>
      <trkpt lat="43.76105" lon="6.53449">
        <ele>1137.86</ele>
        <time>2012-05-08T11:10:07Z</time>
      </trkpt>
      <trkpt lat="43.7611" lon="6.53438">
        <ele>1138.34</ele>
        <time>2012-05-08T11:10:23Z</time>
      </trkpt>
      <trkpt lat="43.76111" lon="6.53437">
        <ele>1139.3</ele>
        <time>2012-05-08T11:10:31Z</time>
      </trkpt>
      <trkpt lat="43.76111" lon="6.53434">
        <ele>1139.3</ele>
        <time>2012-05-08T11:10:35Z</time>
      </trkpt>
      <trkpt lat="43.76115" lon="6.5342">
        <ele>1137.38</ele>
        <time>2012-05-08T11:10:51Z</time>
      </trkpt>
      <trkpt lat="43.76114" lon="6.53408">
        <ele>1134.49</ele>
        <time>2012-05-08T11:11:04Z</time>
      </trkpt>
      <trkpt lat="43.76115" lon="6.53395">
        <ele>1131.61</ele>
        <time>2012-05-08T11:11:19Z</time>
      </trkpt>
      <trkpt lat="43.76114" lon="6.53393">
        <ele>1131.13</ele>
        <time>2012-05-08T11:11:21Z</time>
      </trkpt>
      <trkpt lat="43.76115" lon="6.53376">
        <ele>1129.69</ele>
        <time>2012-05-08T11:11:36Z</time>
      </trkpt>
      <trkpt lat="43.76115" lon="6.53376">
        <ele>1129.69</ele>
        <time>2012-05-08T11:11:37Z</time>
      </trkpt>
      <trkpt lat="43.76118" lon="6.5336">
        <ele>1129.21</ele>
        <time>2012-05-08T11:11:53Z</time>
      </trkpt>
      <trkpt lat="43.76115" lon="6.53352">
        <ele>1125.84</ele>
        <time>2012-05-08T11:12:02Z</time>
      </trkpt>
      <trkpt lat="43.76115" lon="6.5335">
        <ele>1125.36</ele>
        <time>2012-05-08T11:12:05Z</time>
      </trkpt>
      <trkpt lat="43.76114" lon="6.53348">
        <ele>1124.88</ele>
        <time>2012-05-08T11:12:07Z</time>
      </trkpt>
      <trkpt lat="43.76113" lon="6.53344">
        <ele>1124.88</ele>
        <time>2012-05-08T11:12:10Z</time>
      </trkpt>
      <trkpt lat="43.76114" lon="6.53329">
        <ele>1126.8</ele>
        <time>2012-05-08T11:12:24Z</time>
      </trkpt>
      <trkpt lat="43.76114" lon="6.53317">
        <ele>1124.88</ele>
        <time>2012-05-08T11:12:40Z</time>
      </trkpt>
      <trkpt lat="43.76132" lon="6.53324">
        <ele>1120.07</ele>
        <time>2012-05-08T11:13:05Z</time>
      </trkpt>
      <trkpt lat="43.76135" lon="6.53336">
        <ele>1123.92</ele>
        <time>2012-05-08T11:13:15Z</time>
      </trkpt>
      <trkpt lat="43.76142" lon="6.53363">
        <ele>1126.32</ele>
        <time>2012-05-08T11:13:36Z</time>
      </trkpt>
      <trkpt lat="43.76147" lon="6.53365">
        <ele>1124.4</ele>
        <time>2012-05-08T11:13:39Z</time>
      </trkpt>
      <trkpt lat="43.76154" lon="6.53357">
        <ele>1120.07</ele>
        <time>2012-05-08T11:13:51Z</time>
      </trkpt>
      <trkpt lat="43.76154" lon="6.5335">
        <ele>1119.11</ele>
        <time>2012-05-08T11:13:59Z</time>
      </trkpt>
      <trkpt lat="43.76154" lon="6.53347">
        <ele>1118.15</ele>
        <time>2012-05-08T11:14:02Z</time>
      </trkpt>
      <trkpt lat="43.76152" lon="6.53332">
        <ele>1121.52</ele>
        <time>2012-05-08T11:14:09Z</time>
      </trkpt>
      <trkpt lat="43.76145" lon="6.53314">
        <ele>1117.67</ele>
        <time>2012-05-08T11:14:26Z</time>
      </trkpt>
      <trkpt lat="43.76143" lon="6.53305">
        <ele>1116.23</ele>
        <time>2012-05-08T11:14:34Z</time>
      </trkpt>
      <trkpt lat="43.76141" lon="6.53288">
        <ele>1114.31</ele>
        <time>2012-05-08T11:14:49Z</time>
      </trkpt>
      <trkpt lat="43.76142" lon="6.53275">
        <ele>1115.27</ele>
        <time>2012-05-08T11:14:58Z</time>
      </trkpt>
      <trkpt lat="43.76141" lon="6.53271">
        <ele>1115.27</ele>
        <time>2012-05-08T11:15:01Z</time>
      </trkpt>
      <trkpt lat="43.76138" lon="6.53264">
        <ele>1112.86</ele>
        <time>2012-05-08T11:15:07Z</time>
      </trkpt>
      <trkpt lat="43.76137" lon="6.5326">
        <ele>1112.38</ele>
        <time>2012-05-08T11:15:10Z</time>
      </trkpt>
      <trkpt lat="43.76137" lon="6.53258">
        <ele>1111.9</ele>
        <time>2012-05-08T11:15:12Z</time>
      </trkpt>
      <trkpt lat="43.76136" lon="6.53243">
        <ele>1109.98</ele>
        <time>2012-05-08T11:15:24Z</time>
      </trkpt>
      <trkpt lat="43.76137" lon="6.5324">
        <ele>1109.98</ele>
        <time>2012-05-08T11:15:26Z</time>
      </trkpt>
      <trkpt lat="43.76138" lon="6.5323">
        <ele>1109.98</ele>
        <time>2012-05-08T11:15:33Z</time>
      </trkpt>
      <trkpt lat="43.76141" lon="6.53215">
        <ele>1109.5</ele>
        <time>2012-05-08T11:15:44Z</time>
      </trkpt>
      <trkpt lat="43.76146" lon="6.53206">
        <ele>1110.94</ele>
        <time>2012-05-08T11:15:51Z</time>
      </trkpt>
      <trkpt lat="43.76148" lon="6.53199">
        <ele>1111.42</ele>
        <time>2012-05-08T11:15:56Z</time>
      </trkpt>
      <trkpt lat="43.76152" lon="6.53181">
        <ele>1111.42</ele>
        <time>2012-05-08T11:16:11Z</time>
      </trkpt>
      <trkpt lat="43.76154" lon="6.53161">
        <ele>1108.06</ele>
        <time>2012-05-08T11:16:27Z</time>
      </trkpt>
      <trkpt lat="43.76158" lon="6.53151">
        <ele>1107.58</ele>
        <time>2012-05-08T11:16:56Z</time>
      </trkpt>
      <trkpt lat="43.76158" lon="6.53149">
        <ele>1107.1</ele>
        <time>2012-05-08T11:16:57Z</time>
      </trkpt>
      <trkpt lat="43.76158" lon="6.53144">
        <ele>1106.61</ele>
        <time>2012-05-08T11:17:01Z</time>
      </trkpt>
      <trkpt lat="43.7616" lon="6.53134">
        <ele>1106.13</ele>
        <time>2012-05-08T11:17:09Z</time>
      </trkpt>
      <trkpt lat="43.76162" lon="6.53124">
        <ele>1105.17</ele>
        <time>2012-05-08T11:17:17Z</time>
      </trkpt>
      <trkpt lat="43.76166" lon="6.53114">
        <ele>1106.13</ele>
        <time>2012-05-08T11:17:35Z</time>
      </trkpt>
      <trkpt lat="43.76164" lon="6.53106">
        <ele>1105.17</ele>
        <time>2012-05-08T11:17:41Z</time>
      </trkpt>
      <trkpt lat="43.76164" lon="6.53099">
        <ele>1102.77</ele>
        <time>2012-05-08T11:17:45Z</time>
      </trkpt>
      <trkpt lat="43.76161" lon="6.53089">
        <ele>1099.89</ele>
        <time>2012-05-08T11:17:54Z</time>
      </trkpt>
      <trkpt lat="43.76161" lon="6.53082">
        <ele>1099.4</ele>
        <time>2012-05-08T11:18:00Z</time>
      </trkpt>
      <trkpt lat="43.76162" lon="6.53077">
        <ele>1099.89</ele>
        <time>2012-05-08T11:18:03Z</time>
      </trkpt>
      <trkpt lat="43.76163" lon="6.53074">
        <ele>1100.37</ele>
        <time>2012-05-08T11:18:05Z</time>
      </trkpt>
      <trkpt lat="43.76164" lon="6.53069">
        <ele>1101.33</ele>
        <time>2012-05-08T11:18:08Z</time>
      </trkpt>
      <trkpt lat="43.76165" lon="6.53067">
        <ele>1100.85</ele>
        <time>2012-05-08T11:18:10Z</time>
      </trkpt>
      <trkpt lat="43.76163" lon="6.53059">
        <ele>1100.37</ele>
        <time>2012-05-08T11:18:16Z</time>
      </trkpt>
      <trkpt lat="43.76164" lon="6.53042">
        <ele>1098.44</ele>
        <time>2012-05-08T11:18:28Z</time>
      </trkpt>
      <trkpt lat="43.76165" lon="6.53036">
        <ele>1098.44</ele>
        <time>2012-05-08T11:18:33Z</time>
      </trkpt>
      <trkpt lat="43.76164" lon="6.53029">
        <ele>1096.52</ele>
        <time>2012-05-08T11:18:39Z</time>
      </trkpt>
      <trkpt lat="43.76166" lon="6.53017">
        <ele>1095.08</ele>
        <time>2012-05-08T11:18:48Z</time>
      </trkpt>
      <trkpt lat="43.76165" lon="6.53013">
        <ele>1094.6</ele>
        <time>2012-05-08T11:18:51Z</time>
      </trkpt>
      <trkpt lat="43.76166" lon="6.5301">
        <ele>1094.12</ele>
        <time>2012-05-08T11:18:53Z</time>
      </trkpt>
      <trkpt lat="43.76165" lon="6.53006">
        <ele>1094.12</ele>
        <time>2012-05-08T11:18:56Z</time>
      </trkpt>
      <trkpt lat="43.76167" lon="6.52991">
        <ele>1094.12</ele>
        <time>2012-05-08T11:19:07Z</time>
      </trkpt>
      <trkpt lat="43.76167" lon="6.52988">
        <ele>1093.64</ele>
        <time>2012-05-08T11:19:09Z</time>
      </trkpt>
      <trkpt lat="43.76169" lon="6.52971">
        <ele>1093.16</ele>
        <time>2012-05-08T11:19:22Z</time>
      </trkpt>
      <trkpt lat="43.76169" lon="6.52956">
        <ele>1092.68</ele>
        <time>2012-05-08T11:19:37Z</time>
      </trkpt>
      <trkpt lat="43.76168" lon="6.52954">
        <ele>1092.68</ele>
        <time>2012-05-08T11:19:39Z</time>
      </trkpt>
      <trkpt lat="43.76167" lon="6.52947">
        <ele>1091.71</ele>
        <time>2012-05-08T11:19:44Z</time>
      </trkpt>
      <trkpt lat="43.76167" lon="6.52941">
        <ele>1091.71</ele>
        <time>2012-05-08T11:19:49Z</time>
      </trkpt>
      <trkpt lat="43.76165" lon="6.52938">
        <ele>1091.23</ele>
        <time>2012-05-08T11:19:51Z</time>
      </trkpt>
      <trkpt lat="43.76166" lon="6.52936">
        <ele>1091.23</ele>
        <time>2012-05-08T11:19:53Z</time>
      </trkpt>
      <trkpt lat="43.76162" lon="6.52931">
        <ele>1087.87</ele>
        <time>2012-05-08T11:19:58Z</time>
      </trkpt>
      <trkpt lat="43.7616" lon="6.52925">
        <ele>1085.95</ele>
        <time>2012-05-08T11:20:03Z</time>
      </trkpt>
      <trkpt lat="43.76162" lon="6.52918">
        <ele>1085.47</ele>
        <time>2012-05-08T11:20:09Z</time>
      </trkpt>
      <trkpt lat="43.7616" lon="6.52915">
        <ele>1084.99</ele>
        <time>2012-05-08T11:20:11Z</time>
      </trkpt>
      <trkpt lat="43.7616" lon="6.5291">
        <ele>1084.99</ele>
        <time>2012-05-08T11:20:14Z</time>
      </trkpt>
      <trkpt lat="43.76162" lon="6.52898">
        <ele>1085.47</ele>
        <time>2012-05-08T11:20:24Z</time>
      </trkpt>
      <trkpt lat="43.76162" lon="6.52886">
        <ele>1084.5</ele>
        <time>2012-05-08T11:20:32Z</time>
      </trkpt>
      <trkpt lat="43.76161" lon="6.52882">
        <ele>1084.02</ele>
        <time>2012-05-08T11:20:35Z</time>
      </trkpt>
      <trkpt lat="43.76162" lon="6.52879">
        <ele>1084.02</ele>
        <time>2012-05-08T11:20:37Z</time>
      </trkpt>
      <trkpt lat="43.76163" lon="6.52869">
        <ele>1083.06</ele>
        <time>2012-05-08T11:20:45Z</time>
      </trkpt>
      <trkpt lat="43.76165" lon="6.52858">
        <ele>1082.58</ele>
        <time>2012-05-08T11:20:53Z</time>
      </trkpt>
      <trkpt lat="43.76166" lon="6.52852">
        <ele>1082.58</ele>
        <time>2012-05-08T11:20:57Z</time>
      </trkpt>
      <trkpt lat="43.76164" lon="6.5285">
        <ele>1082.1</ele>
        <time>2012-05-08T11:20:59Z</time>
      </trkpt>
      <trkpt lat="43.76169" lon="6.52837">
        <ele>1081.62</ele>
        <time>2012-05-08T11:21:13Z</time>
      </trkpt>
      <trkpt lat="43.76178" lon="6.5284">
        <ele>1074.41</ele>
        <time>2012-05-08T11:21:28Z</time>
      </trkpt>
      <trkpt lat="43.7618" lon="6.52841">
        <ele>1073.45</ele>
        <time>2012-05-08T11:21:30Z</time>
      </trkpt>
      <trkpt lat="43.76182" lon="6.52846">
        <ele>1072.49</ele>
        <time>2012-05-08T11:21:37Z</time>
      </trkpt>
      <trkpt lat="43.76192" lon="6.52854">
        <ele>1068.64</ele>
        <time>2012-05-08T11:21:52Z</time>
      </trkpt>
      <trkpt lat="43.76195" lon="6.52856">
        <ele>1072.01</ele>
        <time>2012-05-08T11:22:08Z</time>
      </trkpt>
      <trkpt lat="43.76204" lon="6.5285">
        <ele>1071.53</ele>
        <time>2012-05-08T11:22:26Z</time>
      </trkpt>
      <trkpt lat="43.76205" lon="6.5285">
        <ele>1070.57</ele>
        <time>2012-05-08T11:22:28Z</time>
      </trkpt>
      <trkpt lat="43.76209" lon="6.52851">
        <ele>1069.12</ele>
        <time>2012-05-08T11:22:34Z</time>
      </trkpt>
      <trkpt lat="43.76207" lon="6.52842">
        <ele>1068.64</ele>
        <time>2012-05-08T11:22:43Z</time>
      </trkpt>
      <trkpt lat="43.76214" lon="6.52842">
        <ele>1068.16</ele>
        <time>2012-05-08T11:22:58Z</time>
      </trkpt>
      <trkpt lat="43.76217" lon="6.52845">
        <ele>1068.16</ele>
        <time>2012-05-08T11:23:04Z</time>
      </trkpt>
      <trkpt lat="43.76222" lon="6.52838">
        <ele>1065.76</ele>
        <time>2012-05-08T11:23:21Z</time>
      </trkpt>
      <trkpt lat="43.76229" lon="6.52827">
        <ele>1064.32</ele>
        <time>2012-05-08T11:23:36Z</time>
      </trkpt>
      <trkpt lat="43.76231" lon="6.52816">
        <ele>1061.91</ele>
        <time>2012-05-08T11:23:53Z</time>
      </trkpt>
      <trkpt lat="43.76233" lon="6.52816">
        <ele>1061.43</ele>
        <time>2012-05-08T11:23:55Z</time>
      </trkpt>
      <trkpt lat="43.76243" lon="6.52823">
        <ele>1058.07</ele>
        <time>2012-05-08T11:24:12Z</time>
      </trkpt>
      <trkpt lat="43.76249" lon="6.52828">
        <ele>1056.63</ele>
        <time>2012-05-08T11:24:25Z</time>
      </trkpt>
      <trkpt lat="43.76258" lon="6.52834">
        <ele>1055.18</ele>
        <time>2012-05-08T11:24:39Z</time>
      </trkpt>
      <trkpt lat="43.76259" lon="6.52833">
        <ele>1054.7</ele>
        <time>2012-05-08T11:24:59Z</time>
      </trkpt>
      <trkpt lat="43.7626" lon="6.52831">
        <ele>1053.74</ele>
        <time>2012-05-08T11:25:06Z</time>
      </trkpt>
      <trkpt lat="43.76266" lon="6.52825">
        <ele>1050.86</ele>
        <time>2012-05-08T11:25:21Z</time>
      </trkpt>
      <trkpt lat="43.76266" lon="6.52824">
        <ele>1050.38</ele>
        <time>2012-05-08T11:25:22Z</time>
      </trkpt>
      <trkpt lat="43.76274" lon="6.52832">
        <ele>1047.97</ele>
        <time>2012-05-08T11:25:37Z</time>
      </trkpt>
      <trkpt lat="43.76273" lon="6.52831">
        <ele>1047.97</ele>
        <time>2012-05-08T11:25:41Z</time>
      </trkpt>
      <trkpt lat="43.76278" lon="6.52819">
        <ele>1047.49</ele>
        <time>2012-05-08T11:25:58Z</time>
      </trkpt>
      <trkpt lat="43.76282" lon="6.52809">
        <ele>1044.61</ele>
        <time>2012-05-08T11:26:13Z</time>
      </trkpt>
      <trkpt lat="43.76285" lon="6.52802">
        <ele>1043.65</ele>
        <time>2012-05-08T11:26:23Z</time>
      </trkpt>
      <trkpt lat="43.76291" lon="6.52793">
        <ele>1040.76</ele>
        <time>2012-05-08T11:26:38Z</time>
      </trkpt>
      <trkpt lat="43.76291" lon="6.52787">
        <ele>1038.84</ele>
        <time>2012-05-08T11:27:01Z</time>
      </trkpt>
      <trkpt lat="43.76291" lon="6.52785">
        <ele>1038.84</ele>
        <time>2012-05-08T11:27:04Z</time>
      </trkpt>
      <trkpt lat="43.76298" lon="6.52774">
        <ele>1037.4</ele>
        <time>2012-05-08T11:27:22Z</time>
      </trkpt>
      <trkpt lat="43.76297" lon="6.52762">
        <ele>1035.48</ele>
        <time>2012-05-08T11:27:36Z</time>
      </trkpt>
      <trkpt lat="43.76303" lon="6.52764">
        <ele>1034.04</ele>
        <time>2012-05-08T11:27:45Z</time>
      </trkpt>
      <trkpt lat="43.7631" lon="6.52772">
        <ele>1031.63</ele>
        <time>2012-05-08T11:28:01Z</time>
      </trkpt>
      <trkpt lat="43.76317" lon="6.5278">
        <ele>1029.71</ele>
        <time>2012-05-08T11:28:16Z</time>
      </trkpt>
      <trkpt lat="43.76321" lon="6.52777">
        <ele>1026.34</ele>
        <time>2012-05-08T11:28:32Z</time>
      </trkpt>
      <trkpt lat="43.76327" lon="6.52781">
        <ele>1022.5</ele>
        <time>2012-05-08T11:28:45Z</time>
      </trkpt>
      <trkpt lat="43.76331" lon="6.52787">
        <ele>1019.62</ele>
        <time>2012-05-08T11:28:55Z</time>
      </trkpt>
      <trkpt lat="43.76336" lon="6.52799">
        <ele>1014.33</ele>
        <time>2012-05-08T11:29:12Z</time>
      </trkpt>
      <trkpt lat="43.76339" lon="6.52801">
        <ele>1012.41</ele>
        <time>2012-05-08T11:29:18Z</time>
      </trkpt>
      <trkpt lat="43.76345" lon="6.52814">
        <ele>1010.48</ele>
        <time>2012-05-08T11:29:31Z</time>
      </trkpt>
      <trkpt lat="43.7635" lon="6.52827">
        <ele>1008.56</ele>
        <time>2012-05-08T11:29:45Z</time>
      </trkpt>
      <trkpt lat="43.76356" lon="6.52836">
        <ele>1005.68</ele>
        <time>2012-05-08T11:30:00Z</time>
      </trkpt>
      <trkpt lat="43.76364" lon="6.52853">
        <ele>1006.64</ele>
        <time>2012-05-08T11:30:15Z</time>
      </trkpt>
      <trkpt lat="43.76367" lon="6.52857">
        <ele>1007.12</ele>
        <time>2012-05-08T11:30:20Z</time>
      </trkpt>
      <trkpt lat="43.76375" lon="6.52868">
        <ele>1004.72</ele>
        <time>2012-05-08T11:30:36Z</time>
      </trkpt>
      <trkpt lat="43.76377" lon="6.52871">
        <ele>1004.72</ele>
        <time>2012-05-08T11:30:41Z</time>
      </trkpt>
      <trkpt lat="43.76382" lon="6.52877">
        <ele>1002.79</ele>
        <time>2012-05-08T11:30:49Z</time>
      </trkpt>
      <trkpt lat="43.76388" lon="6.52889">
        <ele>1000.87</ele>
        <time>2012-05-08T11:31:03Z</time>
      </trkpt>
      <trkpt lat="43.76395" lon="6.52898">
        <ele>998.95</ele>
        <time>2012-05-08T11:31:20Z</time>
      </trkpt>
      <trkpt lat="43.76397" lon="6.52902">
        <ele>1000.87</ele>
        <time>2012-05-08T11:31:24Z</time>
      </trkpt>
      <trkpt lat="43.76402" lon="6.5291">
        <ele>1002.79</ele>
        <time>2012-05-08T11:31:41Z</time>
      </trkpt>
      <trkpt lat="43.76404" lon="6.52912">
        <ele>1003.27</ele>
        <time>2012-05-08T11:31:47Z</time>
      </trkpt>
      <trkpt lat="43.76405" lon="6.52914">
        <ele>1000.87</ele>
        <time>2012-05-08T11:31:53Z</time>
      </trkpt>
      <trkpt lat="43.76407" lon="6.52915">
        <ele>1000.39</ele>
        <time>2012-05-08T11:31:55Z</time>
      </trkpt>
      <trkpt lat="43.76411" lon="6.52923">
        <ele>998.95</ele>
        <time>2012-05-08T11:32:04Z</time>
      </trkpt>
      <trkpt lat="43.76417" lon="6.5293">
        <ele>997.99</ele>
        <time>2012-05-08T11:32:14Z</time>
      </trkpt>
      <trkpt lat="43.7642" lon="6.52937">
        <ele>997.02</ele>
        <time>2012-05-08T11:32:21Z</time>
      </trkpt>
      <trkpt lat="43.7642" lon="6.52938">
        <ele>996.54</ele>
        <time>2012-05-08T11:32:23Z</time>
      </trkpt>
      <trkpt lat="43.76422" lon="6.52946">
        <ele>996.54</ele>
        <time>2012-05-08T11:32:29Z</time>
      </trkpt>
      <trkpt lat="43.76424" lon="6.52951">
        <ele>997.02</ele>
        <time>2012-05-08T11:32:35Z</time>
      </trkpt>
      <trkpt lat="43.76425" lon="6.52954">
        <ele>996.54</ele>
        <time>2012-05-08T11:32:37Z</time>
      </trkpt>
      <trkpt lat="43.76432" lon="6.52965">
        <ele>995.58</ele>
        <time>2012-05-08T11:32:50Z</time>
      </trkpt>
      <trkpt lat="43.76433" lon="6.52967">
        <ele>996.06</ele>
        <time>2012-05-08T11:32:51Z</time>
      </trkpt>
      <trkpt lat="43.76442" lon="6.52984">
        <ele>996.06</ele>
        <time>2012-05-08T11:33:09Z</time>
      </trkpt>
      <trkpt lat="43.76445" lon="6.52987">
        <ele>996.06</ele>
        <time>2012-05-08T11:33:13Z</time>
      </trkpt>
      <trkpt lat="43.76457" lon="6.52998">
        <ele>992.7</ele>
        <time>2012-05-08T11:33:32Z</time>
      </trkpt>
      <trkpt lat="43.76468" lon="6.53009">
        <ele>990.78</ele>
        <time>2012-05-08T11:33:50Z</time>
      </trkpt>
      <trkpt lat="43.76473" lon="6.53006">
        <ele>988.37</ele>
        <time>2012-05-08T11:34:06Z</time>
      </trkpt>
      <trkpt lat="43.76474" lon="6.53001">
        <ele>987.89</ele>
        <time>2012-05-08T11:34:10Z</time>
      </trkpt>
      <trkpt lat="43.76475" lon="6.52999">
        <ele>987.89</ele>
        <time>2012-05-08T11:34:12Z</time>
      </trkpt>
      <trkpt lat="43.76474" lon="6.52994">
        <ele>987.89</ele>
        <time>2012-05-08T11:34:17Z</time>
      </trkpt>
      <trkpt lat="43.76475" lon="6.52976">
        <ele>985.97</ele>
        <time>2012-05-08T11:34:33Z</time>
      </trkpt>
      <trkpt lat="43.76479" lon="6.52963">
        <ele>983.57</ele>
        <time>2012-05-08T11:34:49Z</time>
      </trkpt>
      <trkpt lat="43.76483" lon="6.52952">
        <ele>982.6</ele>
        <time>2012-05-08T11:35:05Z</time>
      </trkpt>
      <trkpt lat="43.76486" lon="6.5295">
        <ele>983.09</ele>
        <time>2012-05-08T11:35:21Z</time>
      </trkpt>
      <trkpt lat="43.76489" lon="6.52932">
        <ele>982.12</ele>
        <time>2012-05-08T11:35:37Z</time>
      </trkpt>
      <trkpt lat="43.76491" lon="6.52917">
        <ele>980.68</ele>
        <time>2012-05-08T11:35:52Z</time>
      </trkpt>
      <trkpt lat="43.76495" lon="6.52913">
        <ele>980.68</ele>
        <time>2012-05-08T11:35:58Z</time>
      </trkpt>
      <trkpt lat="43.76495" lon="6.529">
        <ele>978.28</ele>
        <time>2012-05-08T11:36:13Z</time>
      </trkpt>
      <trkpt lat="43.76501" lon="6.52897">
        <ele>977.8</ele>
        <time>2012-05-08T11:36:21Z</time>
      </trkpt>
      <trkpt lat="43.76502" lon="6.52893">
        <ele>976.84</ele>
        <time>2012-05-08T11:36:27Z</time>
      </trkpt>
      <trkpt lat="43.76502" lon="6.52882">
        <ele>976.36</ele>
        <time>2012-05-08T11:36:38Z</time>
      </trkpt>
      <trkpt lat="43.76512" lon="6.52873">
        <ele>975.39</ele>
        <time>2012-05-08T11:36:54Z</time>
      </trkpt>
      <trkpt lat="43.76513" lon="6.52864">
        <ele>973.95</ele>
        <time>2012-05-08T11:37:03Z</time>
      </trkpt>
      <trkpt lat="43.76514" lon="6.52859">
        <ele>973.95</ele>
        <time>2012-05-08T11:37:07Z</time>
      </trkpt>
      <trkpt lat="43.76515" lon="6.52844">
        <ele>971.07</ele>
        <time>2012-05-08T11:37:25Z</time>
      </trkpt>
      <trkpt lat="43.76518" lon="6.52842">
        <ele>971.07</ele>
        <time>2012-05-08T11:37:30Z</time>
      </trkpt>
      <trkpt lat="43.76526" lon="6.52852">
        <ele>970.59</ele>
        <time>2012-05-08T11:37:43Z</time>
      </trkpt>
      <trkpt lat="43.76527" lon="6.52855">
        <ele>970.11</ele>
        <time>2012-05-08T11:37:45Z</time>
      </trkpt>
      <trkpt lat="43.76528" lon="6.52858">
        <ele>969.15</ele>
        <time>2012-05-08T11:37:48Z</time>
      </trkpt>
      <trkpt lat="43.7653" lon="6.52863">
        <ele>968.18</ele>
        <time>2012-05-08T11:37:53Z</time>
      </trkpt>
      <trkpt lat="43.76532" lon="6.52868">
        <ele>968.18</ele>
        <time>2012-05-08T11:37:58Z</time>
      </trkpt>
      <trkpt lat="43.76535" lon="6.52878">
        <ele>968.67</ele>
        <time>2012-05-08T11:38:08Z</time>
      </trkpt>
      <trkpt lat="43.76539" lon="6.52893">
        <ele>965.78</ele>
        <time>2012-05-08T11:38:23Z</time>
      </trkpt>
      <trkpt lat="43.76544" lon="6.52913">
        <ele>962.42</ele>
        <time>2012-05-08T11:38:48Z</time>
      </trkpt>
      <trkpt lat="43.76546" lon="6.52917">
        <ele>961.46</ele>
        <time>2012-05-08T11:38:51Z</time>
      </trkpt>
      <trkpt lat="43.76549" lon="6.52934">
        <ele>959.53</ele>
        <time>2012-05-08T11:39:05Z</time>
      </trkpt>
      <trkpt lat="43.76549" lon="6.52938">
        <ele>958.57</ele>
        <time>2012-05-08T11:39:08Z</time>
      </trkpt>
      <trkpt lat="43.7655" lon="6.52942">
        <ele>957.13</ele>
        <time>2012-05-08T11:39:11Z</time>
      </trkpt>
      <trkpt lat="43.76554" lon="6.52964">
        <ele>953.77</ele>
        <time>2012-05-08T11:39:30Z</time>
      </trkpt>
      <trkpt lat="43.76555" lon="6.52968">
        <ele>953.28</ele>
        <time>2012-05-08T11:39:33Z</time>
      </trkpt>
      <trkpt lat="43.76557" lon="6.52971">
        <ele>952.8</ele>
        <time>2012-05-08T11:39:35Z</time>
      </trkpt>
      <trkpt lat="43.76562" lon="6.52988">
        <ele>951.84</ele>
        <time>2012-05-08T11:39:50Z</time>
      </trkpt>
      <trkpt lat="43.76567" lon="6.53011">
        <ele>950.4</ele>
        <time>2012-05-08T11:40:07Z</time>
      </trkpt>
      <trkpt lat="43.76569" lon="6.53017">
        <ele>950.88</ele>
        <time>2012-05-08T11:40:11Z</time>
      </trkpt>
      <trkpt lat="43.76569" lon="6.53019">
        <ele>950.4</ele>
        <time>2012-05-08T11:40:13Z</time>
      </trkpt>
      <trkpt lat="43.76572" lon="6.5303">
        <ele>950.88</ele>
        <time>2012-05-08T11:40:33Z</time>
      </trkpt>
      <trkpt lat="43.76573" lon="6.53041">
        <ele>950.88</ele>
        <time>2012-05-08T11:40:40Z</time>
      </trkpt>
      <trkpt lat="43.76575" lon="6.53044">
        <ele>951.36</ele>
        <time>2012-05-08T11:40:43Z</time>
      </trkpt>
      <trkpt lat="43.76577" lon="6.53056">
        <ele>950.88</ele>
        <time>2012-05-08T11:40:51Z</time>
      </trkpt>
      <trkpt lat="43.76578" lon="6.53064">
        <ele>951.36</ele>
        <time>2012-05-08T11:40:56Z</time>
      </trkpt>
      <trkpt lat="43.7658" lon="6.53067">
        <ele>951.36</ele>
        <time>2012-05-08T11:40:59Z</time>
      </trkpt>
      <trkpt lat="43.7658" lon="6.5307">
        <ele>951.36</ele>
        <time>2012-05-08T11:41:01Z</time>
      </trkpt>
      <trkpt lat="43.76581" lon="6.53076">
        <ele>951.84</ele>
        <time>2012-05-08T11:41:05Z</time>
      </trkpt>
      <trkpt lat="43.76582" lon="6.53079">
        <ele>951.36</ele>
        <time>2012-05-08T11:41:07Z</time>
      </trkpt>
      <trkpt lat="43.76583" lon="6.53087">
        <ele>950.88</ele>
        <time>2012-05-08T11:41:13Z</time>
      </trkpt>
      <trkpt lat="43.76585" lon="6.53091">
        <ele>949.92</ele>
        <time>2012-05-08T11:41:18Z</time>
      </trkpt>
      <trkpt lat="43.76586" lon="6.53095">
        <ele>948.96</ele>
        <time>2012-05-08T11:41:21Z</time>
      </trkpt>
      <trkpt lat="43.76587" lon="6.53098">
        <ele>948.48</ele>
        <time>2012-05-08T11:41:23Z</time>
      </trkpt>
      <trkpt lat="43.76588" lon="6.53102">
        <ele>948.48</ele>
        <time>2012-05-08T11:41:26Z</time>
      </trkpt>
      <trkpt lat="43.76589" lon="6.53104">
        <ele>948</ele>
        <time>2012-05-08T11:41:28Z</time>
      </trkpt>
      <trkpt lat="43.76589" lon="6.53108">
        <ele>947.52</ele>
        <time>2012-05-08T11:41:31Z</time>
      </trkpt>
      <trkpt lat="43.7659" lon="6.53111">
        <ele>948</ele>
        <time>2012-05-08T11:41:33Z</time>
      </trkpt>
      <trkpt lat="43.76594" lon="6.53133">
        <ele>946.56</ele>
        <time>2012-05-08T11:41:49Z</time>
      </trkpt>
      <trkpt lat="43.76594" lon="6.53137">
        <ele>947.04</ele>
        <time>2012-05-08T11:41:52Z</time>
      </trkpt>
      <trkpt lat="43.76596" lon="6.53141">
        <ele>947.04</ele>
        <time>2012-05-08T11:41:55Z</time>
      </trkpt>
      <trkpt lat="43.76596" lon="6.53147">
        <ele>947.04</ele>
        <time>2012-05-08T11:41:59Z</time>
      </trkpt>
      <trkpt lat="43.76598" lon="6.53152">
        <ele>945.11</ele>
        <time>2012-05-08T11:42:04Z</time>
      </trkpt>
      <trkpt lat="43.76602" lon="6.5317">
        <ele>942.23</ele>
        <time>2012-05-08T11:42:19Z</time>
      </trkpt>
      <trkpt lat="43.76603" lon="6.53173">
        <ele>942.23</ele>
        <time>2012-05-08T11:42:21Z</time>
      </trkpt>
      <trkpt lat="43.76606" lon="6.5318">
        <ele>941.27</ele>
        <time>2012-05-08T11:42:27Z</time>
      </trkpt>
      <trkpt lat="43.76607" lon="6.53186">
        <ele>941.75</ele>
        <time>2012-05-08T11:42:31Z</time>
      </trkpt>
      <trkpt lat="43.76611" lon="6.53195">
        <ele>941.27</ele>
        <time>2012-05-08T11:42:38Z</time>
      </trkpt>
      <trkpt lat="43.76612" lon="6.53201">
        <ele>940.79</ele>
        <time>2012-05-08T11:42:42Z</time>
      </trkpt>
      <trkpt lat="43.76615" lon="6.53208">
        <ele>941.27</ele>
        <time>2012-05-08T11:42:47Z</time>
      </trkpt>
      <trkpt lat="43.76616" lon="6.53212">
        <ele>941.27</ele>
        <time>2012-05-08T11:42:50Z</time>
      </trkpt>
      <trkpt lat="43.76617" lon="6.53215">
        <ele>941.27</ele>
        <time>2012-05-08T11:42:53Z</time>
      </trkpt>
      <trkpt lat="43.76621" lon="6.53219">
        <ele>940.31</ele>
        <time>2012-05-08T11:42:58Z</time>
      </trkpt>
      <trkpt lat="43.76625" lon="6.53231">
        <ele>938.38</ele>
        <time>2012-05-08T11:43:08Z</time>
      </trkpt>
      <trkpt lat="43.76628" lon="6.53239">
        <ele>937.9</ele>
        <time>2012-05-08T11:43:18Z</time>
      </trkpt>
      <trkpt lat="43.76631" lon="6.53245">
        <ele>936.46</ele>
        <time>2012-05-08T11:43:25Z</time>
      </trkpt>
      <trkpt lat="43.76641" lon="6.5326">
        <ele>933.58</ele>
        <time>2012-05-08T11:43:42Z</time>
      </trkpt>
      <trkpt lat="43.76644" lon="6.53267">
        <ele>933.58</ele>
        <time>2012-05-08T11:43:48Z</time>
      </trkpt>
      <trkpt lat="43.76651" lon="6.53282">
        <ele>931.17</ele>
        <time>2012-05-08T11:44:01Z</time>
      </trkpt>
      <trkpt lat="43.76657" lon="6.53293">
        <ele>929.25</ele>
        <time>2012-05-08T11:44:12Z</time>
      </trkpt>
      <trkpt lat="43.76659" lon="6.53293">
        <ele>929.25</ele>
        <time>2012-05-08T11:44:14Z</time>
      </trkpt>
      <trkpt lat="43.76669" lon="6.53312">
        <ele>929.25</ele>
        <time>2012-05-08T11:44:30Z</time>
      </trkpt>
      <trkpt lat="43.76675" lon="6.5332">
        <ele>929.25</ele>
        <time>2012-05-08T11:44:38Z</time>
      </trkpt>
      <trkpt lat="43.76681" lon="6.53331">
        <ele>928.77</ele>
        <time>2012-05-08T11:44:49Z</time>
      </trkpt>
      <trkpt lat="43.76684" lon="6.53332">
        <ele>929.25</ele>
        <time>2012-05-08T11:44:52Z</time>
      </trkpt>
      <trkpt lat="43.76692" lon="6.53345">
        <ele>929.25</ele>
        <time>2012-05-08T11:45:04Z</time>
      </trkpt>
      <trkpt lat="43.76697" lon="6.53352">
        <ele>927.81</ele>
        <time>2012-05-08T11:45:12Z</time>
      </trkpt>
      <trkpt lat="43.7671" lon="6.53365">
        <ele>924.93</ele>
        <time>2012-05-08T11:45:30Z</time>
      </trkpt>
      <trkpt lat="43.76716" lon="6.5336">
        <ele>925.41</ele>
        <time>2012-05-08T11:45:50Z</time>
      </trkpt>
      <trkpt lat="43.76716" lon="6.53356">
        <ele>924.93</ele>
        <time>2012-05-08T11:45:53Z</time>
      </trkpt>
      <trkpt lat="43.76714" lon="6.53343">
        <ele>923</ele>
        <time>2012-05-08T11:46:03Z</time>
      </trkpt>
      <trkpt lat="43.76708" lon="6.53319">
        <ele>921.56</ele>
        <time>2012-05-08T11:46:21Z</time>
      </trkpt>
      <trkpt lat="43.76704" lon="6.53299">
        <ele>921.08</ele>
        <time>2012-05-08T11:46:36Z</time>
      </trkpt>
      <trkpt lat="43.76705" lon="6.53292">
        <ele>921.08</ele>
        <time>2012-05-08T11:46:41Z</time>
      </trkpt>
      <trkpt lat="43.76704" lon="6.53278">
        <ele>920.6</ele>
        <time>2012-05-08T11:46:50Z</time>
      </trkpt>
      <trkpt lat="43.76703" lon="6.53251">
        <ele>922.52</ele>
        <time>2012-05-08T11:47:09Z</time>
      </trkpt>
      <trkpt lat="43.76703" lon="6.53237">
        <ele>922.52</ele>
        <time>2012-05-08T11:47:18Z</time>
      </trkpt>
      <trkpt lat="43.76702" lon="6.53231">
        <ele>921.56</ele>
        <time>2012-05-08T11:47:22Z</time>
      </trkpt>
      <trkpt lat="43.76702" lon="6.53218">
        <ele>919.16</ele>
        <time>2012-05-08T11:47:33Z</time>
      </trkpt>
      <trkpt lat="43.76703" lon="6.53211">
        <ele>918.2</ele>
        <time>2012-05-08T11:47:38Z</time>
      </trkpt>
      <trkpt lat="43.76702" lon="6.53207">
        <ele>918.68</ele>
        <time>2012-05-08T11:47:41Z</time>
      </trkpt>
      <trkpt lat="43.76702" lon="6.53204">
        <ele>918.2</ele>
        <time>2012-05-08T11:47:43Z</time>
      </trkpt>
      <trkpt lat="43.76701" lon="6.53201">
        <ele>918.2</ele>
        <time>2012-05-08T11:47:46Z</time>
      </trkpt>
      <trkpt lat="43.76702" lon="6.53198">
        <ele>918.2</ele>
        <time>2012-05-08T11:47:48Z</time>
      </trkpt>
      <trkpt lat="43.76701" lon="6.53191">
        <ele>916.75</ele>
        <time>2012-05-08T11:47:54Z</time>
      </trkpt>
      <trkpt lat="43.76703" lon="6.53184">
        <ele>916.27</ele>
        <time>2012-05-08T11:47:59Z</time>
      </trkpt>
      <trkpt lat="43.76708" lon="6.53189">
        <ele>911.47</ele>
        <time>2012-05-08T11:48:16Z</time>
      </trkpt>
      <trkpt lat="43.76709" lon="6.53197">
        <ele>910.51</ele>
        <time>2012-05-08T11:48:22Z</time>
      </trkpt>
      <trkpt lat="43.76712" lon="6.53214">
        <ele>908.1</ele>
        <time>2012-05-08T11:48:39Z</time>
      </trkpt>
      <trkpt lat="43.76718" lon="6.53226">
        <ele>908.58</ele>
        <time>2012-05-08T11:48:50Z</time>
      </trkpt>
      <trkpt lat="43.76728" lon="6.53231">
        <ele>909.54</ele>
        <time>2012-05-08T11:49:03Z</time>
      </trkpt>
      <trkpt lat="43.76732" lon="6.53224">
        <ele>908.1</ele>
        <time>2012-05-08T11:49:14Z</time>
      </trkpt>
      <trkpt lat="43.7674" lon="6.53215">
        <ele>905.7</ele>
        <time>2012-05-08T11:49:30Z</time>
      </trkpt>
      <trkpt lat="43.76754" lon="6.53208">
        <ele>901.85</ele>
        <time>2012-05-08T11:49:48Z</time>
      </trkpt>
      <trkpt lat="43.76764" lon="6.53203">
        <ele>900.41</ele>
        <time>2012-05-08T11:50:03Z</time>
      </trkpt>
      <trkpt lat="43.76775" lon="6.53206">
        <ele>899.93</ele>
        <time>2012-05-08T11:50:16Z</time>
      </trkpt>
      <trkpt lat="43.76778" lon="6.53202">
        <ele>899.45</ele>
        <time>2012-05-08T11:50:29Z</time>
      </trkpt>
      <trkpt lat="43.76778" lon="6.53201">
        <ele>899.45</ele>
        <time>2012-05-08T11:50:30Z</time>
      </trkpt>
      <trkpt lat="43.7678" lon="6.53181">
        <ele>898.97</ele>
        <time>2012-05-08T11:50:48Z</time>
      </trkpt>
      <trkpt lat="43.76788" lon="6.5319">
        <ele>898.01</ele>
        <time>2012-05-08T11:51:02Z</time>
      </trkpt>
      <trkpt lat="43.76789" lon="6.53193">
        <ele>898.01</ele>
        <time>2012-05-08T11:51:05Z</time>
      </trkpt>
      <trkpt lat="43.76796" lon="6.53206">
        <ele>897.53</ele>
        <time>2012-05-08T11:51:21Z</time>
      </trkpt>
      <trkpt lat="43.76797" lon="6.53207">
        <ele>898.01</ele>
        <time>2012-05-08T11:51:22Z</time>
      </trkpt>
      <trkpt lat="43.768" lon="6.53222">
        <ele>899.45</ele>
        <time>2012-05-08T11:51:37Z</time>
      </trkpt>
      <trkpt lat="43.76804" lon="6.53238">
        <ele>897.53</ele>
        <time>2012-05-08T11:51:52Z</time>
      </trkpt>
      <trkpt lat="43.76806" lon="6.53243">
        <ele>898.01</ele>
        <time>2012-05-08T11:51:58Z</time>
      </trkpt>
      <trkpt lat="43.76808" lon="6.53249">
        <ele>898.01</ele>
        <time>2012-05-08T11:52:03Z</time>
      </trkpt>
      <trkpt lat="43.76808" lon="6.53256">
        <ele>897.05</ele>
        <time>2012-05-08T11:52:10Z</time>
      </trkpt>
      <trkpt lat="43.76809" lon="6.53261">
        <ele>896.09</ele>
        <time>2012-05-08T11:52:14Z</time>
      </trkpt>
      <trkpt lat="43.76808" lon="6.53276">
        <ele>894.16</ele>
        <time>2012-05-08T11:52:29Z</time>
      </trkpt>
      <trkpt lat="43.76809" lon="6.53288">
        <ele>892.72</ele>
        <time>2012-05-08T11:52:40Z</time>
      </trkpt>
      <trkpt lat="43.76813" lon="6.533">
        <ele>891.28</ele>
        <time>2012-05-08T11:52:53Z</time>
      </trkpt>
      <trkpt lat="43.76812" lon="6.53302">
        <ele>890.8</ele>
        <time>2012-05-08T11:52:56Z</time>
      </trkpt>
      <trkpt lat="43.76817" lon="6.53314">
        <ele>887.91</ele>
        <time>2012-05-08T11:53:11Z</time>
      </trkpt>
      <trkpt lat="43.76817" lon="6.53326">
        <ele>887.43</ele>
        <time>2012-05-08T11:53:25Z</time>
      </trkpt>
      <trkpt lat="43.76816" lon="6.5333">
        <ele>886.95</ele>
        <time>2012-05-08T11:53:34Z</time>
      </trkpt>
      <trkpt lat="43.76819" lon="6.53345">
        <ele>885.51</ele>
        <time>2012-05-08T11:53:49Z</time>
      </trkpt>
      <trkpt lat="43.76824" lon="6.53358">
        <ele>882.15</ele>
        <time>2012-05-08T11:54:06Z</time>
      </trkpt>
      <trkpt lat="43.76828" lon="6.5337">
        <ele>879.26</ele>
        <time>2012-05-08T11:54:21Z</time>
      </trkpt>
      <trkpt lat="43.76835" lon="6.53361">
        <ele>876.86</ele>
        <time>2012-05-08T11:54:40Z</time>
      </trkpt>
      <trkpt lat="43.7684" lon="6.53368">
        <ele>875.42</ele>
        <time>2012-05-08T11:54:51Z</time>
      </trkpt>
      <trkpt lat="43.76845" lon="6.5338">
        <ele>873.98</ele>
        <time>2012-05-08T11:55:09Z</time>
      </trkpt>
      <trkpt lat="43.76847" lon="6.53395">
        <ele>875.42</ele>
        <time>2012-05-08T11:55:24Z</time>
      </trkpt>
      <trkpt lat="43.76847" lon="6.53398">
        <ele>874.94</ele>
        <time>2012-05-08T11:55:27Z</time>
      </trkpt>
      <trkpt lat="43.76847" lon="6.53418">
        <ele>873.01</ele>
        <time>2012-05-08T11:55:43Z</time>
      </trkpt>
      <trkpt lat="43.76847" lon="6.5342">
        <ele>873.01</ele>
        <time>2012-05-08T11:55:45Z</time>
      </trkpt>
      <trkpt lat="43.76847" lon="6.53423">
        <ele>872.53</ele>
        <time>2012-05-08T11:55:48Z</time>
      </trkpt>
      <trkpt lat="43.76849" lon="6.53432">
        <ele>869.17</ele>
        <time>2012-05-08T11:56:04Z</time>
      </trkpt>
      <trkpt lat="43.76849" lon="6.53432">
        <ele>869.17</ele>
        <time>2012-05-08T11:56:06Z</time>
      </trkpt>
      <trkpt lat="43.76847" lon="6.53443">
        <ele>868.69</ele>
        <time>2012-05-08T11:56:16Z</time>
      </trkpt>
      <trkpt lat="43.76848" lon="6.53452">
        <ele>867.25</ele>
        <time>2012-05-08T11:56:24Z</time>
      </trkpt>
      <trkpt lat="43.76848" lon="6.53464">
        <ele>865.32</ele>
        <time>2012-05-08T11:56:37Z</time>
      </trkpt>
      <trkpt lat="43.76851" lon="6.53468">
        <ele>864.84</ele>
        <time>2012-05-08T11:56:42Z</time>
      </trkpt>
      <trkpt lat="43.76851" lon="6.53472">
        <ele>864.84</ele>
        <time>2012-05-08T11:56:45Z</time>
      </trkpt>
      <trkpt lat="43.76846" lon="6.53479">
        <ele>864.84</ele>
        <time>2012-05-08T11:56:59Z</time>
      </trkpt>
      <trkpt lat="43.76847" lon="6.53485">
        <ele>864.36</ele>
        <time>2012-05-08T11:57:18Z</time>
      </trkpt>
      <trkpt lat="43.7685" lon="6.53487">
        <ele>863.88</ele>
        <time>2012-05-08T11:57:21Z</time>
      </trkpt>
      <trkpt lat="43.76852" lon="6.53488">
        <ele>863.4</ele>
        <time>2012-05-08T11:57:39Z</time>
      </trkpt>
      <trkpt lat="43.76853" lon="6.5349">
        <ele>862.92</ele>
        <time>2012-05-08T11:57:42Z</time>
      </trkpt>
      <trkpt lat="43.76853" lon="6.53511">
        <ele>860.04</ele>
        <time>2012-05-08T11:57:59Z</time>
      </trkpt>
      <trkpt lat="43.76853" lon="6.53514">
        <ele>860.04</ele>
        <time>2012-05-08T11:58:03Z</time>
      </trkpt>
      <trkpt lat="43.76851" lon="6.53523">
        <ele>860.04</ele>
        <time>2012-05-08T11:58:09Z</time>
      </trkpt>
      <trkpt lat="43.76853" lon="6.53536">
        <ele>860.04</ele>
        <time>2012-05-08T11:58:22Z</time>
      </trkpt>
      <trkpt lat="43.76853" lon="6.53541">
        <ele>860.04</ele>
        <time>2012-05-08T11:58:25Z</time>
      </trkpt>
      <trkpt lat="43.76852" lon="6.53556">
        <ele>860.04</ele>
        <time>2012-05-08T11:58:36Z</time>
      </trkpt>
      <trkpt lat="43.76856" lon="6.53575">
        <ele>859.56</ele>
        <time>2012-05-08T11:58:51Z</time>
      </trkpt>
      <trkpt lat="43.76856" lon="6.53584">
        <ele>859.08</ele>
        <time>2012-05-08T11:58:57Z</time>
      </trkpt>
      <trkpt lat="43.76857" lon="6.53593">
        <ele>858.59</ele>
        <time>2012-05-08T11:59:02Z</time>
      </trkpt>
      <trkpt lat="43.76856" lon="6.536">
        <ele>858.59</ele>
        <time>2012-05-08T11:59:06Z</time>
      </trkpt>
      <trkpt lat="43.76859" lon="6.53606">
        <ele>858.11</ele>
        <time>2012-05-08T11:59:11Z</time>
      </trkpt>
      <trkpt lat="43.76859" lon="6.53614">
        <ele>858.11</ele>
        <time>2012-05-08T11:59:16Z</time>
      </trkpt>
      <trkpt lat="43.7686" lon="6.53623">
        <ele>856.67</ele>
        <time>2012-05-08T11:59:22Z</time>
      </trkpt>
      <trkpt lat="43.76863" lon="6.53628">
        <ele>856.19</ele>
        <time>2012-05-08T11:59:27Z</time>
      </trkpt>
      <trkpt lat="43.76871" lon="6.53647">
        <ele>853.79</ele>
        <time>2012-05-08T11:59:42Z</time>
      </trkpt>
      <trkpt lat="43.76877" lon="6.53657">
        <ele>852.83</ele>
        <time>2012-05-08T11:59:51Z</time>
      </trkpt>
      <trkpt lat="43.7688" lon="6.53661">
        <ele>853.79</ele>
        <time>2012-05-08T11:59:55Z</time>
      </trkpt>
      <trkpt lat="43.7689" lon="6.53677">
        <ele>852.83</ele>
        <time>2012-05-08T12:00:10Z</time>
      </trkpt>
      <trkpt lat="43.7689" lon="6.53679">
        <ele>852.83</ele>
        <time>2012-05-08T12:00:11Z</time>
      </trkpt>
      <trkpt lat="43.76893" lon="6.53685">
        <ele>852.83</ele>
        <time>2012-05-08T12:00:16Z</time>
      </trkpt>
      <trkpt lat="43.76898" lon="6.53692">
        <ele>852.35</ele>
        <time>2012-05-08T12:00:32Z</time>
      </trkpt>
      <trkpt lat="43.76895" lon="6.53702">
        <ele>852.83</ele>
        <time>2012-05-08T12:00:45Z</time>
      </trkpt>
      <trkpt lat="43.76893" lon="6.53704">
        <ele>853.31</ele>
        <time>2012-05-08T12:00:47Z</time>
      </trkpt>
      <trkpt lat="43.76886" lon="6.53715">
        <ele>858.11</ele>
        <time>2012-05-08T12:01:03Z</time>
      </trkpt>
      <trkpt lat="43.76886" lon="6.53718">
        <ele>858.11</ele>
        <time>2012-05-08T12:01:15Z</time>
      </trkpt>
      <trkpt lat="43.76882" lon="6.53723">
        <ele>858.11</ele>
        <time>2012-05-08T12:01:21Z</time>
      </trkpt>
      <trkpt lat="43.76877" lon="6.53733">
        <ele>858.59</ele>
        <time>2012-05-08T12:01:36Z</time>
      </trkpt>
      <trkpt lat="43.76872" lon="6.53742">
        <ele>861</ele>
        <time>2012-05-08T12:01:46Z</time>
      </trkpt>
      <trkpt lat="43.76872" lon="6.53748">
        <ele>861</ele>
        <time>2012-05-08T12:01:51Z</time>
      </trkpt>
      <trkpt lat="43.76869" lon="6.53756">
        <ele>862.44</ele>
        <time>2012-05-08T12:02:00Z</time>
      </trkpt>
      <trkpt lat="43.7687" lon="6.53762">
        <ele>862.44</ele>
        <time>2012-05-08T12:02:05Z</time>
      </trkpt>
      <trkpt lat="43.76868" lon="6.5377">
        <ele>862.92</ele>
        <time>2012-05-08T12:02:12Z</time>
      </trkpt>
      <trkpt lat="43.76868" lon="6.53782">
        <ele>862.44</ele>
        <time>2012-05-08T12:02:22Z</time>
      </trkpt>
      <trkpt lat="43.76867" lon="6.53792">
        <ele>861.48</ele>
        <time>2012-05-08T12:02:30Z</time>
      </trkpt>
      <trkpt lat="43.76868" lon="6.53801">
        <ele>861</ele>
        <time>2012-05-08T12:02:40Z</time>
      </trkpt>
      <trkpt lat="43.76868" lon="6.53803">
        <ele>861</ele>
        <time>2012-05-08T12:02:42Z</time>
      </trkpt>
      <trkpt lat="43.76868" lon="6.53818">
        <ele>859.56</ele>
        <time>2012-05-08T12:02:53Z</time>
      </trkpt>
      <trkpt lat="43.76862" lon="6.53836">
        <ele>861.48</ele>
        <time>2012-05-08T12:03:10Z</time>
      </trkpt>
      <trkpt lat="43.76861" lon="6.53842">
        <ele>860.04</ele>
        <time>2012-05-08T12:03:15Z</time>
      </trkpt>
      <trkpt lat="43.76859" lon="6.53861">
        <ele>859.08</ele>
        <time>2012-05-08T12:03:31Z</time>
      </trkpt>
      <trkpt lat="43.76856" lon="6.53872">
        <ele>858.11</ele>
        <time>2012-05-08T12:03:42Z</time>
      </trkpt>
      <trkpt lat="43.76854" lon="6.5389">
        <ele>856.67</ele>
        <time>2012-05-08T12:03:56Z</time>
      </trkpt>
      <trkpt lat="43.76851" lon="6.53901">
        <ele>854.27</ele>
        <time>2012-05-08T12:04:05Z</time>
      </trkpt>
      <trkpt lat="43.76846" lon="6.53915">
        <ele>854.27</ele>
        <time>2012-05-08T12:04:19Z</time>
      </trkpt>
      <trkpt lat="43.76839" lon="6.53923">
        <ele>854.27</ele>
        <time>2012-05-08T12:04:33Z</time>
      </trkpt>
      <trkpt lat="43.76838" lon="6.53929">
        <ele>851.38</ele>
        <time>2012-05-08T12:04:54Z</time>
      </trkpt>
      <trkpt lat="43.76839" lon="6.53928">
        <ele>850.9</ele>
        <time>2012-05-08T12:05:21Z</time>
      </trkpt>
      <trkpt lat="43.7684" lon="6.53926">
        <ele>850.42</ele>
        <time>2012-05-08T12:05:40Z</time>
      </trkpt>
      <trkpt lat="43.76841" lon="6.53922">
        <ele>852.35</ele>
        <time>2012-05-08T12:06:13Z</time>
      </trkpt>
      <trkpt lat="43.76839" lon="6.53928">
        <ele>852.83</ele>
        <time>2012-05-08T12:06:32Z</time>
      </trkpt>
      <trkpt lat="43.76839" lon="6.53928">
        <ele>854.27</ele>
        <time>2012-05-08T12:06:47Z</time>
      </trkpt>
      <trkpt lat="43.7684" lon="6.53921">
        <ele>854.27</ele>
        <time>2012-05-08T12:07:04Z</time>
      </trkpt>
      <trkpt lat="43.7684" lon="6.5392">
        <ele>854.27</ele>
        <time>2012-05-08T12:07:22Z</time>
      </trkpt>
      <trkpt lat="43.76843" lon="6.53922">
        <ele>852.35</ele>
        <time>2012-05-08T12:08:01Z</time>
      </trkpt>
      <trkpt lat="43.76843" lon="6.53927">
        <ele>854.27</ele>
        <time>2012-05-08T12:08:47Z</time>
      </trkpt>
      <trkpt lat="43.76841" lon="6.53924">
        <ele>853.79</ele>
        <time>2012-05-08T12:09:24Z</time>
      </trkpt>
      <trkpt lat="43.76842" lon="6.53924">
        <ele>853.79</ele>
        <time>2012-05-08T12:10:04Z</time>
      </trkpt>
      <trkpt lat="43.76841" lon="6.53921">
        <ele>854.75</ele>
        <time>2012-05-08T12:10:39Z</time>
      </trkpt>
      <trkpt lat="43.76842" lon="6.53918">
        <ele>855.23</ele>
        <time>2012-05-08T12:11:19Z</time>
      </trkpt>
      <trkpt lat="43.76841" lon="6.53918">
        <ele>854.27</ele>
        <time>2012-05-08T12:12:01Z</time>
      </trkpt>
      <trkpt lat="43.76842" lon="6.53918">
        <ele>855.71</ele>
        <time>2012-05-08T12:12:43Z</time>
      </trkpt>
      <trkpt lat="43.76843" lon="6.53917">
        <ele>854.75</ele>
        <time>2012-05-08T12:13:31Z</time>
      </trkpt>
      <trkpt lat="43.76842" lon="6.53916">
        <ele>855.71</ele>
        <time>2012-05-08T12:14:17Z</time>
      </trkpt>
      <trkpt lat="43.76843" lon="6.53916">
        <ele>854.75</ele>
        <time>2012-05-08T12:14:59Z</time>
      </trkpt>
      <trkpt lat="43.76842" lon="6.53917">
        <ele>853.79</ele>
        <time>2012-05-08T12:15:42Z</time>
      </trkpt>
      <trkpt lat="43.76842" lon="6.53917">
        <ele>853.31</ele>
        <time>2012-05-08T12:16:23Z</time>
      </trkpt>
      <trkpt lat="43.76842" lon="6.53918">
        <ele>852.83</ele>
        <time>2012-05-08T12:17:07Z</time>
      </trkpt>
      <trkpt lat="43.76843" lon="6.53918">
        <ele>851.87</ele>
        <time>2012-05-08T12:17:47Z</time>
      </trkpt>
      <trkpt lat="43.76845" lon="6.5392">
        <ele>852.35</ele>
        <time>2012-05-08T12:17:55Z</time>
      </trkpt>
      <trkpt lat="43.76849" lon="6.53908">
        <ele>853.79</ele>
        <time>2012-05-08T12:18:12Z</time>
      </trkpt>
      <trkpt lat="43.76844" lon="6.53907">
        <ele>854.75</ele>
        <time>2012-05-08T12:18:27Z</time>
      </trkpt>
      <trkpt lat="43.7684" lon="6.53902">
        <ele>857.15</ele>
        <time>2012-05-08T12:18:42Z</time>
      </trkpt>
      <trkpt lat="43.76836" lon="6.53898">
        <ele>859.56</ele>
        <time>2012-05-08T12:18:59Z</time>
      </trkpt>
      <trkpt lat="43.76834" lon="6.53894">
        <ele>862.92</ele>
        <time>2012-05-08T12:19:14Z</time>
      </trkpt>
      <trkpt lat="43.76832" lon="6.53889">
        <ele>864.36</ele>
        <time>2012-05-08T12:19:32Z</time>
      </trkpt>
      <trkpt lat="43.76829" lon="6.53886">
        <ele>865.8</ele>
        <time>2012-05-08T12:19:46Z</time>
      </trkpt>
      <trkpt lat="43.76825" lon="6.53891">
        <ele>866.29</ele>
        <time>2012-05-08T12:20:03Z</time>
      </trkpt>
      <trkpt lat="43.76819" lon="6.53889">
        <ele>869.65</ele>
        <time>2012-05-08T12:20:20Z</time>
      </trkpt>
      <trkpt lat="43.76818" lon="6.53886">
        <ele>871.57</ele>
        <time>2012-05-08T12:20:36Z</time>
      </trkpt>
      <trkpt lat="43.76817" lon="6.53877">
        <ele>872.05</ele>
        <time>2012-05-08T12:20:52Z</time>
      </trkpt>
      <trkpt lat="43.76816" lon="6.53874">
        <ele>872.05</ele>
        <time>2012-05-08T12:20:58Z</time>
      </trkpt>
      <trkpt lat="43.7681" lon="6.53869">
        <ele>873.01</ele>
        <time>2012-05-08T12:21:14Z</time>
      </trkpt>
      <trkpt lat="43.76804" lon="6.53873">
        <ele>872.53</ele>
        <time>2012-05-08T12:21:34Z</time>
      </trkpt>
      <trkpt lat="43.76799" lon="6.53874">
        <ele>875.42</ele>
        <time>2012-05-08T12:21:50Z</time>
      </trkpt>
      <trkpt lat="43.76798" lon="6.53869">
        <ele>879.26</ele>
        <time>2012-05-08T12:22:06Z</time>
      </trkpt>
      <trkpt lat="43.76797" lon="6.53869">
        <ele>880.71</ele>
        <time>2012-05-08T12:22:23Z</time>
      </trkpt>
      <trkpt lat="43.7679" lon="6.53865">
        <ele>881.19</ele>
        <time>2012-05-08T12:22:41Z</time>
      </trkpt>
      <trkpt lat="43.76787" lon="6.53862">
        <ele>881.67</ele>
        <time>2012-05-08T12:22:44Z</time>
      </trkpt>
      <trkpt lat="43.76773" lon="6.53854">
        <ele>885.03</ele>
        <time>2012-05-08T12:22:59Z</time>
      </trkpt>
      <trkpt lat="43.76757" lon="6.53845">
        <ele>886.95</ele>
        <time>2012-05-08T12:23:16Z</time>
      </trkpt>
      <trkpt lat="43.76749" lon="6.53838">
        <ele>886.95</ele>
        <time>2012-05-08T12:23:26Z</time>
      </trkpt>
      <trkpt lat="43.76746" lon="6.53838">
        <ele>886.95</ele>
        <time>2012-05-08T12:23:28Z</time>
      </trkpt>
      <trkpt lat="43.76733" lon="6.53832">
        <ele>886.47</ele>
        <time>2012-05-08T12:23:45Z</time>
      </trkpt>
      <trkpt lat="43.76721" lon="6.53826">
        <ele>885.99</ele>
        <time>2012-05-08T12:23:58Z</time>
      </trkpt>
      <trkpt lat="43.76719" lon="6.53822">
        <ele>885.99</ele>
        <time>2012-05-08T12:24:01Z</time>
      </trkpt>
      <trkpt lat="43.76714" lon="6.5382">
        <ele>885.51</ele>
        <time>2012-05-08T12:24:07Z</time>
      </trkpt>
      <trkpt lat="43.76697" lon="6.53818">
        <ele>884.55</ele>
        <time>2012-05-08T12:24:25Z</time>
      </trkpt>
      <trkpt lat="43.7669" lon="6.53813">
        <ele>884.55</ele>
        <time>2012-05-08T12:24:34Z</time>
      </trkpt>
      <trkpt lat="43.76687" lon="6.5381">
        <ele>884.55</ele>
        <time>2012-05-08T12:24:38Z</time>
      </trkpt>
      <trkpt lat="43.76679" lon="6.53809">
        <ele>884.07</ele>
        <time>2012-05-08T12:24:45Z</time>
      </trkpt>
      <trkpt lat="43.76674" lon="6.53811">
        <ele>884.07</ele>
        <time>2012-05-08T12:24:51Z</time>
      </trkpt>
      <trkpt lat="43.76649" lon="6.53831">
        <ele>887.43</ele>
        <time>2012-05-08T12:25:12Z</time>
      </trkpt>
      <trkpt lat="43.76632" lon="6.53836">
        <ele>888.88</ele>
        <time>2012-05-08T12:25:31Z</time>
      </trkpt>
      <trkpt lat="43.76603" lon="6.53848">
        <ele>885.99</ele>
        <time>2012-05-08T12:26:00Z</time>
      </trkpt>
      <trkpt lat="43.766" lon="6.53848">
        <ele>885.51</ele>
        <time>2012-05-08T12:26:03Z</time>
      </trkpt>
      <trkpt lat="43.76588" lon="6.53854">
        <ele>886.95</ele>
        <time>2012-05-08T12:26:15Z</time>
      </trkpt>
      <trkpt lat="43.76566" lon="6.53865">
        <ele>886.95</ele>
        <time>2012-05-08T12:26:38Z</time>
      </trkpt>
      <trkpt lat="43.7656" lon="6.53873">
        <ele>887.91</ele>
        <time>2012-05-08T12:26:46Z</time>
      </trkpt>
      <trkpt lat="43.76546" lon="6.53891">
        <ele>887.91</ele>
        <time>2012-05-08T12:27:05Z</time>
      </trkpt>
      <trkpt lat="43.76537" lon="6.53915">
        <ele>888.4</ele>
        <time>2012-05-08T12:27:24Z</time>
      </trkpt>
      <trkpt lat="43.76525" lon="6.53926">
        <ele>893.68</ele>
        <time>2012-05-08T12:27:41Z</time>
      </trkpt>
      <trkpt lat="43.7651" lon="6.53928">
        <ele>901.85</ele>
        <time>2012-05-08T12:27:57Z</time>
      </trkpt>
      <trkpt lat="43.76498" lon="6.53935">
        <ele>902.82</ele>
        <time>2012-05-08T12:28:10Z</time>
      </trkpt>
      <trkpt lat="43.76495" lon="6.53936">
        <ele>903.3</ele>
        <time>2012-05-08T12:28:14Z</time>
      </trkpt>
      <trkpt lat="43.76488" lon="6.5394">
        <ele>905.22</ele>
        <time>2012-05-08T12:28:22Z</time>
      </trkpt>
      <trkpt lat="43.76471" lon="6.53942">
        <ele>907.14</ele>
        <time>2012-05-08T12:28:39Z</time>
      </trkpt>
      <trkpt lat="43.76467" lon="6.53939">
        <ele>907.14</ele>
        <time>2012-05-08T12:28:47Z</time>
      </trkpt>
      <trkpt lat="43.76465" lon="6.53939">
        <ele>907.62</ele>
        <time>2012-05-08T12:28:49Z</time>
      </trkpt>
      <trkpt lat="43.76458" lon="6.5394">
        <ele>900.41</ele>
        <time>2012-05-08T12:29:07Z</time>
      </trkpt>
      <trkpt lat="43.76464" lon="6.53941">
        <ele>897.53</ele>
        <time>2012-05-08T12:29:27Z</time>
      </trkpt>
      <trkpt lat="43.7647" lon="6.53933">
        <ele>898.49</ele>
        <time>2012-05-08T12:29:46Z</time>
      </trkpt>
      <trkpt lat="43.7648" lon="6.53929">
        <ele>901.37</ele>
        <time>2012-05-08T12:30:05Z</time>
      </trkpt>
      <trkpt lat="43.76485" lon="6.53919">
        <ele>902.33</ele>
        <time>2012-05-08T12:30:21Z</time>
      </trkpt>
      <trkpt lat="43.76476" lon="6.5391">
        <ele>898.49</ele>
        <time>2012-05-08T12:30:41Z</time>
      </trkpt>
      <trkpt lat="43.76469" lon="6.53899">
        <ele>897.05</ele>
        <time>2012-05-08T12:31:00Z</time>
      </trkpt>
      <trkpt lat="43.76461" lon="6.53888">
        <ele>895.61</ele>
        <time>2012-05-08T12:31:19Z</time>
      </trkpt>
      <trkpt lat="43.76453" lon="6.53878">
        <ele>899.45</ele>
        <time>2012-05-08T12:31:38Z</time>
      </trkpt>
      <trkpt lat="43.76442" lon="6.5387">
        <ele>902.33</ele>
        <time>2012-05-08T12:31:56Z</time>
      </trkpt>
      <trkpt lat="43.76434" lon="6.53865">
        <ele>906.66</ele>
        <time>2012-05-08T12:32:14Z</time>
      </trkpt>
      <trkpt lat="43.76427" lon="6.53854">
        <ele>910.51</ele>
        <time>2012-05-08T12:32:32Z</time>
      </trkpt>
      <trkpt lat="43.76421" lon="6.53844">
        <ele>908.58</ele>
        <time>2012-05-08T12:32:50Z</time>
      </trkpt>
      <trkpt lat="43.76414" lon="6.53836">
        <ele>906.66</ele>
        <time>2012-05-08T12:33:06Z</time>
      </trkpt>
      <trkpt lat="43.76404" lon="6.53816">
        <ele>912.91</ele>
        <time>2012-05-08T12:33:26Z</time>
      </trkpt>
      <trkpt lat="43.76398" lon="6.53807">
        <ele>914.83</ele>
        <time>2012-05-08T12:33:43Z</time>
      </trkpt>
      <trkpt lat="43.7639" lon="6.53794">
        <ele>917.72</ele>
        <time>2012-05-08T12:33:58Z</time>
      </trkpt>
      <trkpt lat="43.76394" lon="6.53784">
        <ele>922.04</ele>
        <time>2012-05-08T12:34:12Z</time>
      </trkpt>
      <trkpt lat="43.76389" lon="6.5379">
        <ele>923.96</ele>
        <time>2012-05-08T12:34:39Z</time>
      </trkpt>
      <trkpt lat="43.76387" lon="6.53795">
        <ele>923.48</ele>
        <time>2012-05-08T12:34:58Z</time>
      </trkpt>
      <trkpt lat="43.76388" lon="6.53795">
        <ele>923.48</ele>
        <time>2012-05-08T12:35:26Z</time>
      </trkpt>
      <trkpt lat="43.76387" lon="6.53794">
        <ele>923.96</ele>
        <time>2012-05-08T12:35:27Z</time>
      </trkpt>
      <trkpt lat="43.76392" lon="6.5378">
        <ele>924.93</ele>
        <time>2012-05-08T12:35:46Z</time>
      </trkpt>
      <trkpt lat="43.76386" lon="6.53774">
        <ele>925.89</ele>
        <time>2012-05-08T12:36:02Z</time>
      </trkpt>
      <trkpt lat="43.76374" lon="6.53763">
        <ele>930.21</ele>
        <time>2012-05-08T12:36:23Z</time>
      </trkpt>
      <trkpt lat="43.76369" lon="6.53759">
        <ele>932.14</ele>
        <time>2012-05-08T12:36:46Z</time>
      </trkpt>
      <trkpt lat="43.76359" lon="6.5375">
        <ele>935.98</ele>
        <time>2012-05-08T12:37:06Z</time>
      </trkpt>
      <trkpt lat="43.76354" lon="6.53744">
        <ele>938.86</ele>
        <time>2012-05-08T12:37:23Z</time>
      </trkpt>
      <trkpt lat="43.76347" lon="6.53737">
        <ele>941.27</ele>
        <time>2012-05-08T12:37:44Z</time>
      </trkpt>
      <trkpt lat="43.76347" lon="6.53736">
        <ele>941.27</ele>
        <time>2012-05-08T12:37:46Z</time>
      </trkpt>
      <trkpt lat="43.76345" lon="6.53733">
        <ele>942.23</ele>
        <time>2012-05-08T12:37:49Z</time>
      </trkpt>
      <trkpt lat="43.76338" lon="6.53732">
        <ele>947.52</ele>
        <time>2012-05-08T12:38:08Z</time>
      </trkpt>
      <trkpt lat="43.7633" lon="6.53727">
        <ele>947.04</ele>
        <time>2012-05-08T12:38:25Z</time>
      </trkpt>
      <trkpt lat="43.76324" lon="6.5372">
        <ele>948.48</ele>
        <time>2012-05-08T12:38:44Z</time>
      </trkpt>
      <trkpt lat="43.76322" lon="6.5372">
        <ele>949.92</ele>
        <time>2012-05-08T12:38:47Z</time>
      </trkpt>
      <trkpt lat="43.76319" lon="6.53718">
        <ele>951.84</ele>
        <time>2012-05-08T12:38:51Z</time>
      </trkpt>
      <trkpt lat="43.76312" lon="6.53716">
        <ele>953.28</ele>
        <time>2012-05-08T12:39:08Z</time>
      </trkpt>
      <trkpt lat="43.76307" lon="6.53715">
        <ele>957.13</ele>
        <time>2012-05-08T12:39:24Z</time>
      </trkpt>
      <trkpt lat="43.76297" lon="6.53715">
        <ele>959.53</ele>
        <time>2012-05-08T12:39:42Z</time>
      </trkpt>
      <trkpt lat="43.7629" lon="6.53711">
        <ele>961.94</ele>
        <time>2012-05-08T12:40:01Z</time>
      </trkpt>
      <trkpt lat="43.76282" lon="6.53706">
        <ele>963.86</ele>
        <time>2012-05-08T12:40:20Z</time>
      </trkpt>
      <trkpt lat="43.76272" lon="6.53705">
        <ele>967.22</ele>
        <time>2012-05-08T12:40:43Z</time>
      </trkpt>
      <trkpt lat="43.76264" lon="6.53707">
        <ele>970.11</ele>
        <time>2012-05-08T12:41:00Z</time>
      </trkpt>
      <trkpt lat="43.76264" lon="6.53707">
        <ele>970.11</ele>
        <time>2012-05-08T12:41:01Z</time>
      </trkpt>
      <trkpt lat="43.76252" lon="6.53721">
        <ele>968.18</ele>
        <time>2012-05-08T12:41:18Z</time>
      </trkpt>
      <trkpt lat="43.76244" lon="6.5374">
        <ele>971.55</ele>
        <time>2012-05-08T12:41:34Z</time>
      </trkpt>
      <trkpt lat="43.7624" lon="6.53757">
        <ele>969.15</ele>
        <time>2012-05-08T12:41:51Z</time>
      </trkpt>
      <trkpt lat="43.7623" lon="6.53778">
        <ele>968.18</ele>
        <time>2012-05-08T12:42:08Z</time>
      </trkpt>
      <trkpt lat="43.76228" lon="6.53796">
        <ele>972.03</ele>
        <time>2012-05-08T12:42:25Z</time>
      </trkpt>
      <trkpt lat="43.76228" lon="6.53802">
        <ele>971.55</ele>
        <time>2012-05-08T12:42:31Z</time>
      </trkpt>
      <trkpt lat="43.76221" lon="6.53822">
        <ele>974.43</ele>
        <time>2012-05-08T12:42:55Z</time>
      </trkpt>
      <trkpt lat="43.76218" lon="6.53828">
        <ele>974.91</ele>
        <time>2012-05-08T12:43:04Z</time>
      </trkpt>
      <trkpt lat="43.76209" lon="6.53833">
        <ele>972.03</ele>
        <time>2012-05-08T12:43:17Z</time>
      </trkpt>
      <trkpt lat="43.76195" lon="6.53839">
        <ele>973.47</ele>
        <time>2012-05-08T12:43:35Z</time>
      </trkpt>
      <trkpt lat="43.76191" lon="6.53853">
        <ele>971.55</ele>
        <time>2012-05-08T12:43:51Z</time>
      </trkpt>
      <trkpt lat="43.76188" lon="6.53874">
        <ele>971.07</ele>
        <time>2012-05-08T12:44:07Z</time>
      </trkpt>
      <trkpt lat="43.76188" lon="6.5388">
        <ele>971.55</ele>
        <time>2012-05-08T12:44:12Z</time>
      </trkpt>
      <trkpt lat="43.76191" lon="6.53895">
        <ele>968.18</ele>
        <time>2012-05-08T12:44:28Z</time>
      </trkpt>
      <trkpt lat="43.76196" lon="6.53897">
        <ele>966.26</ele>
        <time>2012-05-08T12:44:37Z</time>
      </trkpt>
      <trkpt lat="43.76204" lon="6.53909">
        <ele>966.74</ele>
        <time>2012-05-08T12:44:53Z</time>
      </trkpt>
      <trkpt lat="43.76204" lon="6.53918">
        <ele>965.78</ele>
        <time>2012-05-08T12:45:03Z</time>
      </trkpt>
      <trkpt lat="43.76203" lon="6.53928">
        <ele>965.3</ele>
        <time>2012-05-08T12:45:09Z</time>
      </trkpt>
      <trkpt lat="43.76202" lon="6.53931">
        <ele>965.3</ele>
        <time>2012-05-08T12:45:12Z</time>
      </trkpt>
      <trkpt lat="43.76201" lon="6.53946">
        <ele>967.22</ele>
        <time>2012-05-08T12:45:28Z</time>
      </trkpt>
      <trkpt lat="43.76207" lon="6.53959">
        <ele>970.11</ele>
        <time>2012-05-08T12:45:44Z</time>
      </trkpt>
      <trkpt lat="43.76212" lon="6.53964">
        <ele>970.59</ele>
        <time>2012-05-08T12:45:50Z</time>
      </trkpt>
      <trkpt lat="43.76218" lon="6.53971">
        <ele>971.07</ele>
        <time>2012-05-08T12:46:01Z</time>
      </trkpt>
      <trkpt lat="43.76222" lon="6.53982">
        <ele>971.07</ele>
        <time>2012-05-08T12:46:15Z</time>
      </trkpt>
      <trkpt lat="43.76226" lon="6.53988">
        <ele>971.55</ele>
        <time>2012-05-08T12:46:32Z</time>
      </trkpt>
      <trkpt lat="43.76229" lon="6.53995">
        <ele>973.47</ele>
        <time>2012-05-08T12:46:45Z</time>
      </trkpt>
      <trkpt lat="43.76229" lon="6.54002">
        <ele>974.91</ele>
        <time>2012-05-08T12:47:02Z</time>
      </trkpt>
      <trkpt lat="43.76225" lon="6.54004">
        <ele>975.88</ele>
        <time>2012-05-08T12:47:09Z</time>
      </trkpt>
      <trkpt lat="43.76216" lon="6.54006">
        <ele>978.28</ele>
        <time>2012-05-08T12:47:33Z</time>
      </trkpt>
      <trkpt lat="43.7622" lon="6.54009">
        <ele>978.28</ele>
        <time>2012-05-08T12:47:51Z</time>
      </trkpt>
      <trkpt lat="43.76226" lon="6.54009">
        <ele>979.24</ele>
        <time>2012-05-08T12:47:58Z</time>
      </trkpt>
      <trkpt lat="43.76234" lon="6.54021">
        <ele>977.8</ele>
        <time>2012-05-08T12:48:12Z</time>
      </trkpt>
      <trkpt lat="43.76237" lon="6.54037">
        <ele>972.03</ele>
        <time>2012-05-08T12:48:28Z</time>
      </trkpt>
      <trkpt lat="43.76245" lon="6.54047">
        <ele>969.63</ele>
        <time>2012-05-08T12:48:47Z</time>
      </trkpt>
      <trkpt lat="43.76245" lon="6.54058">
        <ele>965.3</ele>
        <time>2012-05-08T12:49:05Z</time>
      </trkpt>
      <trkpt lat="43.76247" lon="6.54063">
        <ele>962.42</ele>
        <time>2012-05-08T12:49:18Z</time>
      </trkpt>
      <trkpt lat="43.76249" lon="6.54073">
        <ele>961.94</ele>
        <time>2012-05-08T12:49:32Z</time>
      </trkpt>
      <trkpt lat="43.76258" lon="6.54082">
        <ele>964.34</ele>
        <time>2012-05-08T12:49:47Z</time>
      </trkpt>
      <trkpt lat="43.76271" lon="6.5409">
        <ele>967.7</ele>
        <time>2012-05-08T12:50:05Z</time>
      </trkpt>
      <trkpt lat="43.76277" lon="6.54099">
        <ele>965.78</ele>
        <time>2012-05-08T12:50:18Z</time>
      </trkpt>
      <trkpt lat="43.76282" lon="6.54104">
        <ele>965.3</ele>
        <time>2012-05-08T12:50:28Z</time>
      </trkpt>
      <trkpt lat="43.76289" lon="6.54114">
        <ele>963.86</ele>
        <time>2012-05-08T12:50:42Z</time>
      </trkpt>
      <trkpt lat="43.76287" lon="6.54128">
        <ele>961.46</ele>
        <time>2012-05-08T12:51:00Z</time>
      </trkpt>
      <trkpt lat="43.76292" lon="6.54145">
        <ele>955.69</ele>
        <time>2012-05-08T12:51:30Z</time>
      </trkpt>
      <trkpt lat="43.7629" lon="6.54163">
        <ele>954.25</ele>
        <time>2012-05-08T12:51:47Z</time>
      </trkpt>
      <trkpt lat="43.76286" lon="6.54175">
        <ele>950.4</ele>
        <time>2012-05-08T12:52:04Z</time>
      </trkpt>
      <trkpt lat="43.76278" lon="6.54186">
        <ele>948</ele>
        <time>2012-05-08T12:52:25Z</time>
      </trkpt>
      <trkpt lat="43.76277" lon="6.54188">
        <ele>948</ele>
        <time>2012-05-08T12:52:31Z</time>
      </trkpt>
      <trkpt lat="43.76268" lon="6.54198">
        <ele>945.11</ele>
        <time>2012-05-08T12:52:51Z</time>
      </trkpt>
      <trkpt lat="43.76253" lon="6.54213">
        <ele>944.15</ele>
        <time>2012-05-08T12:53:13Z</time>
      </trkpt>
      <trkpt lat="43.76252" lon="6.54235">
        <ele>950.88</ele>
        <time>2012-05-08T12:53:29Z</time>
      </trkpt>
      <trkpt lat="43.76255" lon="6.5425">
        <ele>949.92</ele>
        <time>2012-05-08T12:53:48Z</time>
      </trkpt>
      <trkpt lat="43.76261" lon="6.54266">
        <ele>948.48</ele>
        <time>2012-05-08T12:54:12Z</time>
      </trkpt>
      <trkpt lat="43.76265" lon="6.54274">
        <ele>946.07</ele>
        <time>2012-05-08T12:54:33Z</time>
      </trkpt>
      <trkpt lat="43.76271" lon="6.54288">
        <ele>948.48</ele>
        <time>2012-05-08T12:54:53Z</time>
      </trkpt>
      <trkpt lat="43.76273" lon="6.54307">
        <ele>946.07</ele>
        <time>2012-05-08T12:55:13Z</time>
      </trkpt>
      <trkpt lat="43.7628" lon="6.54325">
        <ele>941.75</ele>
        <time>2012-05-08T12:55:36Z</time>
      </trkpt>
      <trkpt lat="43.76298" lon="6.54325">
        <ele>942.71</ele>
        <time>2012-05-08T12:55:58Z</time>
      </trkpt>
      <trkpt lat="43.76306" lon="6.54332">
        <ele>947.04</ele>
        <time>2012-05-08T12:56:09Z</time>
      </trkpt>
      <trkpt lat="43.76307" lon="6.5434">
        <ele>948.48</ele>
        <time>2012-05-08T12:56:26Z</time>
      </trkpt>
      <trkpt lat="43.7631" lon="6.54352">
        <ele>948.48</ele>
        <time>2012-05-08T12:56:43Z</time>
      </trkpt>
      <trkpt lat="43.7631" lon="6.54354">
        <ele>949.44</ele>
        <time>2012-05-08T12:57:04Z</time>
      </trkpt>
      <trkpt lat="43.76324" lon="6.54353">
        <ele>948.96</ele>
        <time>2012-05-08T12:57:29Z</time>
      </trkpt>
      <trkpt lat="43.76345" lon="6.54363">
        <ele>947.04</ele>
        <time>2012-05-08T12:57:51Z</time>
      </trkpt>
      <trkpt lat="43.76351" lon="6.54369">
        <ele>946.07</ele>
        <time>2012-05-08T12:58:04Z</time>
      </trkpt>
      <trkpt lat="43.76361" lon="6.54387">
        <ele>947.52</ele>
        <time>2012-05-08T12:58:22Z</time>
      </trkpt>
      <trkpt lat="43.76367" lon="6.54398">
        <ele>949.92</ele>
        <time>2012-05-08T12:58:36Z</time>
      </trkpt>
      <trkpt lat="43.76371" lon="6.54413">
        <ele>948</ele>
        <time>2012-05-08T12:58:57Z</time>
      </trkpt>
      <trkpt lat="43.76372" lon="6.54427">
        <ele>948.48</ele>
        <time>2012-05-08T12:59:13Z</time>
      </trkpt>
      <trkpt lat="43.76376" lon="6.54444">
        <ele>946.07</ele>
        <time>2012-05-08T12:59:31Z</time>
      </trkpt>
      <trkpt lat="43.76373" lon="6.54456">
        <ele>948</ele>
        <time>2012-05-08T12:59:45Z</time>
      </trkpt>
      <trkpt lat="43.76368" lon="6.54468">
        <ele>947.52</ele>
        <time>2012-05-08T13:00:03Z</time>
      </trkpt>
      <trkpt lat="43.7636" lon="6.54481">
        <ele>946.07</ele>
        <time>2012-05-08T13:00:19Z</time>
      </trkpt>
      <trkpt lat="43.7635" lon="6.5449">
        <ele>947.04</ele>
        <time>2012-05-08T13:00:33Z</time>
      </trkpt>
      <trkpt lat="43.76343" lon="6.54498">
        <ele>947.52</ele>
        <time>2012-05-08T13:00:50Z</time>
      </trkpt>
      <trkpt lat="43.76334" lon="6.54501">
        <ele>946.07</ele>
        <time>2012-05-08T13:01:11Z</time>
      </trkpt>
      <trkpt lat="43.7633" lon="6.54505">
        <ele>944.63</ele>
        <time>2012-05-08T13:01:35Z</time>
      </trkpt>
      <trkpt lat="43.76313" lon="6.54509">
        <ele>945.11</ele>
        <time>2012-05-08T13:01:53Z</time>
      </trkpt>
      <trkpt lat="43.76304" lon="6.54517">
        <ele>947.52</ele>
        <time>2012-05-08T13:02:10Z</time>
      </trkpt>
      <trkpt lat="43.76302" lon="6.54518">
        <ele>947.52</ele>
        <time>2012-05-08T13:02:14Z</time>
      </trkpt>
      <trkpt lat="43.7629" lon="6.54527">
        <ele>947.04</ele>
        <time>2012-05-08T13:02:35Z</time>
      </trkpt>
      <trkpt lat="43.76277" lon="6.54531">
        <ele>947.52</ele>
        <time>2012-05-08T13:02:54Z</time>
      </trkpt>
      <trkpt lat="43.76268" lon="6.54536">
        <ele>948.96</ele>
        <time>2012-05-08T13:03:14Z</time>
      </trkpt>
      <trkpt lat="43.7626" lon="6.54541">
        <ele>948</ele>
        <time>2012-05-08T13:03:34Z</time>
      </trkpt>
      <trkpt lat="43.76254" lon="6.54545">
        <ele>949.92</ele>
        <time>2012-05-08T13:04:03Z</time>
      </trkpt>
      <trkpt lat="43.76252" lon="6.54549">
        <ele>948.96</ele>
        <time>2012-05-08T13:04:29Z</time>
      </trkpt>
      <trkpt lat="43.76254" lon="6.54554">
        <ele>948.96</ele>
        <time>2012-05-08T13:04:31Z</time>
      </trkpt>
      <trkpt lat="43.76257" lon="6.54553">
        <ele>949.92</ele>
        <time>2012-05-08T13:04:50Z</time>
      </trkpt>
      <trkpt lat="43.7625" lon="6.54557">
        <ele>948.96</ele>
        <time>2012-05-08T13:05:10Z</time>
      </trkpt>
      <trkpt lat="43.76241" lon="6.54559">
        <ele>950.4</ele>
        <time>2012-05-08T13:05:19Z</time>
      </trkpt>
      <trkpt lat="43.76225" lon="6.54565">
        <ele>953.28</ele>
        <time>2012-05-08T13:05:36Z</time>
      </trkpt>
      <trkpt lat="43.76225" lon="6.54565">
        <ele>953.77</ele>
        <time>2012-05-08T13:05:37Z</time>
      </trkpt>
      <trkpt lat="43.76205" lon="6.54573">
        <ele>960.01</ele>
        <time>2012-05-08T13:05:56Z</time>
      </trkpt>
      <trkpt lat="43.76199" lon="6.54586">
        <ele>964.82</ele>
        <time>2012-05-08T13:06:13Z</time>
      </trkpt>
      <trkpt lat="43.7619" lon="6.54593">
        <ele>969.15</ele>
        <time>2012-05-08T13:06:27Z</time>
      </trkpt>
      <trkpt lat="43.76186" lon="6.54594">
        <ele>970.11</ele>
        <time>2012-05-08T13:06:31Z</time>
      </trkpt>
      <trkpt lat="43.76178" lon="6.54596">
        <ele>970.59</ele>
        <time>2012-05-08T13:06:39Z</time>
      </trkpt>
      <trkpt lat="43.76166" lon="6.546">
        <ele>971.07</ele>
        <time>2012-05-08T13:06:51Z</time>
      </trkpt>
      <trkpt lat="43.76149" lon="6.54607">
        <ele>973.95</ele>
        <time>2012-05-08T13:07:10Z</time>
      </trkpt>
      <trkpt lat="43.76137" lon="6.54616">
        <ele>975.88</ele>
        <time>2012-05-08T13:07:28Z</time>
      </trkpt>
      <trkpt lat="43.76133" lon="6.54618">
        <ele>975.88</ele>
        <time>2012-05-08T13:07:32Z</time>
      </trkpt>
      <trkpt lat="43.76131" lon="6.54619">
        <ele>975.88</ele>
        <time>2012-05-08T13:07:35Z</time>
      </trkpt>
      <trkpt lat="43.76125" lon="6.54622">
        <ele>975.88</ele>
        <time>2012-05-08T13:07:41Z</time>
      </trkpt>
      <trkpt lat="43.76117" lon="6.54622">
        <ele>974.91</ele>
        <time>2012-05-08T13:08:02Z</time>
      </trkpt>
      <trkpt lat="43.76107" lon="6.54637">
        <ele>972.99</ele>
        <time>2012-05-08T13:08:21Z</time>
      </trkpt>
      <trkpt lat="43.76117" lon="6.5465">
        <ele>971.55</ele>
        <time>2012-05-08T13:08:31Z</time>
      </trkpt>
      <trkpt lat="43.7614" lon="6.54657">
        <ele>970.11</ele>
        <time>2012-05-08T13:08:45Z</time>
      </trkpt>
      <trkpt lat="43.7615" lon="6.54659">
        <ele>970.11</ele>
        <time>2012-05-08T13:08:55Z</time>
      </trkpt>
      <trkpt lat="43.7616" lon="6.54654">
        <ele>971.07</ele>
        <time>2012-05-08T13:09:02Z</time>
      </trkpt>
      <trkpt lat="43.76164" lon="6.54654">
        <ele>972.51</ele>
        <time>2012-05-08T13:09:06Z</time>
      </trkpt>
      <trkpt lat="43.76175" lon="6.54648">
        <ele>972.03</ele>
        <time>2012-05-08T13:09:21Z</time>
      </trkpt>
      <trkpt lat="43.76192" lon="6.54647">
        <ele>973.95</ele>
        <time>2012-05-08T13:09:39Z</time>
      </trkpt>
      <trkpt lat="43.76203" lon="6.54646">
        <ele>974.43</ele>
        <time>2012-05-08T13:09:50Z</time>
      </trkpt>
      <trkpt lat="43.76219" lon="6.54647">
        <ele>974.91</ele>
        <time>2012-05-08T13:10:08Z</time>
      </trkpt>
      <trkpt lat="43.76226" lon="6.54652">
        <ele>974.43</ele>
        <time>2012-05-08T13:10:19Z</time>
      </trkpt>
      <trkpt lat="43.76236" lon="6.5466">
        <ele>972.99</ele>
        <time>2012-05-08T13:10:29Z</time>
      </trkpt>
      <trkpt lat="43.76252" lon="6.54659">
        <ele>972.03</ele>
        <time>2012-05-08T13:10:47Z</time>
      </trkpt>
      <trkpt lat="43.76268" lon="6.54656">
        <ele>975.39</ele>
        <time>2012-05-08T13:11:05Z</time>
      </trkpt>
      <trkpt lat="43.76271" lon="6.54655">
        <ele>975.39</ele>
        <time>2012-05-08T13:11:09Z</time>
      </trkpt>
      <trkpt lat="43.76282" lon="6.54658">
        <ele>973.47</ele>
        <time>2012-05-08T13:11:24Z</time>
      </trkpt>
      <trkpt lat="43.76283" lon="6.54663">
        <ele>974.43</ele>
        <time>2012-05-08T13:11:45Z</time>
      </trkpt>
      <trkpt lat="43.76289" lon="6.54659">
        <ele>973.47</ele>
        <time>2012-05-08T13:12:05Z</time>
      </trkpt>
      <trkpt lat="43.76303" lon="6.5466">
        <ele>973.47</ele>
        <time>2012-05-08T13:12:23Z</time>
      </trkpt>
      <trkpt lat="43.76311" lon="6.54661">
        <ele>970.59</ele>
        <time>2012-05-08T13:12:40Z</time>
      </trkpt>
      <trkpt lat="43.76324" lon="6.54667">
        <ele>972.99</ele>
        <time>2012-05-08T13:12:55Z</time>
      </trkpt>
      <trkpt lat="43.76326" lon="6.54669">
        <ele>973.47</ele>
        <time>2012-05-08T13:13:02Z</time>
      </trkpt>
      <trkpt lat="43.76339" lon="6.54678">
        <ele>975.88</ele>
        <time>2012-05-08T13:13:22Z</time>
      </trkpt>
      <trkpt lat="43.76346" lon="6.54683">
        <ele>978.28</ele>
        <time>2012-05-08T13:13:39Z</time>
      </trkpt>
      <trkpt lat="43.76357" lon="6.54688">
        <ele>980.68</ele>
        <time>2012-05-08T13:13:58Z</time>
      </trkpt>
      <trkpt lat="43.76369" lon="6.54691">
        <ele>984.53</ele>
        <time>2012-05-08T13:14:19Z</time>
      </trkpt>
      <trkpt lat="43.76378" lon="6.54693">
        <ele>987.89</ele>
        <time>2012-05-08T13:14:36Z</time>
      </trkpt>
      <trkpt lat="43.76385" lon="6.54696">
        <ele>989.81</ele>
        <time>2012-05-08T13:14:51Z</time>
      </trkpt>
      <trkpt lat="43.76388" lon="6.54693">
        <ele>992.7</ele>
        <time>2012-05-08T13:15:13Z</time>
      </trkpt>
      <trkpt lat="43.76387" lon="6.54694">
        <ele>992.7</ele>
        <time>2012-05-08T13:15:58Z</time>
      </trkpt>
      <trkpt lat="43.76382" lon="6.54698">
        <ele>994.62</ele>
        <time>2012-05-08T13:16:14Z</time>
      </trkpt>
      <trkpt lat="43.76375" lon="6.54706">
        <ele>997.99</ele>
        <time>2012-05-08T13:16:31Z</time>
      </trkpt>
      <trkpt lat="43.76366" lon="6.54711">
        <ele>1004.23</ele>
        <time>2012-05-08T13:16:49Z</time>
      </trkpt>
      <trkpt lat="43.7636" lon="6.54717">
        <ele>1004.72</ele>
        <time>2012-05-08T13:17:08Z</time>
      </trkpt>
      <trkpt lat="43.76354" lon="6.54725">
        <ele>1008.08</ele>
        <time>2012-05-08T13:17:27Z</time>
      </trkpt>
      <trkpt lat="43.76347" lon="6.54734">
        <ele>1010.96</ele>
        <time>2012-05-08T13:17:45Z</time>
      </trkpt>
      <trkpt lat="43.7634" lon="6.54739">
        <ele>1014.33</ele>
        <time>2012-05-08T13:18:04Z</time>
      </trkpt>
      <trkpt lat="43.7633" lon="6.54744">
        <ele>1015.77</ele>
        <time>2012-05-08T13:18:23Z</time>
      </trkpt>
      <trkpt lat="43.7632" lon="6.54751">
        <ele>1018.17</ele>
        <time>2012-05-08T13:18:41Z</time>
      </trkpt>
      <trkpt lat="43.76311" lon="6.54762">
        <ele>1019.62</ele>
        <time>2012-05-08T13:19:01Z</time>
      </trkpt>
      <trkpt lat="43.76306" lon="6.54776">
        <ele>1020.1</ele>
        <time>2012-05-08T13:19:19Z</time>
      </trkpt>
      <trkpt lat="43.76299" lon="6.54783">
        <ele>1021.54</ele>
        <time>2012-05-08T13:19:36Z</time>
      </trkpt>
      <trkpt lat="43.76291" lon="6.54792">
        <ele>1026.34</ele>
        <time>2012-05-08T13:19:55Z</time>
      </trkpt>
      <trkpt lat="43.76287" lon="6.54794">
        <ele>1027.79</ele>
        <time>2012-05-08T13:20:06Z</time>
      </trkpt>
      <trkpt lat="43.76284" lon="6.54793">
        <ele>1029.23</ele>
        <time>2012-05-08T13:20:20Z</time>
      </trkpt>
      <trkpt lat="43.76272" lon="6.54801">
        <ele>1030.19</ele>
        <time>2012-05-08T13:20:39Z</time>
      </trkpt>
      <trkpt lat="43.76263" lon="6.54808">
        <ele>1031.15</ele>
        <time>2012-05-08T13:20:58Z</time>
      </trkpt>
      <trkpt lat="43.76252" lon="6.54813">
        <ele>1034.04</ele>
        <time>2012-05-08T13:21:17Z</time>
      </trkpt>
      <trkpt lat="43.76246" lon="6.54822">
        <ele>1036.92</ele>
        <time>2012-05-08T13:21:36Z</time>
      </trkpt>
      <trkpt lat="43.76232" lon="6.54826">
        <ele>1041.73</ele>
        <time>2012-05-08T13:21:58Z</time>
      </trkpt>
      <trkpt lat="43.76222" lon="6.54831">
        <ele>1041.73</ele>
        <time>2012-05-08T13:22:14Z</time>
      </trkpt>
      <trkpt lat="43.76213" lon="6.54838">
        <ele>1044.61</ele>
        <time>2012-05-08T13:22:31Z</time>
      </trkpt>
      <trkpt lat="43.76205" lon="6.54842">
        <ele>1047.01</ele>
        <time>2012-05-08T13:22:49Z</time>
      </trkpt>
      <trkpt lat="43.76193" lon="6.54845">
        <ele>1049.42</ele>
        <time>2012-05-08T13:23:09Z</time>
      </trkpt>
      <trkpt lat="43.76186" lon="6.54853">
        <ele>1050.38</ele>
        <time>2012-05-08T13:23:26Z</time>
      </trkpt>
      <trkpt lat="43.76181" lon="6.54861">
        <ele>1050.38</ele>
        <time>2012-05-08T13:23:44Z</time>
      </trkpt>
      <trkpt lat="43.76179" lon="6.54878">
        <ele>1050.86</ele>
        <time>2012-05-08T13:24:05Z</time>
      </trkpt>
      <trkpt lat="43.76179" lon="6.54888">
        <ele>1054.22</ele>
        <time>2012-05-08T13:24:21Z</time>
      </trkpt>
      <trkpt lat="43.76176" lon="6.54905">
        <ele>1055.18</ele>
        <time>2012-05-08T13:24:39Z</time>
      </trkpt>
      <trkpt lat="43.76173" lon="6.54914">
        <ele>1057.11</ele>
        <time>2012-05-08T13:24:54Z</time>
      </trkpt>
      <trkpt lat="43.76168" lon="6.54925">
        <ele>1059.51</ele>
        <time>2012-05-08T13:25:11Z</time>
      </trkpt>
      <trkpt lat="43.76162" lon="6.54932">
        <ele>1059.99</ele>
        <time>2012-05-08T13:25:27Z</time>
      </trkpt>
      <trkpt lat="43.7615" lon="6.54936">
        <ele>1061.43</ele>
        <time>2012-05-08T13:25:47Z</time>
      </trkpt>
      <trkpt lat="43.7614" lon="6.54938">
        <ele>1064.8</ele>
        <time>2012-05-08T13:26:06Z</time>
      </trkpt>
      <trkpt lat="43.76133" lon="6.54939">
        <ele>1065.76</ele>
        <time>2012-05-08T13:26:25Z</time>
      </trkpt>
      <trkpt lat="43.76124" lon="6.5494">
        <ele>1068.16</ele>
        <time>2012-05-08T13:26:48Z</time>
      </trkpt>
      <trkpt lat="43.76114" lon="6.54944">
        <ele>1071.05</ele>
        <time>2012-05-08T13:27:07Z</time>
      </trkpt>
      <trkpt lat="43.76102" lon="6.54943">
        <ele>1071.05</ele>
        <time>2012-05-08T13:27:25Z</time>
      </trkpt>
      <trkpt lat="43.76089" lon="6.5495">
        <ele>1070.08</ele>
        <time>2012-05-08T13:27:44Z</time>
      </trkpt>
      <trkpt lat="43.76079" lon="6.54958">
        <ele>1071.53</ele>
        <time>2012-05-08T13:28:01Z</time>
      </trkpt>
      <trkpt lat="43.76068" lon="6.54964">
        <ele>1072.49</ele>
        <time>2012-05-08T13:28:19Z</time>
      </trkpt>
      <trkpt lat="43.76065" lon="6.54965">
        <ele>1072.49</ele>
        <time>2012-05-08T13:28:23Z</time>
      </trkpt>
      <trkpt lat="43.76052" lon="6.54968">
        <ele>1075.85</ele>
        <time>2012-05-08T13:28:42Z</time>
      </trkpt>
      <trkpt lat="43.76036" lon="6.54973">
        <ele>1077.78</ele>
        <time>2012-05-08T13:29:03Z</time>
      </trkpt>
      <trkpt lat="43.76035" lon="6.54973">
        <ele>1078.26</ele>
        <time>2012-05-08T13:29:06Z</time>
      </trkpt>
      <trkpt lat="43.7602" lon="6.54975">
        <ele>1077.78</ele>
        <time>2012-05-08T13:29:25Z</time>
      </trkpt>
      <trkpt lat="43.7601" lon="6.54979">
        <ele>1077.78</ele>
        <time>2012-05-08T13:29:40Z</time>
      </trkpt>
      <trkpt lat="43.75995" lon="6.54983">
        <ele>1079.7</ele>
        <time>2012-05-08T13:30:00Z</time>
      </trkpt>
      <trkpt lat="43.75981" lon="6.54992">
        <ele>1076.33</ele>
        <time>2012-05-08T13:30:19Z</time>
      </trkpt>
      <trkpt lat="43.75968" lon="6.54999">
        <ele>1073.93</ele>
        <time>2012-05-08T13:30:40Z</time>
      </trkpt>
      <trkpt lat="43.75952" lon="6.55011">
        <ele>1078.26</ele>
        <time>2012-05-08T13:31:01Z</time>
      </trkpt>
      <trkpt lat="43.75943" lon="6.55009">
        <ele>1076.33</ele>
        <time>2012-05-08T13:31:20Z</time>
      </trkpt>
      <trkpt lat="43.75933" lon="6.55009">
        <ele>1072.97</ele>
        <time>2012-05-08T13:31:39Z</time>
      </trkpt>
      <trkpt lat="43.75922" lon="6.55012">
        <ele>1069.6</ele>
        <time>2012-05-08T13:31:56Z</time>
      </trkpt>
      <trkpt lat="43.75913" lon="6.55014">
        <ele>1065.76</ele>
        <time>2012-05-08T13:32:13Z</time>
      </trkpt>
      <trkpt lat="43.75899" lon="6.55008">
        <ele>1064.8</ele>
        <time>2012-05-08T13:32:32Z</time>
      </trkpt>
      <trkpt lat="43.75893" lon="6.55002">
        <ele>1063.84</ele>
        <time>2012-05-08T13:32:54Z</time>
      </trkpt>
      <trkpt lat="43.75892" lon="6.55002">
        <ele>1062.39</ele>
        <time>2012-05-08T13:33:09Z</time>
      </trkpt>
      <trkpt lat="43.75892" lon="6.55002">
        <ele>1061.91</ele>
        <time>2012-05-08T13:33:44Z</time>
      </trkpt>
      <trkpt lat="43.75892" lon="6.55002">
        <ele>1061.91</ele>
        <time>2012-05-08T13:34:24Z</time>
      </trkpt>
      <trkpt lat="43.75892" lon="6.55003">
        <ele>1060.95</ele>
        <time>2012-05-08T13:35:10Z</time>
      </trkpt>
      <trkpt lat="43.75893" lon="6.55003">
        <ele>1061.43</ele>
        <time>2012-05-08T13:35:51Z</time>
      </trkpt>
      <trkpt lat="43.75892" lon="6.55003">
        <ele>1061.91</ele>
        <time>2012-05-08T13:36:28Z</time>
      </trkpt>
      <trkpt lat="43.75893" lon="6.55003">
        <ele>1062.39</ele>
        <time>2012-05-08T13:37:04Z</time>
      </trkpt>
      <trkpt lat="43.75896" lon="6.55003">
        <ele>1063.36</ele>
        <time>2012-05-08T13:37:51Z</time>
      </trkpt>
      <trkpt lat="43.75896" lon="6.55003">
        <ele>1061.91</ele>
        <time>2012-05-08T13:38:44Z</time>
      </trkpt>
      <trkpt lat="43.75895" lon="6.55003">
        <ele>1062.39</ele>
        <time>2012-05-08T13:39:36Z</time>
      </trkpt>
      <trkpt lat="43.75894" lon="6.55001">
        <ele>1063.84</ele>
        <time>2012-05-08T13:40:34Z</time>
      </trkpt>
      <trkpt lat="43.75893" lon="6.55002">
        <ele>1063.84</ele>
        <time>2012-05-08T13:41:31Z</time>
      </trkpt>
      <trkpt lat="43.75893" lon="6.55002">
        <ele>1063.84</ele>
        <time>2012-05-08T13:42:31Z</time>
      </trkpt>
      <trkpt lat="43.75891" lon="6.55002">
        <ele>1064.32</ele>
        <time>2012-05-08T13:43:23Z</time>
      </trkpt>
      <trkpt lat="43.75891" lon="6.55003">
        <ele>1064.32</ele>
        <time>2012-05-08T13:44:07Z</time>
      </trkpt>
      <trkpt lat="43.75891" lon="6.55003">
        <ele>1065.28</ele>
        <time>2012-05-08T13:44:53Z</time>
      </trkpt>
      <trkpt lat="43.75893" lon="6.55001">
        <ele>1063.84</ele>
        <time>2012-05-08T13:45:34Z</time>
      </trkpt>
      <trkpt lat="43.75893" lon="6.55">
        <ele>1064.32</ele>
        <time>2012-05-08T13:46:25Z</time>
      </trkpt>
      <trkpt lat="43.75893" lon="6.55">
        <ele>1064.8</ele>
        <time>2012-05-08T13:47:04Z</time>
      </trkpt>
      <trkpt lat="43.75894" lon="6.55">
        <ele>1065.76</ele>
        <time>2012-05-08T13:47:52Z</time>
      </trkpt>
      <trkpt lat="43.75894" lon="6.55">
        <ele>1065.76</ele>
        <time>2012-05-08T13:48:34Z</time>
      </trkpt>
      <trkpt lat="43.75893" lon="6.55001">
        <ele>1065.76</ele>
        <time>2012-05-08T13:49:11Z</time>
      </trkpt>
      <trkpt lat="43.75893" lon="6.55002">
        <ele>1066.24</ele>
        <time>2012-05-08T13:49:48Z</time>
      </trkpt>
      <trkpt lat="43.7589" lon="6.55004">
        <ele>1064.8</ele>
        <time>2012-05-08T13:50:17Z</time>
      </trkpt>
      <trkpt lat="43.75877" lon="6.54996">
        <ele>1063.84</ele>
        <time>2012-05-08T13:50:34Z</time>
      </trkpt>
      <trkpt lat="43.75871" lon="6.54992">
        <ele>1063.84</ele>
        <time>2012-05-08T13:50:52Z</time>
      </trkpt>
      <trkpt lat="43.75858" lon="6.54989">
        <ele>1064.8</ele>
        <time>2012-05-08T13:51:11Z</time>
      </trkpt>
      <trkpt lat="43.75857" lon="6.54988">
        <ele>1064.8</ele>
        <time>2012-05-08T13:51:12Z</time>
      </trkpt>
      <trkpt lat="43.75843" lon="6.54992">
        <ele>1067.2</ele>
        <time>2012-05-08T13:51:29Z</time>
      </trkpt>
      <trkpt lat="43.7583" lon="6.54985">
        <ele>1067.68</ele>
        <time>2012-05-08T13:51:48Z</time>
      </trkpt>
      <trkpt lat="43.7582" lon="6.54992">
        <ele>1066.72</ele>
        <time>2012-05-08T13:52:10Z</time>
      </trkpt>
      <trkpt lat="43.7582" lon="6.54994">
        <ele>1064.8</ele>
        <time>2012-05-08T13:52:18Z</time>
      </trkpt>
      <trkpt lat="43.7582" lon="6.54996">
        <ele>1064.8</ele>
        <time>2012-05-08T13:52:20Z</time>
      </trkpt>
      <trkpt lat="43.75821" lon="6.55001">
        <ele>1063.36</ele>
        <time>2012-05-08T13:52:24Z</time>
      </trkpt>
      <trkpt lat="43.75825" lon="6.55005">
        <ele>1061.91</ele>
        <time>2012-05-08T13:52:29Z</time>
      </trkpt>
      <trkpt lat="43.75825" lon="6.55011">
        <ele>1059.03</ele>
        <time>2012-05-08T13:52:36Z</time>
      </trkpt>
      <trkpt lat="43.75826" lon="6.55019">
        <ele>1058.55</ele>
        <time>2012-05-08T13:52:45Z</time>
      </trkpt>
      <trkpt lat="43.75835" lon="6.55031">
        <ele>1054.7</ele>
        <time>2012-05-08T13:53:03Z</time>
      </trkpt>
      <trkpt lat="43.75847" lon="6.55036">
        <ele>1050.86</ele>
        <time>2012-05-08T13:53:20Z</time>
      </trkpt>
      <trkpt lat="43.75851" lon="6.55042">
        <ele>1050.38</ele>
        <time>2012-05-08T13:53:28Z</time>
      </trkpt>
      <trkpt lat="43.75866" lon="6.55056">
        <ele>1048.45</ele>
        <time>2012-05-08T13:53:50Z</time>
      </trkpt>
      <trkpt lat="43.7588" lon="6.55063">
        <ele>1047.01</ele>
        <time>2012-05-08T13:54:08Z</time>
      </trkpt>
      <trkpt lat="43.75887" lon="6.55072">
        <ele>1045.57</ele>
        <time>2012-05-08T13:54:25Z</time>
      </trkpt>
      <trkpt lat="43.75889" lon="6.55089">
        <ele>1047.49</ele>
        <time>2012-05-08T13:54:40Z</time>
      </trkpt>
      <trkpt lat="43.75895" lon="6.55107">
        <ele>1045.57</ele>
        <time>2012-05-08T13:54:58Z</time>
      </trkpt>
      <trkpt lat="43.75897" lon="6.55119">
        <ele>1042.69</ele>
        <time>2012-05-08T13:55:11Z</time>
      </trkpt>
      <trkpt lat="43.75904" lon="6.55127">
        <ele>1039.8</ele>
        <time>2012-05-08T13:55:25Z</time>
      </trkpt>
      <trkpt lat="43.75906" lon="6.55129">
        <ele>1039.32</ele>
        <time>2012-05-08T13:55:28Z</time>
      </trkpt>
      <trkpt lat="43.75907" lon="6.55144">
        <ele>1039.32</ele>
        <time>2012-05-08T13:55:44Z</time>
      </trkpt>
      <trkpt lat="43.75902" lon="6.5516">
        <ele>1038.36</ele>
        <time>2012-05-08T13:56:01Z</time>
      </trkpt>
      <trkpt lat="43.75902" lon="6.55177">
        <ele>1036.92</ele>
        <time>2012-05-08T13:56:16Z</time>
      </trkpt>
      <trkpt lat="43.75903" lon="6.55198">
        <ele>1032.59</ele>
        <time>2012-05-08T13:56:35Z</time>
      </trkpt>
      <trkpt lat="43.75903" lon="6.55203">
        <ele>1031.63</ele>
        <time>2012-05-08T13:56:40Z</time>
      </trkpt>
      <trkpt lat="43.75906" lon="6.55214">
        <ele>1024.42</ele>
        <time>2012-05-08T13:56:55Z</time>
      </trkpt>
      <trkpt lat="43.75907" lon="6.55219">
        <ele>1022.5</ele>
        <time>2012-05-08T13:57:03Z</time>
      </trkpt>
      <trkpt lat="43.75905" lon="6.55236">
        <ele>1023.94</ele>
        <time>2012-05-08T13:57:20Z</time>
      </trkpt>
      <trkpt lat="43.75905" lon="6.55238">
        <ele>1024.9</ele>
        <time>2012-05-08T13:57:22Z</time>
      </trkpt>
      <trkpt lat="43.75907" lon="6.55243">
        <ele>1024.42</ele>
        <time>2012-05-08T13:57:27Z</time>
      </trkpt>
      <trkpt lat="43.75903" lon="6.55261">
        <ele>1025.86</ele>
        <time>2012-05-08T13:57:43Z</time>
      </trkpt>
      <trkpt lat="43.75904" lon="6.55271">
        <ele>1027.79</ele>
        <time>2012-05-08T13:57:53Z</time>
      </trkpt>
      <trkpt lat="43.75906" lon="6.55287">
        <ele>1026.83</ele>
        <time>2012-05-08T13:58:08Z</time>
      </trkpt>
      <trkpt lat="43.75903" lon="6.55297">
        <ele>1024.42</ele>
        <time>2012-05-08T13:58:25Z</time>
      </trkpt>
      <trkpt lat="43.75903" lon="6.55299">
        <ele>1024.42</ele>
        <time>2012-05-08T13:58:26Z</time>
      </trkpt>
      <trkpt lat="43.75902" lon="6.5531">
        <ele>1023.46</ele>
        <time>2012-05-08T13:58:35Z</time>
      </trkpt>
      <trkpt lat="43.75902" lon="6.55313">
        <ele>1023.46</ele>
        <time>2012-05-08T13:58:37Z</time>
      </trkpt>
      <trkpt lat="43.75901" lon="6.5533">
        <ele>1020.58</ele>
        <time>2012-05-08T13:58:53Z</time>
      </trkpt>
      <trkpt lat="43.75898" lon="6.55346">
        <ele>1020.58</ele>
        <time>2012-05-08T13:59:08Z</time>
      </trkpt>
      <trkpt lat="43.75896" lon="6.55362">
        <ele>1021.06</ele>
        <time>2012-05-08T13:59:27Z</time>
      </trkpt>
      <trkpt lat="43.75895" lon="6.55378">
        <ele>1020.58</ele>
        <time>2012-05-08T13:59:43Z</time>
      </trkpt>
      <trkpt lat="43.75894" lon="6.55391">
        <ele>1018.65</ele>
        <time>2012-05-08T13:59:59Z</time>
      </trkpt>
      <trkpt lat="43.75892" lon="6.55404">
        <ele>1020.1</ele>
        <time>2012-05-08T14:00:12Z</time>
      </trkpt>
      <trkpt lat="43.7589" lon="6.5541">
        <ele>1021.06</ele>
        <time>2012-05-08T14:00:19Z</time>
      </trkpt>
      <trkpt lat="43.75887" lon="6.5543">
        <ele>1021.54</ele>
        <time>2012-05-08T14:00:36Z</time>
      </trkpt>
      <trkpt lat="43.75887" lon="6.55431">
        <ele>1021.54</ele>
        <time>2012-05-08T14:00:37Z</time>
      </trkpt>
      <trkpt lat="43.75885" lon="6.55447">
        <ele>1019.13</ele>
        <time>2012-05-08T14:00:52Z</time>
      </trkpt>
      <trkpt lat="43.7589" lon="6.55465">
        <ele>1017.69</ele>
        <time>2012-05-08T14:01:09Z</time>
      </trkpt>
      <trkpt lat="43.75892" lon="6.55466">
        <ele>1015.77</ele>
        <time>2012-05-08T14:01:23Z</time>
      </trkpt>
      <trkpt lat="43.75897" lon="6.55477">
        <ele>1013.37</ele>
        <time>2012-05-08T14:01:39Z</time>
      </trkpt>
      <trkpt lat="43.759" lon="6.55484">
        <ele>1011.44</ele>
        <time>2012-05-08T14:01:47Z</time>
      </trkpt>
      <trkpt lat="43.75902" lon="6.55488">
        <ele>1010.48</ele>
        <time>2012-05-08T14:01:51Z</time>
      </trkpt>
      <trkpt lat="43.75909" lon="6.55498">
        <ele>1006.64</ele>
        <time>2012-05-08T14:02:03Z</time>
      </trkpt>
      <trkpt lat="43.7591" lon="6.55509">
        <ele>1004.23</ele>
        <time>2012-05-08T14:02:15Z</time>
      </trkpt>
      <trkpt lat="43.75901" lon="6.55519">
        <ele>1004.72</ele>
        <time>2012-05-08T14:02:32Z</time>
      </trkpt>
      <trkpt lat="43.75898" lon="6.55536">
        <ele>1002.31</ele>
        <time>2012-05-08T14:02:50Z</time>
      </trkpt>
      <trkpt lat="43.75899" lon="6.55537">
        <ele>1001.83</ele>
        <time>2012-05-08T14:02:51Z</time>
      </trkpt>
      <trkpt lat="43.75899" lon="6.55539">
        <ele>1001.83</ele>
        <time>2012-05-08T14:02:53Z</time>
      </trkpt>
      <trkpt lat="43.759" lon="6.55544">
        <ele>1000.87</ele>
        <time>2012-05-08T14:02:58Z</time>
      </trkpt>
      <trkpt lat="43.75905" lon="6.5556">
        <ele>998.95</ele>
        <time>2012-05-08T14:03:16Z</time>
      </trkpt>
      <trkpt lat="43.75906" lon="6.5556">
        <ele>998.47</ele>
        <time>2012-05-08T14:03:17Z</time>
      </trkpt>
      <trkpt lat="43.75911" lon="6.55575">
        <ele>995.1</ele>
        <time>2012-05-08T14:03:35Z</time>
      </trkpt>
      <trkpt lat="43.75916" lon="6.55588">
        <ele>992.7</ele>
        <time>2012-05-08T14:03:50Z</time>
      </trkpt>
      <trkpt lat="43.75922" lon="6.55608">
        <ele>988.85</ele>
        <time>2012-05-08T14:04:08Z</time>
      </trkpt>
      <trkpt lat="43.75922" lon="6.55618">
        <ele>986.45</ele>
        <time>2012-05-08T14:04:16Z</time>
      </trkpt>
      <trkpt lat="43.75927" lon="6.55631">
        <ele>987.41</ele>
        <time>2012-05-08T14:04:30Z</time>
      </trkpt>
      <trkpt lat="43.75929" lon="6.55643">
        <ele>985.97</ele>
        <time>2012-05-08T14:04:41Z</time>
      </trkpt>
      <trkpt lat="43.75931" lon="6.55648">
        <ele>985.49</ele>
        <time>2012-05-08T14:04:45Z</time>
      </trkpt>
      <trkpt lat="43.75932" lon="6.55655">
        <ele>985.49</ele>
        <time>2012-05-08T14:04:51Z</time>
      </trkpt>
      <trkpt lat="43.75933" lon="6.55657">
        <ele>984.53</ele>
        <time>2012-05-08T14:04:53Z</time>
      </trkpt>
      <trkpt lat="43.75936" lon="6.55673">
        <ele>983.57</ele>
        <time>2012-05-08T14:05:09Z</time>
      </trkpt>
      <trkpt lat="43.75937" lon="6.55677">
        <ele>982.6</ele>
        <time>2012-05-08T14:05:13Z</time>
      </trkpt>
      <trkpt lat="43.75938" lon="6.5568">
        <ele>981.64</ele>
        <time>2012-05-08T14:05:32Z</time>
      </trkpt>
      <trkpt lat="43.75939" lon="6.55688">
        <ele>980.68</ele>
        <time>2012-05-08T14:05:39Z</time>
      </trkpt>
      <trkpt lat="43.75939" lon="6.55701">
        <ele>977.8</ele>
        <time>2012-05-08T14:05:52Z</time>
      </trkpt>
      <trkpt lat="43.75939" lon="6.55703">
        <ele>977.8</ele>
        <time>2012-05-08T14:05:54Z</time>
      </trkpt>
      <trkpt lat="43.75939" lon="6.55717">
        <ele>976.84</ele>
        <time>2012-05-08T14:06:08Z</time>
      </trkpt>
      <trkpt lat="43.75939" lon="6.55727">
        <ele>974.91</ele>
        <time>2012-05-08T14:06:24Z</time>
      </trkpt>
      <trkpt lat="43.75935" lon="6.5574">
        <ele>973.47</ele>
        <time>2012-05-08T14:06:39Z</time>
      </trkpt>
      <trkpt lat="43.75939" lon="6.55753">
        <ele>969.15</ele>
        <time>2012-05-08T14:06:53Z</time>
      </trkpt>
      <trkpt lat="43.7594" lon="6.55758">
        <ele>967.7</ele>
        <time>2012-05-08T14:07:04Z</time>
      </trkpt>
      <trkpt lat="43.75942" lon="6.55763">
        <ele>968.18</ele>
        <time>2012-05-08T14:07:08Z</time>
      </trkpt>
      <trkpt lat="43.75946" lon="6.55781">
        <ele>970.59</ele>
        <time>2012-05-08T14:07:20Z</time>
      </trkpt>
      <trkpt lat="43.75951" lon="6.55791">
        <ele>967.22</ele>
        <time>2012-05-08T14:07:36Z</time>
      </trkpt>
      <trkpt lat="43.75953" lon="6.55793">
        <ele>966.74</ele>
        <time>2012-05-08T14:07:39Z</time>
      </trkpt>
      <trkpt lat="43.75957" lon="6.55801">
        <ele>964.34</ele>
        <time>2012-05-08T14:07:47Z</time>
      </trkpt>
      <trkpt lat="43.75962" lon="6.55815">
        <ele>963.38</ele>
        <time>2012-05-08T14:08:02Z</time>
      </trkpt>
      <trkpt lat="43.75964" lon="6.5582">
        <ele>961.94</ele>
        <time>2012-05-08T14:08:07Z</time>
      </trkpt>
      <trkpt lat="43.75967" lon="6.55834">
        <ele>961.46</ele>
        <time>2012-05-08T14:08:21Z</time>
      </trkpt>
      <trkpt lat="43.75968" lon="6.55841">
        <ele>961.94</ele>
        <time>2012-05-08T14:08:27Z</time>
      </trkpt>
      <trkpt lat="43.75973" lon="6.55836">
        <ele>960.98</ele>
        <time>2012-05-08T14:08:34Z</time>
      </trkpt>
      <trkpt lat="43.75978" lon="6.55822">
        <ele>957.13</ele>
        <time>2012-05-08T14:08:47Z</time>
      </trkpt>
      <trkpt lat="43.75981" lon="6.55821">
        <ele>955.21</ele>
        <time>2012-05-08T14:09:02Z</time>
      </trkpt>
      <trkpt lat="43.75981" lon="6.55823">
        <ele>954.73</ele>
        <time>2012-05-08T14:09:10Z</time>
      </trkpt>
      <trkpt lat="43.75981" lon="6.55827">
        <ele>954.73</ele>
        <time>2012-05-08T14:09:13Z</time>
      </trkpt>
      <trkpt lat="43.7598" lon="6.55833">
        <ele>955.69</ele>
        <time>2012-05-08T14:09:17Z</time>
      </trkpt>
      <trkpt lat="43.75989" lon="6.55851">
        <ele>955.69</ele>
        <time>2012-05-08T14:09:37Z</time>
      </trkpt>
      <trkpt lat="43.7599" lon="6.55852">
        <ele>956.17</ele>
        <time>2012-05-08T14:09:38Z</time>
      </trkpt>
      <trkpt lat="43.75993" lon="6.55857">
        <ele>955.21</ele>
        <time>2012-05-08T14:09:42Z</time>
      </trkpt>
      <trkpt lat="43.76005" lon="6.5586">
        <ele>957.13</ele>
        <time>2012-05-08T14:09:54Z</time>
      </trkpt>
      <trkpt lat="43.76008" lon="6.55862">
        <ele>958.09</ele>
        <time>2012-05-08T14:09:58Z</time>
      </trkpt>
      <trkpt lat="43.7601" lon="6.55864">
        <ele>959.05</ele>
        <time>2012-05-08T14:10:01Z</time>
      </trkpt>
      <trkpt lat="43.76025" lon="6.55865">
        <ele>958.09</ele>
        <time>2012-05-08T14:10:17Z</time>
      </trkpt>
      <trkpt lat="43.76038" lon="6.55868">
        <ele>957.61</ele>
        <time>2012-05-08T14:10:32Z</time>
      </trkpt>
      <trkpt lat="43.76043" lon="6.55868">
        <ele>957.13</ele>
        <time>2012-05-08T14:10:38Z</time>
      </trkpt>
      <trkpt lat="43.76046" lon="6.55868">
        <ele>956.65</ele>
        <time>2012-05-08T14:10:43Z</time>
      </trkpt>
      <trkpt lat="43.76058" lon="6.55874">
        <ele>953.77</ele>
        <time>2012-05-08T14:10:57Z</time>
      </trkpt>
      <trkpt lat="43.76071" lon="6.5588">
        <ele>952.32</ele>
        <time>2012-05-08T14:11:13Z</time>
      </trkpt>
      <trkpt lat="43.76074" lon="6.55879">
        <ele>951.36</ele>
        <time>2012-05-08T14:11:16Z</time>
      </trkpt>
      <trkpt lat="43.76085" lon="6.55877">
        <ele>949.44</ele>
        <time>2012-05-08T14:11:30Z</time>
      </trkpt>
      <trkpt lat="43.76089" lon="6.55875">
        <ele>949.92</ele>
        <time>2012-05-08T14:11:34Z</time>
      </trkpt>
      <trkpt lat="43.76091" lon="6.55874">
        <ele>949.44</ele>
        <time>2012-05-08T14:11:37Z</time>
      </trkpt>
      <trkpt lat="43.76099" lon="6.55859">
        <ele>951.36</ele>
        <time>2012-05-08T14:11:54Z</time>
      </trkpt>
      <trkpt lat="43.761" lon="6.5586">
        <ele>951.84</ele>
        <time>2012-05-08T14:11:56Z</time>
      </trkpt>
      <trkpt lat="43.76115" lon="6.55877">
        <ele>953.28</ele>
        <time>2012-05-08T14:12:15Z</time>
      </trkpt>
      <trkpt lat="43.76127" lon="6.55889">
        <ele>953.28</ele>
        <time>2012-05-08T14:12:31Z</time>
      </trkpt>
      <trkpt lat="43.76128" lon="6.55892">
        <ele>952.8</ele>
        <time>2012-05-08T14:12:33Z</time>
      </trkpt>
      <trkpt lat="43.76126" lon="6.55904">
        <ele>953.28</ele>
        <time>2012-05-08T14:12:48Z</time>
      </trkpt>
      <trkpt lat="43.76124" lon="6.55906">
        <ele>952.8</ele>
        <time>2012-05-08T14:12:50Z</time>
      </trkpt>
      <trkpt lat="43.76119" lon="6.55911">
        <ele>950.88</ele>
        <time>2012-05-08T14:12:58Z</time>
      </trkpt>
      <trkpt lat="43.76115" lon="6.55929">
        <ele>954.73</ele>
        <time>2012-05-08T14:13:11Z</time>
      </trkpt>
      <trkpt lat="43.76114" lon="6.55935">
        <ele>955.69</ele>
        <time>2012-05-08T14:13:16Z</time>
      </trkpt>
      <trkpt lat="43.76115" lon="6.55939">
        <ele>956.17</ele>
        <time>2012-05-08T14:13:19Z</time>
      </trkpt>
      <trkpt lat="43.76115" lon="6.55941">
        <ele>956.17</ele>
        <time>2012-05-08T14:13:21Z</time>
      </trkpt>
      <trkpt lat="43.76114" lon="6.5596">
        <ele>955.69</ele>
        <time>2012-05-08T14:13:36Z</time>
      </trkpt>
      <trkpt lat="43.76114" lon="6.55968">
        <ele>955.21</ele>
        <time>2012-05-08T14:13:42Z</time>
      </trkpt>
      <trkpt lat="43.76116" lon="6.55975">
        <ele>954.73</ele>
        <time>2012-05-08T14:13:48Z</time>
      </trkpt>
      <trkpt lat="43.76116" lon="6.55977">
        <ele>954.25</ele>
        <time>2012-05-08T14:13:50Z</time>
      </trkpt>
      <trkpt lat="43.76116" lon="6.55982">
        <ele>953.77</ele>
        <time>2012-05-08T14:13:53Z</time>
      </trkpt>
      <trkpt lat="43.76116" lon="6.55988">
        <ele>953.28</ele>
        <time>2012-05-08T14:13:58Z</time>
      </trkpt>
      <trkpt lat="43.76115" lon="6.55994">
        <ele>952.32</ele>
        <time>2012-05-08T14:14:03Z</time>
      </trkpt>
      <trkpt lat="43.76113" lon="6.55999">
        <ele>950.88</ele>
        <time>2012-05-08T14:14:08Z</time>
      </trkpt>
      <trkpt lat="43.76109" lon="6.56008">
        <ele>949.44</ele>
        <time>2012-05-08T14:14:16Z</time>
      </trkpt>
    </trkseg>
  </trk>
</gpx>